<?xml version="1.0" encoding="utf-8"?>
<gpx xmlns:xsi="http://www.w3.org/2001/XMLSchema-instance" xmlns:xsd="http://www.w3.org/2001/XMLSchema" version="1.1" creator="Shapelink.com" xmlns="http://www.topografix.com/GPX/1/1" xmlns:gpxtpx="http://www.garmin.com/xmlschemas/TrackPointExtension/v1">
  <metadata>
    <name>Løping 18.62 km, 2014-06-23</name>
    <desc></desc>
    <author><name>Dennis Rehn</name></author> 
    <time>2014-06-23T16:57:05Z</time>
  </metadata>
  <trk>
    <name>Løping 18.62 km, 2014-06-23</name>
    <trkseg>
      <trkpt lat="59.994777697331" lon="23.425751135257">
        <ele>15.6</ele>
        <time>2014-06-23T16:57:05Z</time>
      </trkpt>
      <trkpt lat="59.994726148646" lon="23.425508730709">
        <ele>15.6</ele>
        <time>2014-06-23T16:57:09Z</time>
      </trkpt>
      <trkpt lat="59.99467803654" lon="23.425298177381">
        <ele>15.6</ele>
        <time>2014-06-23T16:57:12Z</time>
      </trkpt>
      <trkpt lat="59.99457326279" lon="23.424998859732">
        <ele>15.4</ele>
        <time>2014-06-23T16:57:16Z</time>
      </trkpt>
      <trkpt lat="59.994553565325" lon="23.424932894179">
        <ele>15.2</ele>
        <time>2014-06-23T16:57:17Z</time>
      </trkpt>
      <trkpt lat="59.994556163714" lon="23.424664086646">
        <ele>14.6</ele>
        <time>2014-06-23T16:57:21Z</time>
      </trkpt>
      <trkpt lat="59.994609472598" lon="23.424552020643">
        <ele>14</ele>
        <time>2014-06-23T16:57:23Z</time>
      </trkpt>
      <trkpt lat="59.994776020951" lon="23.424330654664">
        <ele>12.8</ele>
        <time>2014-06-23T16:57:28Z</time>
      </trkpt>
      <trkpt lat="59.994945754426" lon="23.424172823487">
        <ele>11.2</ele>
        <time>2014-06-23T16:57:34Z</time>
      </trkpt>
      <trkpt lat="59.994963691692" lon="23.424154886221">
        <ele>11</ele>
        <time>2014-06-23T16:57:35Z</time>
      </trkpt>
      <trkpt lat="59.995039966982" lon="23.424029409178">
        <ele>10.4</ele>
        <time>2014-06-23T16:57:38Z</time>
      </trkpt>
      <trkpt lat="59.994999733862" lon="23.423603608658">
        <ele>9.2</ele>
        <time>2014-06-23T16:57:44Z</time>
      </trkpt>
      <trkpt lat="59.994955728887" lon="23.423296160566">
        <ele>8.4</ele>
        <time>2014-06-23T16:57:49Z</time>
      </trkpt>
      <trkpt lat="59.994882051986" lon="23.423029197051">
        <ele>7.6</ele>
        <time>2014-06-23T16:57:53Z</time>
      </trkpt>
      <trkpt lat="59.994835700079" lon="23.422768100866">
        <ele>6.6</ele>
        <time>2014-06-23T16:57:57Z</time>
      </trkpt>
      <trkpt lat="59.9948238816" lon="23.422485882293">
        <ele>6</ele>
        <time>2014-06-23T16:58:01Z</time>
      </trkpt>
      <trkpt lat="59.994827653455" lon="23.422272730576">
        <ele>5.6</ele>
        <time>2014-06-23T16:58:04Z</time>
      </trkpt>
      <trkpt lat="59.994870065869" lon="23.42185749125">
        <ele>4.2</ele>
        <time>2014-06-23T16:58:10Z</time>
      </trkpt>
      <trkpt lat="59.994898648148" lon="23.421559263248">
        <ele>3.8</ele>
        <time>2014-06-23T16:58:14Z</time>
      </trkpt>
      <trkpt lat="59.994936618155" lon="23.421277547589">
        <ele>3.4</ele>
        <time>2014-06-23T16:58:18Z</time>
      </trkpt>
      <trkpt lat="59.994919602898" lon="23.42091871845">
        <ele>3</ele>
        <time>2014-06-23T16:58:23Z</time>
      </trkpt>
      <trkpt lat="59.994847602377" lon="23.420592075807">
        <ele>2.8</ele>
        <time>2014-06-23T16:58:28Z</time>
      </trkpt>
      <trkpt lat="59.994779206073" lon="23.42035629296">
        <ele>2</ele>
        <time>2014-06-23T16:58:32Z</time>
      </trkpt>
      <trkpt lat="59.994710474493" lon="23.42002520791">
        <ele>1.4</ele>
        <time>2014-06-23T16:58:37Z</time>
      </trkpt>
      <trkpt lat="59.994649118985" lon="23.419747683201">
        <ele>1.2</ele>
        <time>2014-06-23T16:58:41Z</time>
      </trkpt>
      <trkpt lat="59.994562869234" lon="23.419431015019">
        <ele>0.4</ele>
        <time>2014-06-23T16:58:46Z</time>
      </trkpt>
      <trkpt lat="59.994549709651" lon="23.41935717048">
        <ele>0.2</ele>
        <time>2014-06-23T16:58:47Z</time>
      </trkpt>
      <trkpt lat="59.994440325856" lon="23.418965400474">
        <ele>0</ele>
        <time>2014-06-23T16:58:53Z</time>
      </trkpt>
      <trkpt lat="59.994349549879" lon="23.418634147786">
        <ele>0</ele>
        <time>2014-06-23T16:58:58Z</time>
      </trkpt>
      <trkpt lat="59.994285093068" lon="23.418338601992">
        <ele>0</ele>
        <time>2014-06-23T16:59:03Z</time>
      </trkpt>
      <trkpt lat="59.994209823606" lon="23.418042553284">
        <ele>0</ele>
        <time>2014-06-23T16:59:08Z</time>
      </trkpt>
      <trkpt lat="59.994123406217" lon="23.417802160392">
        <ele>0</ele>
        <time>2014-06-23T16:59:12Z</time>
      </trkpt>
      <trkpt lat="59.994023996883" lon="23.417584147173">
        <ele>0</ele>
        <time>2014-06-23T16:59:17Z</time>
      </trkpt>
      <trkpt lat="59.993892484872" lon="23.417452886619">
        <ele>0</ele>
        <time>2014-06-23T16:59:22Z</time>
      </trkpt>
      <trkpt lat="59.993760050852" lon="23.417312657432">
        <ele>0</ele>
        <time>2014-06-23T16:59:28Z</time>
      </trkpt>
      <trkpt lat="59.993687631236" lon="23.417174272263">
        <ele>0</ele>
        <time>2014-06-23T16:59:32Z</time>
      </trkpt>
      <trkpt lat="59.993629628488" lon="23.417042005881">
        <ele>0</ele>
        <time>2014-06-23T16:59:35Z</time>
      </trkpt>
      <trkpt lat="59.993496021002" lon="23.416718632179">
        <ele>0</ele>
        <time>2014-06-23T16:59:41Z</time>
      </trkpt>
      <trkpt lat="59.993386637207" lon="23.416434653407">
        <ele>0</ele>
        <time>2014-06-23T16:59:46Z</time>
      </trkpt>
      <trkpt lat="59.993305500415" lon="23.416202055682">
        <ele>0</ele>
        <time>2014-06-23T16:59:50Z</time>
      </trkpt>
      <trkpt lat="59.993187064168" lon="23.415892763572">
        <ele>0</ele>
        <time>2014-06-23T16:59:55Z</time>
      </trkpt>
      <trkpt lat="59.993059324012" lon="23.415574251372">
        <ele>0</ele>
        <time>2014-06-23T17:00:00Z</time>
      </trkpt>
      <trkpt lat="59.992977768125" lon="23.415324051657">
        <ele>0</ele>
        <time>2014-06-23T17:00:04Z</time>
      </trkpt>
      <trkpt lat="59.992914987694" lon="23.41504971207">
        <ele>0</ele>
        <time>2014-06-23T17:00:08Z</time>
      </trkpt>
      <trkpt lat="59.992854554195" lon="23.414784592573">
        <ele>0</ele>
        <time>2014-06-23T17:00:12Z</time>
      </trkpt>
      <trkpt lat="59.992778111267" lon="23.414488376227">
        <ele>0.2</ele>
        <time>2014-06-23T17:00:16Z</time>
      </trkpt>
      <trkpt lat="59.992724634745" lon="23.41413692316">
        <ele>0.4</ele>
        <time>2014-06-23T17:00:21Z</time>
      </trkpt>
      <trkpt lat="59.992710301696" lon="23.413851770922">
        <ele>0.4</ele>
        <time>2014-06-23T17:00:25Z</time>
      </trkpt>
      <trkpt lat="59.992706446022" lon="23.413569552349">
        <ele>0.6</ele>
        <time>2014-06-23T17:00:29Z</time>
      </trkpt>
      <trkpt lat="59.992698315579" lon="23.413197563627">
        <ele>0.6</ele>
        <time>2014-06-23T17:00:34Z</time>
      </trkpt>
      <trkpt lat="59.992717426311" lon="23.412813756426">
        <ele>0.6</ele>
        <time>2014-06-23T17:00:39Z</time>
      </trkpt>
      <trkpt lat="59.99273427393" lon="23.412441097152">
        <ele>0.6</ele>
        <time>2014-06-23T17:00:44Z</time>
      </trkpt>
      <trkpt lat="59.992774171774" lon="23.412075143398">
        <ele>0.6</ele>
        <time>2014-06-23T17:00:49Z</time>
      </trkpt>
      <trkpt lat="59.992776937801" lon="23.411706423617">
        <ele>0.6</ele>
        <time>2014-06-23T17:00:54Z</time>
      </trkpt>
      <trkpt lat="59.992754306671" lon="23.411320856217">
        <ele>0.6</ele>
        <time>2014-06-23T17:00:59Z</time>
      </trkpt>
      <trkpt lat="59.992721617261" lon="23.411000332361">
        <ele>0.6</ele>
        <time>2014-06-23T17:01:04Z</time>
      </trkpt>
      <trkpt lat="59.99271248099" lon="23.410813415991">
        <ele>0.4</ele>
        <time>2014-06-23T17:01:07Z</time>
      </trkpt>
      <trkpt lat="59.992674175707" lon="23.410679473229">
        <ele>0</ele>
        <time>2014-06-23T17:01:11Z</time>
      </trkpt>
      <trkpt lat="59.992680965046" lon="23.410669163492">
        <ele>0</ele>
        <time>2014-06-23T17:01:12Z</time>
      </trkpt>
      <trkpt lat="59.99268314434" lon="23.410650304217">
        <ele>0</ele>
        <time>2014-06-23T17:01:13Z</time>
      </trkpt>
      <trkpt lat="59.992644336143" lon="23.410497166904">
        <ele>0</ele>
        <time>2014-06-23T17:01:16Z</time>
      </trkpt>
      <trkpt lat="59.992573509088" lon="23.410272196708">
        <ele>0</ele>
        <time>2014-06-23T17:01:20Z</time>
      </trkpt>
      <trkpt lat="59.992527408638" lon="23.410139762688">
        <ele>0</ele>
        <time>2014-06-23T17:01:22Z</time>
      </trkpt>
      <trkpt lat="59.992361614656" lon="23.409792752028">
        <ele>0</ele>
        <time>2014-06-23T17:01:28Z</time>
      </trkpt>
      <trkpt lat="59.992245944436" lon="23.40960482983">
        <ele>0</ele>
        <time>2014-06-23T17:01:33Z</time>
      </trkpt>
      <trkpt lat="59.992129184569" lon="23.409344320378">
        <ele>0</ele>
        <time>2014-06-23T17:01:38Z</time>
      </trkpt>
      <trkpt lat="59.992104038869" lon="23.409064951651">
        <ele>0</ele>
        <time>2014-06-23T17:01:42Z</time>
      </trkpt>
      <trkpt lat="59.992091968933" lon="23.408852889581">
        <ele>0</ele>
        <time>2014-06-23T17:01:45Z</time>
      </trkpt>
      <trkpt lat="59.991914943205" lon="23.408619369847">
        <ele>0</ele>
        <time>2014-06-23T17:01:51Z</time>
      </trkpt>
      <trkpt lat="59.991743868626" lon="23.408475704081">
        <ele>0</ele>
        <time>2014-06-23T17:01:56Z</time>
      </trkpt>
      <trkpt lat="59.991615457918" lon="23.408309323366">
        <ele>0</ele>
        <time>2014-06-23T17:02:00Z</time>
      </trkpt>
      <trkpt lat="59.99149375273" lon="23.408175045328">
        <ele>0.2</ele>
        <time>2014-06-23T17:02:04Z</time>
      </trkpt>
      <trkpt lat="59.991340699236" lon="23.408025847508">
        <ele>1.4</ele>
        <time>2014-06-23T17:02:09Z</time>
      </trkpt>
      <trkpt lat="59.991203571352" lon="23.407930796762">
        <ele>1.8</ele>
        <time>2014-06-23T17:02:13Z</time>
      </trkpt>
      <trkpt lat="59.991030904212" lon="23.407817305836">
        <ele>2.4</ele>
        <time>2014-06-23T17:02:18Z</time>
      </trkpt>
      <trkpt lat="59.990858907624" lon="23.407738935071">
        <ele>3.4</ele>
        <time>2014-06-23T17:02:23Z</time>
      </trkpt>
      <trkpt lat="59.990689341787" lon="23.407683027798">
        <ele>4</ele>
        <time>2014-06-23T17:02:28Z</time>
      </trkpt>
      <trkpt lat="59.990560176708" lon="23.407627958715">
        <ele>5</ele>
        <time>2014-06-23T17:02:32Z</time>
      </trkpt>
      <trkpt lat="59.990460515917" lon="23.407596694228">
        <ele>5.4</ele>
        <time>2014-06-23T17:02:35Z</time>
      </trkpt>
      <trkpt lat="59.990354903977" lon="23.40756718994">
        <ele>8.8</ele>
        <time>2014-06-23T17:03:14Z</time>
      </trkpt>
      <trkpt lat="59.990365968085" lon="23.407508684278">
        <ele>9</ele>
        <time>2014-06-23T17:03:16Z</time>
      </trkpt>
      <trkpt lat="59.990425479575" lon="23.40729310181">
        <ele>9</ele>
        <time>2014-06-23T17:03:20Z</time>
      </trkpt>
      <trkpt lat="59.99045523532" lon="23.407104760517">
        <ele>9</ele>
        <time>2014-06-23T17:03:24Z</time>
      </trkpt>
      <trkpt lat="59.990488008549" lon="23.406904936021">
        <ele>9.6</ele>
        <time>2014-06-23T17:03:28Z</time>
      </trkpt>
      <trkpt lat="59.990489936386" lon="23.406660771274">
        <ele>10.2</ele>
        <time>2014-06-23T17:03:33Z</time>
      </trkpt>
      <trkpt lat="59.990497647734" lon="23.406561864854">
        <ele>10.4</ele>
        <time>2014-06-23T17:03:35Z</time>
      </trkpt>
      <trkpt lat="59.990557829776" lon="23.406390706456">
        <ele>10.6</ele>
        <time>2014-06-23T17:03:40Z</time>
      </trkpt>
      <trkpt lat="59.990592363204" lon="23.40633085969">
        <ele>10.6</ele>
        <time>2014-06-23T17:03:42Z</time>
      </trkpt>
      <trkpt lat="59.99066226825" lon="23.406248130337">
        <ele>11.4</ele>
        <time>2014-06-23T17:03:46Z</time>
      </trkpt>
      <trkpt lat="59.99068573757" lon="23.406224912474">
        <ele>11.6</ele>
        <time>2014-06-23T17:03:47Z</time>
      </trkpt>
      <trkpt lat="59.99086930118" lon="23.406124832588">
        <ele>12.4</ele>
        <time>2014-06-23T17:03:54Z</time>
      </trkpt>
      <trkpt lat="59.990998717716" lon="23.406080324699">
        <ele>12.6</ele>
        <time>2014-06-23T17:03:58Z</time>
      </trkpt>
      <trkpt lat="59.991113382108" lon="23.406046126547">
        <ele>12.8</ele>
        <time>2014-06-23T17:04:02Z</time>
      </trkpt>
      <trkpt lat="59.991158812006" lon="23.406017544268">
        <ele>12.8</ele>
        <time>2014-06-23T17:04:04Z</time>
      </trkpt>
      <trkpt lat="59.991266351783" lon="23.405959290063">
        <ele>13</ele>
        <time>2014-06-23T17:04:09Z</time>
      </trkpt>
      <trkpt lat="59.99129593989" lon="23.405937664761">
        <ele>13</ele>
        <time>2014-06-23T17:04:10Z</time>
      </trkpt>
      <trkpt lat="59.991410436644" lon="23.405887876275">
        <ele>13</ele>
        <time>2014-06-23T17:04:15Z</time>
      </trkpt>
      <trkpt lat="59.991499200965" lon="23.405874716692">
        <ele>13</ele>
        <time>2014-06-23T17:04:20Z</time>
      </trkpt>
      <trkpt lat="59.99163373046" lon="23.40582291655">
        <ele>13</ele>
        <time>2014-06-23T17:04:25Z</time>
      </trkpt>
      <trkpt lat="59.991749233042" lon="23.405777486652">
        <ele>13</ele>
        <time>2014-06-23T17:04:29Z</time>
      </trkpt>
      <trkpt lat="59.99177538457" lon="23.405752760047">
        <ele>13</ele>
        <time>2014-06-23T17:04:30Z</time>
      </trkpt>
      <trkpt lat="59.991918547422" lon="23.405622253864">
        <ele>13</ele>
        <time>2014-06-23T17:04:36Z</time>
      </trkpt>
      <trkpt lat="59.992025416647" lon="23.405470206198">
        <ele>13</ele>
        <time>2014-06-23T17:04:41Z</time>
      </trkpt>
      <trkpt lat="59.992034804375" lon="23.405441875376">
        <ele>13</ele>
        <time>2014-06-23T17:04:42Z</time>
      </trkpt>
      <trkpt lat="59.992083335576" lon="23.405261999802">
        <ele>13</ele>
        <time>2014-06-23T17:04:46Z</time>
      </trkpt>
      <trkpt lat="59.992169585327" lon="23.405078100916">
        <ele>13.2</ele>
        <time>2014-06-23T17:04:51Z</time>
      </trkpt>
      <trkpt lat="59.992264552254" lon="23.404987911672">
        <ele>13.8</ele>
        <time>2014-06-23T17:04:55Z</time>
      </trkpt>
      <trkpt lat="59.9924015125" lon="23.404892190374">
        <ele>14.4</ele>
        <time>2014-06-23T17:05:00Z</time>
      </trkpt>
      <trkpt lat="59.992558086392" lon="23.40487911461">
        <ele>14.6</ele>
        <time>2014-06-23T17:05:05Z</time>
      </trkpt>
      <trkpt lat="59.992730753532" lon="23.404932842589">
        <ele>14.8</ele>
        <time>2014-06-23T17:05:11Z</time>
      </trkpt>
      <trkpt lat="59.992882968836" lon="23.404917336074">
        <ele>15</ele>
        <time>2014-06-23T17:05:16Z</time>
      </trkpt>
      <trkpt lat="59.992998806694" lon="23.404858830412">
        <ele>15</ele>
        <time>2014-06-23T17:05:20Z</time>
      </trkpt>
      <trkpt lat="59.993168288712" lon="23.404765456046">
        <ele>14.2</ele>
        <time>2014-06-23T17:05:25Z</time>
      </trkpt>
      <trkpt lat="59.993203073597" lon="23.404741902907">
        <ele>14.2</ele>
        <time>2014-06-23T17:05:26Z</time>
      </trkpt>
      <trkpt lat="59.993296615601" lon="23.404537384547">
        <ele>13.6</ele>
        <time>2014-06-23T17:05:30Z</time>
      </trkpt>
      <trkpt lat="59.993327041898" lon="23.404298751854">
        <ele>13</ele>
        <time>2014-06-23T17:05:34Z</time>
      </trkpt>
      <trkpt lat="59.993343721879" lon="23.40404511556">
        <ele>12</ele>
        <time>2014-06-23T17:05:39Z</time>
      </trkpt>
      <trkpt lat="59.993382278619" lon="23.403755772372">
        <ele>11.4</ele>
        <time>2014-06-23T17:05:45Z</time>
      </trkpt>
      <trkpt lat="59.993388145949" lon="23.403509679788">
        <ele>11.2</ele>
        <time>2014-06-23T17:05:49Z</time>
      </trkpt>
      <trkpt lat="59.99342661887" lon="23.403183959154">
        <ele>11</ele>
        <time>2014-06-23T17:05:55Z</time>
      </trkpt>
      <trkpt lat="59.993477916098" lon="23.402931496326">
        <ele>11</ele>
        <time>2014-06-23T17:06:00Z</time>
      </trkpt>
      <trkpt lat="59.993521921073" lon="23.402716081496">
        <ele>11.4</ele>
        <time>2014-06-23T17:06:04Z</time>
      </trkpt>
      <trkpt lat="59.993535667389" lon="23.402683392086">
        <ele>11.6</ele>
        <time>2014-06-23T17:06:05Z</time>
      </trkpt>
      <trkpt lat="59.993573134482" lon="23.40253050623">
        <ele>12</ele>
        <time>2014-06-23T17:06:08Z</time>
      </trkpt>
      <trkpt lat="59.993681009535" lon="23.402223644871">
        <ele>12.4</ele>
        <time>2014-06-23T17:06:13Z</time>
      </trkpt>
      <trkpt lat="59.993697270421" lon="23.402172431462">
        <ele>12.4</ele>
        <time>2014-06-23T17:06:14Z</time>
      </trkpt>
      <trkpt lat="59.993782262887" lon="23.401891302536">
        <ele>13.4</ele>
        <time>2014-06-23T17:06:20Z</time>
      </trkpt>
      <trkpt lat="59.993803720551" lon="23.401811171572">
        <ele>13.6</ele>
        <time>2014-06-23T17:06:22Z</time>
      </trkpt>
      <trkpt lat="59.993918720219" lon="23.401551165034">
        <ele>14.4</ele>
        <time>2014-06-23T17:06:28Z</time>
      </trkpt>
      <trkpt lat="59.994079065966" lon="23.401378497894">
        <ele>15.6</ele>
        <time>2014-06-23T17:06:34Z</time>
      </trkpt>
      <trkpt lat="59.994234969306" lon="23.401251260652">
        <ele>16.4</ele>
        <time>2014-06-23T17:06:40Z</time>
      </trkpt>
      <trkpt lat="59.994330690604" lon="23.401151264585">
        <ele>16.6</ele>
        <time>2014-06-23T17:06:44Z</time>
      </trkpt>
      <trkpt lat="59.994451641421" lon="23.401095022036">
        <ele>16.8</ele>
        <time>2014-06-23T17:06:49Z</time>
      </trkpt>
      <trkpt lat="59.99455985175" lon="23.400989493915">
        <ele>17</ele>
        <time>2014-06-23T17:06:54Z</time>
      </trkpt>
      <trkpt lat="59.994681137843" lon="23.400896203368">
        <ele>17</ele>
        <time>2014-06-23T17:06:59Z</time>
      </trkpt>
      <trkpt lat="59.994784738127" lon="23.400912967168">
        <ele>17</ele>
        <time>2014-06-23T17:07:02Z</time>
      </trkpt>
      <trkpt lat="59.994896971768" lon="23.400944818388">
        <ele>17</ele>
        <time>2014-06-23T17:07:06Z</time>
      </trkpt>
      <trkpt lat="59.995049103253" lon="23.400925204742">
        <ele>17</ele>
        <time>2014-06-23T17:07:12Z</time>
      </trkpt>
      <trkpt lat="59.995203749308" lon="23.400840631371">
        <ele>17.4</ele>
        <time>2014-06-23T17:07:18Z</time>
      </trkpt>
      <trkpt lat="59.995342805029" lon="23.400705263686">
        <ele>18.2</ele>
        <time>2014-06-23T17:07:24Z</time>
      </trkpt>
      <trkpt lat="59.995395946275" lon="23.400663773281">
        <ele>18.4</ele>
        <time>2014-06-23T17:07:26Z</time>
      </trkpt>
      <trkpt lat="59.995541288421" lon="23.400586911258">
        <ele>18.6</ele>
        <time>2014-06-23T17:07:31Z</time>
      </trkpt>
      <trkpt lat="59.995634746606" lon="23.400538044781">
        <ele>19.6</ele>
        <time>2014-06-23T17:07:35Z</time>
      </trkpt>
      <trkpt lat="59.995813281076" lon="23.400544750301">
        <ele>20.2</ele>
        <time>2014-06-23T17:07:41Z</time>
      </trkpt>
      <trkpt lat="59.995952588254" lon="23.400555814409">
        <ele>21.4</ele>
        <time>2014-06-23T17:07:46Z</time>
      </trkpt>
      <trkpt lat="59.996102205169" lon="23.400581127747">
        <ele>22.2</ele>
        <time>2014-06-23T17:07:51Z</time>
      </trkpt>
      <trkpt lat="59.996312423221" lon="23.400665784937">
        <ele>23.2</ele>
        <time>2014-06-23T17:07:57Z</time>
      </trkpt>
      <trkpt lat="59.99641141346" lon="23.40064625511">
        <ele>23.8</ele>
        <time>2014-06-23T17:08:00Z</time>
      </trkpt>
      <trkpt lat="59.996603107513" lon="23.400582468851">
        <ele>24.6</ele>
        <time>2014-06-23T17:08:07Z</time>
      </trkpt>
      <trkpt lat="59.996751467143" lon="23.40060183104">
        <ele>25</ele>
        <time>2014-06-23T17:08:12Z</time>
      </trkpt>
      <trkpt lat="59.996780803793" lon="23.400608452741">
        <ele>25</ele>
        <time>2014-06-23T17:08:13Z</time>
      </trkpt>
      <trkpt lat="59.996917847858" lon="23.400647009481">
        <ele>25.2</ele>
        <time>2014-06-23T17:08:18Z</time>
      </trkpt>
      <trkpt lat="59.997073499741" lon="23.40076024895">
        <ele>25.2</ele>
        <time>2014-06-23T17:08:23Z</time>
      </trkpt>
      <trkpt lat="59.997102752572" lon="23.400765948642">
        <ele>25.2</ele>
        <time>2014-06-23T17:08:24Z</time>
      </trkpt>
      <trkpt lat="59.997231582375" lon="23.400730996119">
        <ele>25.4</ele>
        <time>2014-06-23T17:08:29Z</time>
      </trkpt>
      <trkpt lat="59.99733928979" lon="23.400713813224">
        <ele>25.4</ele>
        <time>2014-06-23T17:08:33Z</time>
      </trkpt>
      <trkpt lat="59.997486559773" lon="23.400641561246">
        <ele>25.4</ele>
        <time>2014-06-23T17:08:39Z</time>
      </trkpt>
      <trkpt lat="59.997581861976" lon="23.40056578887">
        <ele>25.4</ele>
        <time>2014-06-23T17:08:43Z</time>
      </trkpt>
      <trkpt lat="59.997698202748" lon="23.400457327084">
        <ele>24.8</ele>
        <time>2014-06-23T17:08:48Z</time>
      </trkpt>
      <trkpt lat="59.99776341393" lon="23.400410891358">
        <ele>24.4</ele>
        <time>2014-06-23T17:08:51Z</time>
      </trkpt>
      <trkpt lat="59.997899619805" lon="23.400349200574">
        <ele>24</ele>
        <time>2014-06-23T17:08:56Z</time>
      </trkpt>
      <trkpt lat="59.998034568395" lon="23.400273092922">
        <ele>23.8</ele>
        <time>2014-06-23T17:09:00Z</time>
      </trkpt>
      <trkpt lat="59.998116627196" lon="23.400259346606">
        <ele>23.6</ele>
        <time>2014-06-23T17:09:03Z</time>
      </trkpt>
      <trkpt lat="59.998275799477" lon="23.400205953903">
        <ele>22.8</ele>
        <time>2014-06-23T17:09:08Z</time>
      </trkpt>
      <trkpt lat="59.998437067233" lon="23.400183155135">
        <ele>21.6</ele>
        <time>2014-06-23T17:09:13Z</time>
      </trkpt>
      <trkpt lat="59.998603783224" lon="23.400083661982">
        <ele>20.4</ele>
        <time>2014-06-23T17:09:19Z</time>
      </trkpt>
      <trkpt lat="59.998627084906" lon="23.400041333387">
        <ele>20.2</ele>
        <time>2014-06-23T17:09:21Z</time>
      </trkpt>
      <trkpt lat="59.998724231127" lon="23.399900433648">
        <ele>19.8</ele>
        <time>2014-06-23T17:09:26Z</time>
      </trkpt>
      <trkpt lat="59.99882120971" lon="23.399781745944">
        <ele>19.6</ele>
        <time>2014-06-23T17:09:30Z</time>
      </trkpt>
      <trkpt lat="59.998955403929" lon="23.399594159022">
        <ele>19.4</ele>
        <time>2014-06-23T17:09:35Z</time>
      </trkpt>
      <trkpt lat="59.999034864341" lon="23.399475219861">
        <ele>19.4</ele>
        <time>2014-06-23T17:09:38Z</time>
      </trkpt>
      <trkpt lat="59.999131842924" lon="23.399310012612">
        <ele>19.2</ele>
        <time>2014-06-23T17:09:42Z</time>
      </trkpt>
      <trkpt lat="59.999264528401" lon="23.399038522871">
        <ele>19.2</ele>
        <time>2014-06-23T17:09:48Z</time>
      </trkpt>
      <trkpt lat="59.999341558062" lon="23.398796872694">
        <ele>19.2</ele>
        <time>2014-06-23T17:09:53Z</time>
      </trkpt>
      <trkpt lat="59.999392771471" lon="23.398588331022">
        <ele>19.2</ele>
        <time>2014-06-23T17:09:58Z</time>
      </trkpt>
      <trkpt lat="59.99941129547" lon="23.398544158409">
        <ele>19.2</ele>
        <time>2014-06-23T17:09:59Z</time>
      </trkpt>
      <trkpt lat="59.999462592698" lon="23.398356403849">
        <ele>19.2</ele>
        <time>2014-06-23T17:10:03Z</time>
      </trkpt>
      <trkpt lat="59.999475668462" lon="23.398311979779">
        <ele>19.2</ele>
        <time>2014-06-23T17:10:04Z</time>
      </trkpt>
      <trkpt lat="59.999501652352" lon="23.398222796363">
        <ele>19.2</ele>
        <time>2014-06-23T17:10:06Z</time>
      </trkpt>
      <trkpt lat="59.999584968438" lon="23.398016601623">
        <ele>19</ele>
        <time>2014-06-23T17:10:10Z</time>
      </trkpt>
      <trkpt lat="59.999611287604" lon="23.397968657155">
        <ele>18.8</ele>
        <time>2014-06-23T17:10:11Z</time>
      </trkpt>
      <trkpt lat="59.99973902776" lon="23.397790793237">
        <ele>18.2</ele>
        <time>2014-06-23T17:10:15Z</time>
      </trkpt>
      <trkpt lat="59.999832988859" lon="23.397706638961">
        <ele>17.4</ele>
        <time>2014-06-23T17:10:18Z</time>
      </trkpt>
      <trkpt lat="59.999943797577" lon="23.397628519653">
        <ele>16.8</ele>
        <time>2014-06-23T17:10:21Z</time>
      </trkpt>
      <trkpt lat="60.000072711199" lon="23.397626927092">
        <ele>15.8</ele>
        <time>2014-06-23T17:10:25Z</time>
      </trkpt>
      <trkpt lat="60.000243199045" lon="23.397786602287">
        <ele>14.4</ele>
        <time>2014-06-23T17:10:31Z</time>
      </trkpt>
      <trkpt lat="60.000415530909" lon="23.397933704632">
        <ele>13.8</ele>
        <time>2014-06-23T17:10:37Z</time>
      </trkpt>
      <trkpt lat="60.000583671823" lon="23.398023390962">
        <ele>13.4</ele>
        <time>2014-06-23T17:10:43Z</time>
      </trkpt>
      <trkpt lat="60.000746699778" lon="23.397933704632">
        <ele>13.2</ele>
        <time>2014-06-23T17:10:49Z</time>
      </trkpt>
      <trkpt lat="60.000867399138" lon="23.397777382197">
        <ele>13</ele>
        <time>2014-06-23T17:10:55Z</time>
      </trkpt>
      <trkpt lat="60.000946775731" lon="23.397626843273">
        <ele>13</ele>
        <time>2014-06-23T17:11:00Z</time>
      </trkpt>
      <trkpt lat="60.001044760142" lon="23.397422911646">
        <ele>13</ele>
        <time>2014-06-23T17:11:06Z</time>
      </trkpt>
      <trkpt lat="60.001156574688" lon="23.397250831239">
        <ele>13.8</ele>
        <time>2014-06-23T17:11:12Z</time>
      </trkpt>
      <trkpt lat="60.001288589613" lon="23.397033740029">
        <ele>15</ele>
        <time>2014-06-23T17:11:19Z</time>
      </trkpt>
      <trkpt lat="60.001398224865" lon="23.396917734533">
        <ele>16.2</ele>
        <time>2014-06-23T17:11:25Z</time>
      </trkpt>
      <trkpt lat="60.001515068551" lon="23.396822935244">
        <ele>17.4</ele>
        <time>2014-06-23T17:11:31Z</time>
      </trkpt>
      <trkpt lat="60.001579190086" lon="23.396602491274">
        <ele>19</ele>
        <time>2014-06-23T17:11:37Z</time>
      </trkpt>
      <trkpt lat="60.001626128726" lon="23.396303173625">
        <ele>20.8</ele>
        <time>2014-06-23T17:11:44Z</time>
      </trkpt>
      <trkpt lat="60.001671390986" lon="23.395978039724">
        <ele>22</ele>
        <time>2014-06-23T17:11:51Z</time>
      </trkpt>
      <trkpt lat="60.001710199183" lon="23.395693725676">
        <ele>23</ele>
        <time>2014-06-23T17:11:57Z</time>
      </trkpt>
      <trkpt lat="60.001721850024" lon="23.39543690426">
        <ele>24</ele>
        <time>2014-06-23T17:12:02Z</time>
      </trkpt>
      <trkpt lat="60.001725873336" lon="23.395378985331">
        <ele>24</ele>
        <time>2014-06-23T17:12:03Z</time>
      </trkpt>
      <trkpt lat="60.001730651019" lon="23.395158373723">
        <ele>24.4</ele>
        <time>2014-06-23T17:12:07Z</time>
      </trkpt>
      <trkpt lat="60.001718581083" lon="23.394895014425">
        <ele>24.8</ele>
        <time>2014-06-23T17:12:12Z</time>
      </trkpt>
      <trkpt lat="60.001722939671" lon="23.39477054321">
        <ele>24.8</ele>
        <time>2014-06-23T17:12:14Z</time>
      </trkpt>
      <trkpt lat="60.001717407617" lon="23.394654118619">
        <ele>25</ele>
        <time>2014-06-23T17:12:16Z</time>
      </trkpt>
      <trkpt lat="60.001698632161" lon="23.394444152024">
        <ele>25</ele>
        <time>2014-06-23T17:12:20Z</time>
      </trkpt>
      <trkpt lat="60.001684885845" lon="23.394229994479">
        <ele>25.6</ele>
        <time>2014-06-23T17:12:24Z</time>
      </trkpt>
      <trkpt lat="60.001682538913" lon="23.394170566808">
        <ele>25.8</ele>
        <time>2014-06-23T17:12:25Z</time>
      </trkpt>
      <trkpt lat="60.00167608485" lon="23.393900921085">
        <ele>26.4</ele>
        <time>2014-06-23T17:12:30Z</time>
      </trkpt>
      <trkpt lat="60.001635600273" lon="23.393547372543">
        <ele>26.8</ele>
        <time>2014-06-23T17:12:36Z</time>
      </trkpt>
      <trkpt lat="60.001605844528" lon="23.393329024048">
        <ele>27</ele>
        <time>2014-06-23T17:12:40Z</time>
      </trkpt>
      <trkpt lat="60.001558486793" lon="23.393074298107">
        <ele>27.2</ele>
        <time>2014-06-23T17:12:44Z</time>
      </trkpt>
      <trkpt lat="60.001567706883" lon="23.392858128906">
        <ele>27.2</ele>
        <time>2014-06-23T17:12:48Z</time>
      </trkpt>
      <trkpt lat="60.00157801662" lon="23.392741704315">
        <ele>27.2</ele>
        <time>2014-06-23T17:12:50Z</time>
      </trkpt>
      <trkpt lat="60.001588577814" lon="23.392594685789">
        <ele>27.2</ele>
        <time>2014-06-23T17:12:53Z</time>
      </trkpt>
      <trkpt lat="60.001649598046" lon="23.392294949045">
        <ele>27.2</ele>
        <time>2014-06-23T17:12:59Z</time>
      </trkpt>
      <trkpt lat="60.00170290693" lon="23.392019519811">
        <ele>27.2</ele>
        <time>2014-06-23T17:13:04Z</time>
      </trkpt>
      <trkpt lat="60.001739535833" lon="23.391735373401">
        <ele>28.2</ele>
        <time>2014-06-23T17:13:09Z</time>
      </trkpt>
      <trkpt lat="60.001755629081" lon="23.391580559708">
        <ele>28.4</ele>
        <time>2014-06-23T17:13:12Z</time>
      </trkpt>
      <trkpt lat="60.001810027612" lon="23.391251318676">
        <ele>29</ele>
        <time>2014-06-23T17:13:18Z</time>
      </trkpt>
      <trkpt lat="60.00184120828" lon="23.390980164211">
        <ele>29.4</ele>
        <time>2014-06-23T17:13:23Z</time>
      </trkpt>
      <trkpt lat="60.001855122234" lon="23.39075896587">
        <ele>30.2</ele>
        <time>2014-06-23T17:13:27Z</time>
      </trkpt>
      <trkpt lat="60.001869790559" lon="23.390636003397">
        <ele>30.4</ele>
        <time>2014-06-23T17:13:29Z</time>
      </trkpt>
      <trkpt lat="60.001866689256" lon="23.39048655412">
        <ele>30.6</ele>
        <time>2014-06-23T17:13:32Z</time>
      </trkpt>
      <trkpt lat="60.001875154975" lon="23.390153625052">
        <ele>31</ele>
        <time>2014-06-23T17:13:38Z</time>
      </trkpt>
      <trkpt lat="60.001897199372" lon="23.38983192773">
        <ele>31.2</ele>
        <time>2014-06-23T17:13:44Z</time>
      </trkpt>
      <trkpt lat="60.001894600983" lon="23.389571418278">
        <ele>31.2</ele>
        <time>2014-06-23T17:13:49Z</time>
      </trkpt>
      <trkpt lat="60.001935169379" lon="23.389179732091">
        <ele>31.8</ele>
        <time>2014-06-23T17:13:56Z</time>
      </trkpt>
      <trkpt lat="60.001936175207" lon="23.388947553461">
        <ele>32.4</ele>
        <time>2014-06-23T17:14:00Z</time>
      </trkpt>
      <trkpt lat="60.001958135785" lon="23.388657120626">
        <ele>32.8</ele>
        <time>2014-06-23T17:14:05Z</time>
      </trkpt>
      <trkpt lat="60.00200046438" lon="23.388413207336">
        <ele>33</ele>
        <time>2014-06-23T17:14:09Z</time>
      </trkpt>
      <trkpt lat="60.002019575112" lon="23.38814213669">
        <ele>33.2</ele>
        <time>2014-06-23T17:14:14Z</time>
      </trkpt>
      <trkpt lat="60.002043882622" lon="23.387862097411">
        <ele>34</ele>
        <time>2014-06-23T17:14:19Z</time>
      </trkpt>
      <trkpt lat="60.002073303091" lon="23.387636121387">
        <ele>34.4</ele>
        <time>2014-06-23T17:14:23Z</time>
      </trkpt>
      <trkpt lat="60.002140023015" lon="23.387327164553">
        <ele>35</ele>
        <time>2014-06-23T17:14:29Z</time>
      </trkpt>
      <trkpt lat="60.002189643863" lon="23.387058608477">
        <ele>35.4</ele>
        <time>2014-06-23T17:14:34Z</time>
      </trkpt>
      <trkpt lat="60.002209844242" lon="23.386804888364">
        <ele>36.2</ele>
        <time>2014-06-23T17:14:39Z</time>
      </trkpt>
      <trkpt lat="60.002223255282" lon="23.386741353562">
        <ele>36.4</ele>
        <time>2014-06-23T17:14:40Z</time>
      </trkpt>
      <trkpt lat="60.002264745687" lon="23.386567848232">
        <ele>36.8</ele>
        <time>2014-06-23T17:14:43Z</time>
      </trkpt>
      <trkpt lat="60.002294166156" lon="23.386212204215">
        <ele>37.6</ele>
        <time>2014-06-23T17:14:49Z</time>
      </trkpt>
      <trkpt lat="60.002327442299" lon="23.385947839089">
        <ele>38.4</ele>
        <time>2014-06-23T17:14:54Z</time>
      </trkpt>
      <trkpt lat="60.002367340143" lon="23.385704931627">
        <ele>39</ele>
        <time>2014-06-23T17:14:59Z</time>
      </trkpt>
      <trkpt lat="60.002377733699" lon="23.385515081592">
        <ele>39.2</ele>
        <time>2014-06-23T17:15:03Z</time>
      </trkpt>
      <trkpt lat="60.002422828321" lon="23.385243508032">
        <ele>39.4</ele>
        <time>2014-06-23T17:15:08Z</time>
      </trkpt>
      <trkpt lat="60.002470940427" lon="23.384929941153">
        <ele>39.8</ele>
        <time>2014-06-23T17:15:14Z</time>
      </trkpt>
      <trkpt lat="60.002518298162" lon="23.384728943191">
        <ele>40.4</ele>
        <time>2014-06-23T17:15:18Z</time>
      </trkpt>
      <trkpt lat="60.002630280346" lon="23.384452508129">
        <ele>41</ele>
        <time>2014-06-23T17:15:24Z</time>
      </trkpt>
      <trkpt lat="60.002709237844" lon="23.384274895668">
        <ele>41.2</ele>
        <time>2014-06-23T17:15:28Z</time>
      </trkpt>
      <trkpt lat="60.002787189514" lon="23.3841179865">
        <ele>41.4</ele>
        <time>2014-06-23T17:15:32Z</time>
      </trkpt>
      <trkpt lat="60.002914845851" lon="23.383844568922">
        <ele>41.6</ele>
        <time>2014-06-23T17:15:38Z</time>
      </trkpt>
      <trkpt lat="60.003003191077" lon="23.38368631865">
        <ele>41.6</ele>
        <time>2014-06-23T17:15:42Z</time>
      </trkpt>
      <trkpt lat="60.003117352555" lon="23.383508035637">
        <ele>41.6</ele>
        <time>2014-06-23T17:15:47Z</time>
      </trkpt>
      <trkpt lat="60.003137720572" lon="23.383475681503">
        <ele>41.6</ele>
        <time>2014-06-23T17:15:48Z</time>
      </trkpt>
      <trkpt lat="60.003226065798" lon="23.383365878613">
        <ele>41.6</ele>
        <time>2014-06-23T17:15:52Z</time>
      </trkpt>
      <trkpt lat="60.003367803727" lon="23.383177118225">
        <ele>41.6</ele>
        <time>2014-06-23T17:15:58Z</time>
      </trkpt>
      <trkpt lat="60.003474924409" lon="23.383022891265">
        <ele>41.6</ele>
        <time>2014-06-23T17:16:02Z</time>
      </trkpt>
      <trkpt lat="60.003493113132" lon="23.382990704769">
        <ele>41.6</ele>
        <time>2014-06-23T17:16:03Z</time>
      </trkpt>
      <trkpt lat="60.003534016804" lon="23.382856259093">
        <ele>41.6</ele>
        <time>2014-06-23T17:16:06Z</time>
      </trkpt>
      <trkpt lat="60.003579195245" lon="23.38250111799">
        <ele>41.6</ele>
        <time>2014-06-23T17:16:12Z</time>
      </trkpt>
      <trkpt lat="60.003578440874" lon="23.382292911594">
        <ele>41.6</ele>
        <time>2014-06-23T17:16:16Z</time>
      </trkpt>
      <trkpt lat="60.00356871787" lon="23.382025193708">
        <ele>41.6</ele>
        <time>2014-06-23T17:16:21Z</time>
      </trkpt>
      <trkpt lat="60.003568382594" lon="23.381970459901">
        <ele>41.6</ele>
        <time>2014-06-23T17:16:22Z</time>
      </trkpt>
      <trkpt lat="60.003559413961" lon="23.381748339551">
        <ele>41.2</ele>
        <time>2014-06-23T17:16:26Z</time>
      </trkpt>
      <trkpt lat="60.003555642106" lon="23.381693521925">
        <ele>41.2</ele>
        <time>2014-06-23T17:16:27Z</time>
      </trkpt>
      <trkpt lat="60.00353602846" lon="23.381493278334">
        <ele>40.6</ele>
        <time>2014-06-23T17:16:31Z</time>
      </trkpt>
      <trkpt lat="60.003513816425" lon="23.381263865731">
        <ele>40.2</ele>
        <time>2014-06-23T17:16:35Z</time>
      </trkpt>
      <trkpt lat="60.003525048171" lon="23.381094802808">
        <ele>40.2</ele>
        <time>2014-06-23T17:16:38Z</time>
      </trkpt>
      <trkpt lat="60.00347735516" lon="23.380805375801">
        <ele>40</ele>
        <time>2014-06-23T17:16:43Z</time>
      </trkpt>
      <trkpt lat="60.003471571649" lon="23.380745864311">
        <ele>39.8</ele>
        <time>2014-06-23T17:16:44Z</time>
      </trkpt>
      <trkpt lat="60.003473834762" lon="23.380481750642">
        <ele>39.8</ele>
        <time>2014-06-23T17:16:49Z</time>
      </trkpt>
      <trkpt lat="60.003476181694" lon="23.380390136475">
        <ele>39.8</ele>
        <time>2014-06-23T17:16:51Z</time>
      </trkpt>
      <trkpt lat="60.003514319339" lon="23.380225767416">
        <ele>39.8</ele>
        <time>2014-06-23T17:16:57Z</time>
      </trkpt>
      <trkpt lat="60.003535609365" lon="23.380207662512">
        <ele>39.6</ele>
        <time>2014-06-23T17:16:58Z</time>
      </trkpt>
      <trkpt lat="60.003621859116" lon="23.380134153249">
        <ele>39.2</ele>
        <time>2014-06-23T17:17:03Z</time>
      </trkpt>
      <trkpt lat="60.00363661126" lon="23.380107582626">
        <ele>39</ele>
        <time>2014-06-23T17:17:04Z</time>
      </trkpt>
      <trkpt lat="60.003682292615" lon="23.379997109184">
        <ele>38.6</ele>
        <time>2014-06-23T17:17:07Z</time>
      </trkpt>
      <trkpt lat="60.003712802731" lon="23.379900884972">
        <ele>38.4</ele>
        <time>2014-06-23T17:17:09Z</time>
      </trkpt>
      <trkpt lat="60.003753706403" lon="23.379822598026">
        <ele>38.2</ele>
        <time>2014-06-23T17:17:11Z</time>
      </trkpt>
      <trkpt lat="60.003834927014" lon="23.379596454364">
        <ele>38</ele>
        <time>2014-06-23T17:17:16Z</time>
      </trkpt>
      <trkpt lat="60.003924445706" lon="23.379469552398">
        <ele>37.4</ele>
        <time>2014-06-23T17:17:20Z</time>
      </trkpt>
      <trkpt lat="60.004010611638" lon="23.379326473365">
        <ele>36.8</ele>
        <time>2014-06-23T17:17:24Z</time>
      </trkpt>
      <trkpt lat="60.004055538622" lon="23.379275679051">
        <ele>36.6</ele>
        <time>2014-06-23T17:17:26Z</time>
      </trkpt>
      <trkpt lat="60.004224098631" lon="23.379165037971">
        <ele>36</ele>
        <time>2014-06-23T17:17:33Z</time>
      </trkpt>
      <trkpt lat="60.004349324217" lon="23.379082643894">
        <ele>35.8</ele>
        <time>2014-06-23T17:17:38Z</time>
      </trkpt>
      <trkpt lat="60.004469185387" lon="23.379023635318">
        <ele>35.6</ele>
        <time>2014-06-23T17:17:43Z</time>
      </trkpt>
      <trkpt lat="60.004507323032" lon="23.378972505728">
        <ele>35.6</ele>
        <time>2014-06-23T17:17:45Z</time>
      </trkpt>
      <trkpt lat="60.004699603818" lon="23.37889438642">
        <ele>35.6</ele>
        <time>2014-06-23T17:17:53Z</time>
      </trkpt>
      <trkpt lat="60.00471619998" lon="23.378890530746">
        <ele>35.6</ele>
        <time>2014-06-23T17:17:54Z</time>
      </trkpt>
      <trkpt lat="60.004792139994" lon="23.378852812196">
        <ele>35.6</ele>
        <time>2014-06-23T17:17:58Z</time>
      </trkpt>
      <trkpt lat="60.004941421633" lon="23.378858428069">
        <ele>35.6</ele>
        <time>2014-06-23T17:18:03Z</time>
      </trkpt>
      <trkpt lat="60.004966986428" lon="23.378879131362">
        <ele>35.6</ele>
        <time>2014-06-23T17:18:04Z</time>
      </trkpt>
      <trkpt lat="60.005074023291" lon="23.378731107008">
        <ele>35</ele>
        <time>2014-06-23T17:18:08Z</time>
      </trkpt>
      <trkpt lat="60.005156836463" lon="23.378445200399">
        <ele>34.4</ele>
        <time>2014-06-23T17:18:13Z</time>
      </trkpt>
      <trkpt lat="60.00520486475" lon="23.378231713406">
        <ele>34</ele>
        <time>2014-06-23T17:18:17Z</time>
      </trkpt>
      <trkpt lat="60.005243337671" lon="23.378033481471">
        <ele>33.8</ele>
        <time>2014-06-23T17:18:21Z</time>
      </trkpt>
      <trkpt lat="60.005286672094" lon="23.377893922836">
        <ele>33.6</ele>
        <time>2014-06-23T17:18:24Z</time>
      </trkpt>
      <trkpt lat="60.005317768943" lon="23.377719327859">
        <ele>33.6</ele>
        <time>2014-06-23T17:18:28Z</time>
      </trkpt>
      <trkpt lat="60.005361522461" lon="23.377578260482">
        <ele>33.4</ele>
        <time>2014-06-23T17:18:32Z</time>
      </trkpt>
      <trkpt lat="60.005411646223" lon="23.377344824567">
        <ele>33.4</ele>
        <time>2014-06-23T17:18:38Z</time>
      </trkpt>
      <trkpt lat="60.00549320211" lon="23.377026144729">
        <ele>33.4</ele>
        <time>2014-06-23T17:18:45Z</time>
      </trkpt>
      <trkpt lat="60.005513234851" lon="23.376967806705">
        <ele>33.4</ele>
        <time>2014-06-23T17:19:02Z</time>
      </trkpt>
      <trkpt lat="60.005602082991" lon="23.376873342692">
        <ele>33.4</ele>
        <time>2014-06-23T17:19:06Z</time>
      </trkpt>
      <trkpt lat="60.005774750131" lon="23.376699082991">
        <ele>33.4</ele>
        <time>2014-06-23T17:19:11Z</time>
      </trkpt>
      <trkpt lat="60.00579746508" lon="23.376643594813">
        <ele>33.4</ele>
        <time>2014-06-23T17:19:12Z</time>
      </trkpt>
      <trkpt lat="60.005922858304" lon="23.376347043191">
        <ele>33.4</ele>
        <time>2014-06-23T17:19:18Z</time>
      </trkpt>
      <trkpt lat="60.006055040867" lon="23.376048479913">
        <ele>33.4</ele>
        <time>2014-06-23T17:19:25Z</time>
      </trkpt>
      <trkpt lat="60.006189235086" lon="23.375752682662">
        <ele>33.4</ele>
        <time>2014-06-23T17:19:31Z</time>
      </trkpt>
      <trkpt lat="60.006326782065" lon="23.375560401876">
        <ele>33.8</ele>
        <time>2014-06-23T17:19:36Z</time>
      </trkpt>
      <trkpt lat="60.006532222434" lon="23.375451688633">
        <ele>34.6</ele>
        <time>2014-06-23T17:19:42Z</time>
      </trkpt>
      <trkpt lat="60.006717462424" lon="23.375407935115">
        <ele>34.8</ele>
        <time>2014-06-23T17:19:47Z</time>
      </trkpt>
      <trkpt lat="60.006889459012" lon="23.375365187425">
        <ele>35.2</ele>
        <time>2014-06-23T17:19:52Z</time>
      </trkpt>
      <trkpt lat="60.006946455932" lon="23.375285727013">
        <ele>35.2</ele>
        <time>2014-06-23T17:19:54Z</time>
      </trkpt>
      <trkpt lat="60.006975624944" lon="23.374911056083">
        <ele>35.2</ele>
        <time>2014-06-23T17:20:00Z</time>
      </trkpt>
      <trkpt lat="60.007022731222" lon="23.374556082618">
        <ele>35.4</ele>
        <time>2014-06-23T17:20:06Z</time>
      </trkpt>
      <trkpt lat="60.007033962968" lon="23.374500426802">
        <ele>35.4</ele>
        <time>2014-06-23T17:20:07Z</time>
      </trkpt>
      <trkpt lat="60.007154410871" lon="23.374258776625">
        <ele>36.2</ele>
        <time>2014-06-23T17:20:13Z</time>
      </trkpt>
      <trkpt lat="60.007283156855" lon="23.374123828035">
        <ele>36.8</ele>
        <time>2014-06-23T17:20:19Z</time>
      </trkpt>
      <trkpt lat="60.007412908667" lon="23.374018802828">
        <ele>37</ele>
        <time>2014-06-23T17:20:24Z</time>
      </trkpt>
      <trkpt lat="60.00754173847" lon="23.373968427609">
        <ele>37.2</ele>
        <time>2014-06-23T17:20:29Z</time>
      </trkpt>
      <trkpt lat="60.00764483584" lon="23.373918387666">
        <ele>37.6</ele>
        <time>2014-06-23T17:20:33Z</time>
      </trkpt>
      <trkpt lat="60.007782131362" lon="23.373845046041">
        <ele>38.4</ele>
        <time>2014-06-23T17:20:38Z</time>
      </trkpt>
      <trkpt lat="60.007931580639" lon="23.373754521521">
        <ele>39</ele>
        <time>2014-06-23T17:20:44Z</time>
      </trkpt>
      <trkpt lat="60.0080253741" lon="23.373715880962">
        <ele>39</ele>
        <time>2014-06-23T17:20:47Z</time>
      </trkpt>
      <trkpt lat="60.008149007125" lon="23.373694423298">
        <ele>39.2</ele>
        <time>2014-06-23T17:20:52Z</time>
      </trkpt>
      <trkpt lat="60.008307173578" lon="23.373684113561">
        <ele>39.4</ele>
        <time>2014-06-23T17:20:58Z</time>
      </trkpt>
      <trkpt lat="60.008450084973" lon="23.373689813253">
        <ele>39.4</ele>
        <time>2014-06-23T17:21:03Z</time>
      </trkpt>
      <trkpt lat="60.008625853416" lon="23.373678497688">
        <ele>40</ele>
        <time>2014-06-23T17:21:09Z</time>
      </trkpt>
      <trkpt lat="60.008806315723" lon="23.373677408041">
        <ele>40.6</ele>
        <time>2014-06-23T17:21:15Z</time>
      </trkpt>
      <trkpt lat="60.008975713922" lon="23.373657459119">
        <ele>41</ele>
        <time>2014-06-23T17:21:21Z</time>
      </trkpt>
      <trkpt lat="60.009151985279" lon="23.373644970088">
        <ele>41.2</ele>
        <time>2014-06-23T17:21:27Z</time>
      </trkpt>
      <trkpt lat="60.009287017688" lon="23.373639857129">
        <ele>41.4</ele>
        <time>2014-06-23T17:21:32Z</time>
      </trkpt>
      <trkpt lat="60.009439232992" lon="23.37364983159">
        <ele>41.4</ele>
        <time>2014-06-23T17:21:38Z</time>
      </trkpt>
      <trkpt lat="60.009596309798" lon="23.373672546539">
        <ele>42.2</ele>
        <time>2014-06-23T17:21:43Z</time>
      </trkpt>
      <trkpt lat="60.009736203709" lon="23.373682688638">
        <ele>42.8</ele>
        <time>2014-06-23T17:21:48Z</time>
      </trkpt>
      <trkpt lat="60.009899734578" lon="23.37374035611">
        <ele>43.2</ele>
        <time>2014-06-23T17:21:54Z</time>
      </trkpt>
      <trkpt lat="60.009930244694" lon="23.373745804345">
        <ele>43.2</ele>
        <time>2014-06-23T17:21:55Z</time>
      </trkpt>
      <trkpt lat="60.01006636675" lon="23.373770614769">
        <ele>43.2</ele>
        <time>2014-06-23T17:22:00Z</time>
      </trkpt>
      <trkpt lat="60.010246912876" lon="23.373735997522">
        <ele>44.2</ele>
        <time>2014-06-23T17:22:07Z</time>
      </trkpt>
      <trkpt lat="60.010406420433" lon="23.373671037797">
        <ele>44.8</ele>
        <time>2014-06-23T17:22:13Z</time>
      </trkpt>
      <trkpt lat="60.010519995178" lon="23.373613454144">
        <ele>45</ele>
        <time>2014-06-23T17:22:17Z</time>
      </trkpt>
      <trkpt lat="60.010697607639" lon="23.373543632917">
        <ele>45.2</ele>
        <time>2014-06-23T17:22:23Z</time>
      </trkpt>
      <trkpt lat="60.010878489041" lon="23.373461406478">
        <ele>45.4</ele>
        <time>2014-06-23T17:22:30Z</time>
      </trkpt>
      <trkpt lat="60.011001619152" lon="23.373333498684">
        <ele>45.4</ele>
        <time>2014-06-23T17:22:35Z</time>
      </trkpt>
      <trkpt lat="60.011307055588" lon="23.373122358623">
        <ele>45.4</ele>
        <time>2014-06-23T17:22:47Z</time>
      </trkpt>
      <trkpt lat="60.011470167362" lon="23.373111965067">
        <ele>45.4</ele>
        <time>2014-06-23T17:22:53Z</time>
      </trkpt>
      <trkpt lat="60.011615677146" lon="23.37319804718">
        <ele>45.4</ele>
        <time>2014-06-23T17:22:58Z</time>
      </trkpt>
      <trkpt lat="60.011748865537" lon="23.373323188947">
        <ele>46.4</ele>
        <time>2014-06-23T17:23:03Z</time>
      </trkpt>
      <trkpt lat="60.011887418344" lon="23.373452354026">
        <ele>46.8</ele>
        <time>2014-06-23T17:23:08Z</time>
      </trkpt>
      <trkpt lat="60.011918431374" lon="23.373479427563">
        <ele>47</ele>
        <time>2014-06-23T17:23:09Z</time>
      </trkpt>
      <trkpt lat="60.012027312255" lon="23.373581183829">
        <ele>47.2</ele>
        <time>2014-06-23T17:23:13Z</time>
      </trkpt>
      <trkpt lat="60.012228394036" lon="23.373670702521">
        <ele>47.4</ele>
        <time>2014-06-23T17:23:20Z</time>
      </trkpt>
      <trkpt lat="60.012335095623" lon="23.37373113602">
        <ele>47.4</ele>
        <time>2014-06-23T17:23:24Z</time>
      </trkpt>
      <trkpt lat="60.012468451652" lon="23.373838675797">
        <ele>47.4</ele>
        <time>2014-06-23T17:23:29Z</time>
      </trkpt>
      <trkpt lat="60.012621421327" lon="23.373994662956">
        <ele>47.6</ele>
        <time>2014-06-23T17:23:35Z</time>
      </trkpt>
      <trkpt lat="60.012788724051" lon="23.374158026187">
        <ele>47.8</ele>
        <time>2014-06-23T17:23:42Z</time>
      </trkpt>
      <trkpt lat="60.012967677616" lon="23.374341254521">
        <ele>48.8</ele>
        <time>2014-06-23T17:23:49Z</time>
      </trkpt>
      <trkpt lat="60.013130873209" lon="23.374455248361">
        <ele>49.2</ele>
        <time>2014-06-23T17:23:55Z</time>
      </trkpt>
      <trkpt lat="60.013235311683" lon="23.374529344357">
        <ele>49.4</ele>
        <time>2014-06-23T17:23:59Z</time>
      </trkpt>
      <trkpt lat="60.013428514478" lon="23.37462213199">
        <ele>49.4</ele>
        <time>2014-06-23T17:24:06Z</time>
      </trkpt>
      <trkpt lat="60.013618867427" lon="23.374708214103">
        <ele>49.6</ele>
        <time>2014-06-23T17:24:13Z</time>
      </trkpt>
      <trkpt lat="60.013777620613" lon="23.374792703655">
        <ele>49.6</ele>
        <time>2014-06-23T17:24:19Z</time>
      </trkpt>
      <trkpt lat="60.013914916135" lon="23.374896974491">
        <ele>49.6</ele>
        <time>2014-06-23T17:24:24Z</time>
      </trkpt>
      <trkpt lat="60.014051541105" lon="23.375018679679">
        <ele>49.6</ele>
        <time>2014-06-23T17:24:29Z</time>
      </trkpt>
      <trkpt lat="60.014245414452" lon="23.375143653808">
        <ele>49.6</ele>
        <time>2014-06-23T17:24:36Z</time>
      </trkpt>
      <trkpt lat="60.014375585359" lon="23.37523820164">
        <ele>49.6</ele>
        <time>2014-06-23T17:24:41Z</time>
      </trkpt>
      <trkpt lat="60.014524364084" lon="23.375358733362">
        <ele>49.6</ele>
        <time>2014-06-23T17:24:46Z</time>
      </trkpt>
      <trkpt lat="60.014680435062" lon="23.375485383871">
        <ele>49.6</ele>
        <time>2014-06-23T17:24:52Z</time>
      </trkpt>
      <trkpt lat="60.014769869935" lon="23.375596024951">
        <ele>49.6</ele>
        <time>2014-06-23T17:24:56Z</time>
      </trkpt>
      <trkpt lat="60.01492200142" lon="23.375754023766">
        <ele>49.6</ele>
        <time>2014-06-23T17:25:02Z</time>
      </trkpt>
      <trkpt lat="60.015054351621" lon="23.375878914076">
        <ele>49.2</ele>
        <time>2014-06-23T17:25:07Z</time>
      </trkpt>
      <trkpt lat="60.015198771758" lon="23.376002882377">
        <ele>48.6</ele>
        <time>2014-06-23T17:25:12Z</time>
      </trkpt>
      <trkpt lat="60.015292146124" lon="23.375992153545">
        <ele>48.2</ele>
        <time>2014-06-23T17:25:16Z</time>
      </trkpt>
      <trkpt lat="60.015304551336" lon="23.375961056696">
        <ele>48.2</ele>
        <time>2014-06-23T17:25:17Z</time>
      </trkpt>
      <trkpt lat="60.015366074482" lon="23.375723429831">
        <ele>48</ele>
        <time>2014-06-23T17:25:22Z</time>
      </trkpt>
      <trkpt lat="60.015417706986" lon="23.375458729429">
        <ele>47.8</ele>
        <time>2014-06-23T17:25:26Z</time>
      </trkpt>
      <trkpt lat="60.015460287038" lon="23.375199728719">
        <ele>46.8</ele>
        <time>2014-06-23T17:25:31Z</time>
      </trkpt>
      <trkpt lat="60.015519211795" lon="23.374884234003">
        <ele>46</ele>
        <time>2014-06-23T17:25:38Z</time>
      </trkpt>
      <trkpt lat="60.015539579812" lon="23.374321557056">
        <ele>44.6</ele>
        <time>2014-06-23T17:25:49Z</time>
      </trkpt>
      <trkpt lat="60.015529772989" lon="23.374076051205">
        <ele>44.2</ele>
        <time>2014-06-23T17:25:53Z</time>
      </trkpt>
      <trkpt lat="60.015537903432" lon="23.373836915598">
        <ele>44</ele>
        <time>2014-06-23T17:25:57Z</time>
      </trkpt>
      <trkpt lat="60.015564809331" lon="23.373592164118">
        <ele>43.8</ele>
        <time>2014-06-23T17:26:01Z</time>
      </trkpt>
      <trkpt lat="60.01560764084" lon="23.373329391553">
        <ele>43.6</ele>
        <time>2014-06-23T17:26:06Z</time>
      </trkpt>
      <trkpt lat="60.015725993268" lon="23.373153539291">
        <ele>43.6</ele>
        <time>2014-06-23T17:26:11Z</time>
      </trkpt>
      <trkpt lat="60.015825318783" lon="23.372963856894">
        <ele>43.4</ele>
        <time>2014-06-23T17:26:16Z</time>
      </trkpt>
      <trkpt lat="60.015890529965" lon="23.372772665755">
        <ele>43.4</ele>
        <time>2014-06-23T17:26:21Z</time>
      </trkpt>
      <trkpt lat="60.015946521057" lon="23.372587677222">
        <ele>43.4</ele>
        <time>2014-06-23T17:26:25Z</time>
      </trkpt>
      <trkpt lat="60.016045930391" lon="23.372344099208">
        <ele>43.4</ele>
        <time>2014-06-23T17:26:31Z</time>
      </trkpt>
      <trkpt lat="60.016102005302" lon="23.37204553593">
        <ele>43.4</ele>
        <time>2014-06-23T17:26:38Z</time>
      </trkpt>
      <trkpt lat="60.01613150959" lon="23.371760132235">
        <ele>43.4</ele>
        <time>2014-06-23T17:26:44Z</time>
      </trkpt>
      <trkpt lat="60.016109632831" lon="23.371519068791">
        <ele>43.4</ele>
        <time>2014-06-23T17:26:49Z</time>
      </trkpt>
      <trkpt lat="60.01606613077" lon="23.371257469692">
        <ele>43.4</ele>
        <time>2014-06-23T17:26:55Z</time>
      </trkpt>
      <trkpt lat="60.01602422127" lon="23.371084886371">
        <ele>43.4</ele>
        <time>2014-06-23T17:26:59Z</time>
      </trkpt>
      <trkpt lat="60.015966218522" lon="23.370921774597">
        <ele>43.4</ele>
        <time>2014-06-23T17:27:03Z</time>
      </trkpt>
      <trkpt lat="60.015878962943" lon="23.370779114659">
        <ele>43.4</ele>
        <time>2014-06-23T17:27:08Z</time>
      </trkpt>
      <trkpt lat="60.01580210092" lon="23.370656571281">
        <ele>43.4</ele>
        <time>2014-06-23T17:27:12Z</time>
      </trkpt>
      <trkpt lat="60.015719455386" lon="23.370593036479">
        <ele>42.6</ele>
        <time>2014-06-23T17:27:17Z</time>
      </trkpt>
      <trkpt lat="60.015643180096" lon="23.370456746785">
        <ele>42.2</ele>
        <time>2014-06-23T17:27:22Z</time>
      </trkpt>
      <trkpt lat="60.01563027197" lon="23.370426320488">
        <ele>42</ele>
        <time>2014-06-23T17:27:23Z</time>
      </trkpt>
      <trkpt lat="60.015563971141" lon="23.370370497034">
        <ele>41</ele>
        <time>2014-06-23T17:27:28Z</time>
      </trkpt>
      <trkpt lat="60.015484929824" lon="23.370284834016">
        <ele>40.4</ele>
        <time>2014-06-23T17:27:32Z</time>
      </trkpt>
      <trkpt lat="60.015471770241" lon="23.370237476281">
        <ele>40.4</ele>
        <time>2014-06-23T17:27:33Z</time>
      </trkpt>
      <trkpt lat="60.015464058893" lon="23.370202691396">
        <ele>40.2</ele>
        <time>2014-06-23T17:27:34Z</time>
      </trkpt>
      <trkpt lat="60.015390968725" lon="23.370168493244">
        <ele>39.4</ele>
        <time>2014-06-23T17:27:38Z</time>
      </trkpt>
      <trkpt lat="60.0153008633" lon="23.370033460835">
        <ele>38.4</ele>
        <time>2014-06-23T17:27:44Z</time>
      </trkpt>
      <trkpt lat="60.015237915231" lon="23.369934470596">
        <ele>38</ele>
        <time>2014-06-23T17:27:48Z</time>
      </trkpt>
      <trkpt lat="60.015226934942" lon="23.369911001276">
        <ele>37.8</ele>
        <time>2014-06-23T17:27:49Z</time>
      </trkpt>
      <trkpt lat="60.0152170443" lon="23.369853585261">
        <ele>37.8</ele>
        <time>2014-06-23T17:27:51Z</time>
      </trkpt>
      <trkpt lat="60.015185612175" lon="23.369707069649">
        <ele>37.6</ele>
        <time>2014-06-23T17:27:55Z</time>
      </trkpt>
      <trkpt lat="60.015132470929" lon="23.369572791611">
        <ele>37.4</ele>
        <time>2014-06-23T17:28:00Z</time>
      </trkpt>
      <trkpt lat="60.015062230607" lon="23.369489810801">
        <ele>37.4</ele>
        <time>2014-06-23T17:28:04Z</time>
      </trkpt>
      <trkpt lat="60.015013699406" lon="23.369393670408">
        <ele>37.2</ele>
        <time>2014-06-23T17:28:09Z</time>
      </trkpt>
      <trkpt lat="60.015009005542" lon="23.369383863585">
        <ele>37.2</ele>
        <time>2014-06-23T17:28:10Z</time>
      </trkpt>
      <trkpt lat="60.015006239515" lon="23.369368189432">
        <ele>37.2</ele>
        <time>2014-06-23T17:28:11Z</time>
      </trkpt>
      <trkpt lat="60.014987128783" lon="23.369317478937">
        <ele>37.2</ele>
        <time>2014-06-23T17:28:16Z</time>
      </trkpt>
      <trkpt lat="60.014961899264" lon="23.369205329115">
        <ele>37.2</ele>
        <time>2014-06-23T17:28:23Z</time>
      </trkpt>
      <trkpt lat="60.014914625348" lon="23.369183703813">
        <ele>37.2</ele>
        <time>2014-06-23T17:28:27Z</time>
      </trkpt>
      <trkpt lat="60.014868943993" lon="23.369079935891">
        <ele>37.2</ele>
        <time>2014-06-23T17:28:31Z</time>
      </trkpt>
      <trkpt lat="60.014822843543" lon="23.368953536839">
        <ele>37.2</ele>
        <time>2014-06-23T17:28:34Z</time>
      </trkpt>
      <trkpt lat="60.014734498317" lon="23.368787659038">
        <ele>37.2</ele>
        <time>2014-06-23T17:28:41Z</time>
      </trkpt>
      <trkpt lat="60.014661743425" lon="23.368669809524">
        <ele>37.2</ele>
        <time>2014-06-23T17:28:48Z</time>
      </trkpt>
      <trkpt lat="60.014646823643" lon="23.368630163137">
        <ele>37.2</ele>
        <time>2014-06-23T17:28:50Z</time>
      </trkpt>
      <trkpt lat="60.0146303113" lon="23.368567382706">
        <ele>37.2</ele>
        <time>2014-06-23T17:28:53Z</time>
      </trkpt>
      <trkpt lat="60.014592089836" lon="23.368429081356">
        <ele>37.2</ele>
        <time>2014-06-23T17:28:56Z</time>
      </trkpt>
      <trkpt lat="60.014530399052" lon="23.368353392799">
        <ele>37.2</ele>
        <time>2014-06-23T17:29:02Z</time>
      </trkpt>
      <trkpt lat="60.014494692158" lon="23.368313662593">
        <ele>37.2</ele>
        <time>2014-06-23T17:29:07Z</time>
      </trkpt>
      <trkpt lat="60.014451693011" lon="23.368225317367">
        <ele>37.6</ele>
        <time>2014-06-23T17:29:12Z</time>
      </trkpt>
      <trkpt lat="60.014435683582" lon="23.368175445062">
        <ele>38</ele>
        <time>2014-06-23T17:29:14Z</time>
      </trkpt>
      <trkpt lat="60.014409280597" lon="23.368078969393">
        <ele>38.4</ele>
        <time>2014-06-23T17:29:18Z</time>
      </trkpt>
      <trkpt lat="60.014355720256" lon="23.367991127081">
        <ele>38.6</ele>
        <time>2014-06-23T17:29:21Z</time>
      </trkpt>
      <trkpt lat="60.014244576262" lon="23.367900267285">
        <ele>39</ele>
        <time>2014-06-23T17:29:27Z</time>
      </trkpt>
      <trkpt lat="60.014155392846" lon="23.367804210711">
        <ele>39.2</ele>
        <time>2014-06-23T17:29:32Z</time>
      </trkpt>
      <trkpt lat="60.014071573846" lon="23.367681332057">
        <ele>39.2</ele>
        <time>2014-06-23T17:29:37Z</time>
      </trkpt>
      <trkpt lat="60.013978115661" lon="23.367460049897">
        <ele>39.4</ele>
        <time>2014-06-23T17:29:42Z</time>
      </trkpt>
      <trkpt lat="60.013934194505" lon="23.367401041321">
        <ele>39.4</ele>
        <time>2014-06-23T17:29:45Z</time>
      </trkpt>
      <trkpt lat="60.013781141011" lon="23.367366926988">
        <ele>39.4</ele>
        <time>2014-06-23T17:29:51Z</time>
      </trkpt>
      <trkpt lat="60.01373093343" lon="23.367307834593">
        <ele>39.4</ele>
        <time>2014-06-23T17:29:54Z</time>
      </trkpt>
      <trkpt lat="60.013636972331" lon="23.367328789343">
        <ele>39.4</ele>
        <time>2014-06-23T17:29:59Z</time>
      </trkpt>
      <trkpt lat="60.013558182471" lon="23.367264248713">
        <ele>39.4</ele>
        <time>2014-06-23T17:30:03Z</time>
      </trkpt>
      <trkpt lat="60.01343589055" lon="23.367179675342">
        <ele>39.4</ele>
        <time>2014-06-23T17:30:09Z</time>
      </trkpt>
      <trkpt lat="60.013348970247" lon="23.367150673968">
        <ele>39.4</ele>
        <time>2014-06-23T17:30:14Z</time>
      </trkpt>
      <trkpt lat="60.01333446956" lon="23.367136173281">
        <ele>39.4</ele>
        <time>2014-06-23T17:30:15Z</time>
      </trkpt>
      <trkpt lat="60.013267833455" lon="23.366983035968">
        <ele>39.4</ele>
        <time>2014-06-23T17:30:20Z</time>
      </trkpt>
      <trkpt lat="60.013249560913" lon="23.366966775082">
        <ele>39.4</ele>
        <time>2014-06-23T17:30:21Z</time>
      </trkpt>
      <trkpt lat="60.013132968684" lon="23.366990076764">
        <ele>39.4</ele>
        <time>2014-06-23T17:30:27Z</time>
      </trkpt>
      <trkpt lat="60.013114612323" lon="23.366990998773">
        <ele>39.4</ele>
        <time>2014-06-23T17:30:28Z</time>
      </trkpt>
      <trkpt lat="60.013023836346" lon="23.367031818626">
        <ele>38.6</ele>
        <time>2014-06-23T17:30:34Z</time>
      </trkpt>
      <trkpt lat="60.01301428098" lon="23.367031986264">
        <ele>38.6</ele>
        <time>2014-06-23T17:30:35Z</time>
      </trkpt>
      <trkpt lat="60.012964157218" lon="23.366988316565">
        <ele>38</ele>
        <time>2014-06-23T17:30:40Z</time>
      </trkpt>
      <trkpt lat="60.01292627103" lon="23.366949927463">
        <ele>37.8</ele>
        <time>2014-06-23T17:30:43Z</time>
      </trkpt>
      <trkpt lat="60.01282987918" lon="23.366743313628">
        <ele>37.6</ele>
        <time>2014-06-23T17:30:50Z</time>
      </trkpt>
      <trkpt lat="60.012758968306" lon="23.366598642034">
        <ele>37.4</ele>
        <time>2014-06-23T17:30:55Z</time>
      </trkpt>
      <trkpt lat="60.012676406591" lon="23.366479870511">
        <ele>38</ele>
        <time>2014-06-23T17:31:00Z</time>
      </trkpt>
      <trkpt lat="60.012634748548" lon="23.366401332108">
        <ele>38.4</ele>
        <time>2014-06-23T17:31:03Z</time>
      </trkpt>
      <trkpt lat="60.012577919266" lon="23.366311059045">
        <ele>38.6</ele>
        <time>2014-06-23T17:31:06Z</time>
      </trkpt>
      <trkpt lat="60.012505834926" lon="23.366166219813">
        <ele>39</ele>
        <time>2014-06-23T17:31:12Z</time>
      </trkpt>
      <trkpt lat="60.01245520825" lon="23.366066810479">
        <ele>39.2</ele>
        <time>2014-06-23T17:31:16Z</time>
      </trkpt>
      <trkpt lat="60.012351859423" lon="23.365961533815">
        <ele>39.2</ele>
        <time>2014-06-23T17:31:21Z</time>
      </trkpt>
      <trkpt lat="60.012251863356" lon="23.365872434218">
        <ele>39.4</ele>
        <time>2014-06-23T17:31:26Z</time>
      </trkpt>
      <trkpt lat="60.012175001333" lon="23.365784005173">
        <ele>40</ele>
        <time>2014-06-23T17:31:30Z</time>
      </trkpt>
      <trkpt lat="60.01214423976" lon="23.365642183425">
        <ele>40.4</ele>
        <time>2014-06-23T17:31:34Z</time>
      </trkpt>
      <trkpt lat="60.012073161248" lon="23.365500529315">
        <ele>41</ele>
        <time>2014-06-23T17:31:40Z</time>
      </trkpt>
      <trkpt lat="60.012026390246" lon="23.365351247676">
        <ele>41.2</ele>
        <time>2014-06-23T17:31:46Z</time>
      </trkpt>
      <trkpt lat="60.01200510022" lon="23.365302129742">
        <ele>41.2</ele>
        <time>2014-06-23T17:31:48Z</time>
      </trkpt>
      <trkpt lat="60.011863194653" lon="23.36514555585">
        <ele>41.4</ele>
        <time>2014-06-23T17:31:56Z</time>
      </trkpt>
      <trkpt lat="60.011801503869" lon="23.365106580015">
        <ele>41.4</ele>
        <time>2014-06-23T17:31:59Z</time>
      </trkpt>
      <trkpt lat="60.011687174753" lon="23.365166259143">
        <ele>41.4</ele>
        <time>2014-06-23T17:32:06Z</time>
      </trkpt>
      <trkpt lat="60.01167569155" lon="23.365189225549">
        <ele>41.4</ele>
        <time>2014-06-23T17:32:08Z</time>
      </trkpt>
      <trkpt lat="60.011666303822" lon="23.365216382905">
        <ele>41.4</ele>
        <time>2014-06-23T17:32:10Z</time>
      </trkpt>
      <trkpt lat="60.011629339643" lon="23.365259968785">
        <ele>41.4</ele>
        <time>2014-06-23T17:32:14Z</time>
      </trkpt>
      <trkpt lat="60.011559518416" lon="23.365305482502">
        <ele>41.4</ele>
        <time>2014-06-23T17:32:20Z</time>
      </trkpt>
      <trkpt lat="60.011503443505" lon="23.36530313557">
        <ele>41.4</ele>
        <time>2014-06-23T17:32:26Z</time>
      </trkpt>
      <trkpt lat="60.011466227869" lon="23.365355354807">
        <ele>41.4</ele>
        <time>2014-06-23T17:32:30Z</time>
      </trkpt>
      <trkpt lat="60.011423480179" lon="23.365387457484">
        <ele>41.4</ele>
        <time>2014-06-23T17:32:33Z</time>
      </trkpt>
      <trkpt lat="60.011393724434" lon="23.365385362009">
        <ele>41.4</ele>
        <time>2014-06-23T17:32:35Z</time>
      </trkpt>
      <trkpt lat="60.011340750826" lon="23.365394582099">
        <ele>41.4</ele>
        <time>2014-06-23T17:32:39Z</time>
      </trkpt>
      <trkpt lat="60.011280401146" lon="23.365469683923">
        <ele>41.4</ele>
        <time>2014-06-23T17:32:43Z</time>
      </trkpt>
      <trkpt lat="60.011217453077" lon="23.365525591196">
        <ele>41.4</ele>
        <time>2014-06-23T17:32:49Z</time>
      </trkpt>
      <trkpt lat="60.011182165278" lon="23.365455015598">
        <ele>41.4</ele>
        <time>2014-06-23T17:32:52Z</time>
      </trkpt>
      <trkpt lat="60.011168921876" lon="23.365230799773">
        <ele>41</ele>
        <time>2014-06-23T17:32:56Z</time>
      </trkpt>
      <trkpt lat="60.011139752864" lon="23.364895272316">
        <ele>40.2</ele>
        <time>2014-06-23T17:33:02Z</time>
      </trkpt>
      <trkpt lat="60.01112164796" lon="23.364712882172">
        <ele>40</ele>
        <time>2014-06-23T17:33:06Z</time>
      </trkpt>
      <trkpt lat="60.011080492831" lon="23.364582375989">
        <ele>39.8</ele>
        <time>2014-06-23T17:33:09Z</time>
      </trkpt>
      <trkpt lat="60.011007989396" lon="23.364488917804">
        <ele>39.6</ele>
        <time>2014-06-23T17:33:13Z</time>
      </trkpt>
      <trkpt lat="60.01098669937" lon="23.364462095724">
        <ele>39.6</ele>
        <time>2014-06-23T17:33:14Z</time>
      </trkpt>
      <trkpt lat="60.010865748553" lon="23.364306862936">
        <ele>39.6</ele>
        <time>2014-06-23T17:33:20Z</time>
      </trkpt>
      <trkpt lat="60.010758208776" lon="23.36421265038">
        <ele>39.6</ele>
        <time>2014-06-23T17:33:25Z</time>
      </trkpt>
      <trkpt lat="60.010732141067" lon="23.364196892408">
        <ele>39.6</ele>
        <time>2014-06-23T17:33:26Z</time>
      </trkpt>
      <trkpt lat="60.01062963043" lon="23.364138554384">
        <ele>39.4</ele>
        <time>2014-06-23T17:33:30Z</time>
      </trkpt>
      <trkpt lat="60.010568274922" lon="23.364105948793">
        <ele>39.4</ele>
        <time>2014-06-23T17:33:33Z</time>
      </trkpt>
      <trkpt lat="60.010439864214" lon="23.363994134247">
        <ele>39.4</ele>
        <time>2014-06-23T17:33:38Z</time>
      </trkpt>
      <trkpt lat="60.010410611383" lon="23.363965971063">
        <ele>39.4</ele>
        <time>2014-06-23T17:33:39Z</time>
      </trkpt>
      <trkpt lat="60.010317739931" lon="23.363730858768">
        <ele>39.4</ele>
        <time>2014-06-23T17:33:45Z</time>
      </trkpt>
      <trkpt lat="60.010292258955" lon="23.363725829628">
        <ele>39.4</ele>
        <time>2014-06-23T17:33:46Z</time>
      </trkpt>
      <trkpt lat="60.010243643935" lon="23.363719459384">
        <ele>39.4</ele>
        <time>2014-06-23T17:33:48Z</time>
      </trkpt>
      <trkpt lat="60.010121100557" lon="23.363577553817">
        <ele>39.4</ele>
        <time>2014-06-23T17:33:54Z</time>
      </trkpt>
      <trkpt lat="60.010039293213" lon="23.363429361825">
        <ele>40.4</ele>
        <time>2014-06-23T17:33:59Z</time>
      </trkpt>
      <trkpt lat="60.009971064547" lon="23.363264238395">
        <ele>40.8</ele>
        <time>2014-06-23T17:34:03Z</time>
      </trkpt>
      <trkpt lat="60.009891771773" lon="23.363119902077">
        <ele>41</ele>
        <time>2014-06-23T17:34:07Z</time>
      </trkpt>
      <trkpt lat="60.00983167355" lon="23.362971039533">
        <ele>41.8</ele>
        <time>2014-06-23T17:34:11Z</time>
      </trkpt>
      <trkpt lat="60.009813736284" lon="23.362945223281">
        <ele>42</ele>
        <time>2014-06-23T17:34:12Z</time>
      </trkpt>
      <trkpt lat="60.009694713304" lon="23.362801557515">
        <ele>42.8</ele>
        <time>2014-06-23T17:34:18Z</time>
      </trkpt>
      <trkpt lat="60.009604859336" lon="23.362666944201">
        <ele>43</ele>
        <time>2014-06-23T17:34:22Z</time>
      </trkpt>
      <trkpt lat="60.009587676441" lon="23.362635344438">
        <ele>43.2</ele>
        <time>2014-06-23T17:34:23Z</time>
      </trkpt>
      <trkpt lat="60.009569068623" lon="23.362605337236">
        <ele>43.2</ele>
        <time>2014-06-23T17:34:24Z</time>
      </trkpt>
      <trkpt lat="60.009481477768" lon="23.362348348182">
        <ele>44</ele>
        <time>2014-06-23T17:34:30Z</time>
      </trkpt>
      <trkpt lat="60.009452308756" lon="23.362250279952">
        <ele>44.4</ele>
        <time>2014-06-23T17:34:32Z</time>
      </trkpt>
      <trkpt lat="60.009447698711" lon="23.362181548372">
        <ele>44.6</ele>
        <time>2014-06-23T17:34:34Z</time>
      </trkpt>
      <trkpt lat="60.009428420341" lon="23.361905280948">
        <ele>45</ele>
        <time>2014-06-23T17:34:39Z</time>
      </trkpt>
      <trkpt lat="60.009484159976" lon="23.361491634183">
        <ele>46.2</ele>
        <time>2014-06-23T17:34:46Z</time>
      </trkpt>
      <trkpt lat="60.009492374238" lon="23.361427931743">
        <ele>46.4</ele>
        <time>2014-06-23T17:34:47Z</time>
      </trkpt>
      <trkpt lat="60.009504360355" lon="23.361104474222">
        <ele>47</ele>
        <time>2014-06-23T17:34:53Z</time>
      </trkpt>
      <trkpt lat="60.009507880753" lon="23.361046471474">
        <ele>47.2</ele>
        <time>2014-06-23T17:34:54Z</time>
      </trkpt>
      <trkpt lat="60.009523387268" lon="23.360852095213">
        <ele>47.4</ele>
        <time>2014-06-23T17:34:58Z</time>
      </trkpt>
      <trkpt lat="60.009523387268" lon="23.360800043614">
        <ele>47.4</ele>
        <time>2014-06-23T17:34:59Z</time>
      </trkpt>
      <trkpt lat="60.009483992338" lon="23.360560321274">
        <ele>47.6</ele>
        <time>2014-06-23T17:35:04Z</time>
      </trkpt>
      <trkpt lat="60.009507377839" lon="23.360202497963">
        <ele>47.6</ele>
        <time>2014-06-23T17:35:11Z</time>
      </trkpt>
      <trkpt lat="60.009507042563" lon="23.360155726961">
        <ele>47.8</ele>
        <time>2014-06-23T17:35:12Z</time>
      </trkpt>
      <trkpt lat="60.009464127235" lon="23.359979371785">
        <ele>47.8</ele>
        <time>2014-06-23T17:35:16Z</time>
      </trkpt>
      <trkpt lat="60.009352564146" lon="23.359710815709">
        <ele>47.8</ele>
        <time>2014-06-23T17:35:23Z</time>
      </trkpt>
      <trkpt lat="60.009342757323" lon="23.35962439832">
        <ele>47.8</ele>
        <time>2014-06-23T17:35:25Z</time>
      </trkpt>
      <trkpt lat="60.009303110936" lon="23.359392554966">
        <ele>47.8</ele>
        <time>2014-06-23T17:35:31Z</time>
      </trkpt>
      <trkpt lat="60.009258100133" lon="23.35921871436">
        <ele>48.6</ele>
        <time>2014-06-23T17:35:35Z</time>
      </trkpt>
      <trkpt lat="60.009206886724" lon="23.358897268495">
        <ele>49.2</ele>
        <time>2014-06-23T17:35:42Z</time>
      </trkpt>
      <trkpt lat="60.00916279793" lon="23.358659306354">
        <ele>49.4</ele>
        <time>2014-06-23T17:35:47Z</time>
      </trkpt>
      <trkpt lat="60.009105214277" lon="23.358423020593">
        <ele>49.6</ele>
        <time>2014-06-23T17:35:53Z</time>
      </trkpt>
      <trkpt lat="60.009058527094" lon="23.358229147246">
        <ele>49.8</ele>
        <time>2014-06-23T17:35:58Z</time>
      </trkpt>
      <trkpt lat="60.00905550961" lon="23.357998142082">
        <ele>49.8</ele>
        <time>2014-06-23T17:36:02Z</time>
      </trkpt>
      <trkpt lat="60.009122397172" lon="23.357791360609">
        <ele>49.8</ele>
        <time>2014-06-23T17:36:07Z</time>
      </trkpt>
      <trkpt lat="60.009190039105" lon="23.357702680107">
        <ele>49.8</ele>
        <time>2014-06-23T17:36:10Z</time>
      </trkpt>
      <trkpt lat="60.009315767605" lon="23.357481314128">
        <ele>49.8</ele>
        <time>2014-06-23T17:36:16Z</time>
      </trkpt>
      <trkpt lat="60.009426576323" lon="23.357351813773">
        <ele>49.8</ele>
        <time>2014-06-23T17:36:21Z</time>
      </trkpt>
      <trkpt lat="60.009437556612" lon="23.357304875133">
        <ele>49.8</ele>
        <time>2014-06-23T17:36:22Z</time>
      </trkpt>
      <trkpt lat="60.009448704539" lon="23.357259445235">
        <ele>49.8</ele>
        <time>2014-06-23T17:36:23Z</time>
      </trkpt>
      <trkpt lat="60.009535876299" lon="23.35712994488">
        <ele>49.8</ele>
        <time>2014-06-23T17:36:27Z</time>
      </trkpt>
      <trkpt lat="60.00956177637" lon="23.357106307922">
        <ele>49.8</ele>
        <time>2014-06-23T17:36:28Z</time>
      </trkpt>
      <trkpt lat="60.009580635645" lon="23.357089125027">
        <ele>49.8</ele>
        <time>2014-06-23T17:36:29Z</time>
      </trkpt>
      <trkpt lat="60.009734192053" lon="23.356827777385">
        <ele>49.8</ele>
        <time>2014-06-23T17:36:38Z</time>
      </trkpt>
      <trkpt lat="60.009742657772" lon="23.35660356156">
        <ele>49.8</ele>
        <time>2014-06-23T17:36:42Z</time>
      </trkpt>
      <trkpt lat="60.009746429627" lon="23.356509935737">
        <ele>49.8</ele>
        <time>2014-06-23T17:36:44Z</time>
      </trkpt>
      <trkpt lat="60.009773922259" lon="23.356334754027">
        <ele>49.8</ele>
        <time>2014-06-23T17:36:48Z</time>
      </trkpt>
      <trkpt lat="60.009800744339" lon="23.356080866276">
        <ele>49.8</ele>
        <time>2014-06-23T17:36:53Z</time>
      </trkpt>
      <trkpt lat="60.009830248627" lon="23.355999980941">
        <ele>49.8</ele>
        <time>2014-06-23T17:36:55Z</time>
      </trkpt>
      <trkpt lat="60.009881713493" lon="23.355840557203">
        <ele>49.8</ele>
        <time>2014-06-23T17:36:59Z</time>
      </trkpt>
      <trkpt lat="60.009936363481" lon="23.355681384922">
        <ele>49.8</ele>
        <time>2014-06-23T17:37:03Z</time>
      </trkpt>
      <trkpt lat="60.009982799207" lon="23.355507544316">
        <ele>49.8</ele>
        <time>2014-06-23T17:37:07Z</time>
      </trkpt>
      <trkpt lat="60.009992773668" lon="23.3554602704">
        <ele>49.8</ele>
        <time>2014-06-23T17:37:08Z</time>
      </trkpt>
      <trkpt lat="60.010036108091" lon="23.355245442303">
        <ele>49.8</ele>
        <time>2014-06-23T17:37:13Z</time>
      </trkpt>
      <trkpt lat="60.010045495819" lon="23.355190876134">
        <ele>49.8</ele>
        <time>2014-06-23T17:37:14Z</time>
      </trkpt>
      <trkpt lat="60.010114478856" lon="23.355020555926">
        <ele>49.8</ele>
        <time>2014-06-23T17:37:18Z</time>
      </trkpt>
      <trkpt lat="60.010206260661" lon="23.354926091913">
        <ele>49.8</ele>
        <time>2014-06-23T17:37:22Z</time>
      </trkpt>
      <trkpt lat="60.010281111028" lon="23.354837243773">
        <ele>49.8</ele>
        <time>2014-06-23T17:37:25Z</time>
      </trkpt>
      <trkpt lat="60.010370713539" lon="23.354727776159">
        <ele>50.2</ele>
        <time>2014-06-23T17:37:29Z</time>
      </trkpt>
      <trkpt lat="60.010392925574" lon="23.354711515273">
        <ele>50.4</ele>
        <time>2014-06-23T17:37:30Z</time>
      </trkpt>
      <trkpt lat="60.010410359926" lon="23.354698439509">
        <ele>50.6</ele>
        <time>2014-06-23T17:37:31Z</time>
      </trkpt>
      <trkpt lat="60.010426285536" lon="23.354658374027">
        <ele>50.8</ele>
        <time>2014-06-23T17:37:33Z</time>
      </trkpt>
      <trkpt lat="60.010568107284" lon="23.35452233579">
        <ele>51.4</ele>
        <time>2014-06-23T17:37:39Z</time>
      </trkpt>
      <trkpt lat="60.01061202844" lon="23.354463578671">
        <ele>51.4</ele>
        <time>2014-06-23T17:37:41Z</time>
      </trkpt>
      <trkpt lat="60.010724932633" lon="23.354198710631">
        <ele>51.6</ele>
        <time>2014-06-23T17:37:48Z</time>
      </trkpt>
      <trkpt lat="60.010729710316" lon="23.354147916317">
        <ele>51.6</ele>
        <time>2014-06-23T17:37:49Z</time>
      </trkpt>
      <trkpt lat="60.010765584848" lon="23.353963179241">
        <ele>51.8</ele>
        <time>2014-06-23T17:37:53Z</time>
      </trkpt>
      <trkpt lat="60.010772038911" lon="23.35391967718">
        <ele>51.8</ele>
        <time>2014-06-23T17:37:54Z</time>
      </trkpt>
      <trkpt lat="60.010812272031" lon="23.353749273153">
        <ele>51.8</ele>
        <time>2014-06-23T17:37:58Z</time>
      </trkpt>
      <trkpt lat="60.010837669188" lon="23.35365480914">
        <ele>51.8</ele>
        <time>2014-06-23T17:38:00Z</time>
      </trkpt>
      <trkpt lat="60.010892319176" lon="23.353573169434">
        <ele>51.8</ele>
        <time>2014-06-23T17:38:03Z</time>
      </trkpt>
      <trkpt lat="60.010940096006" lon="23.353405447615">
        <ele>51.8</ele>
        <time>2014-06-23T17:38:07Z</time>
      </trkpt>
      <trkpt lat="60.010966163715" lon="23.353150805493">
        <ele>51.4</ele>
        <time>2014-06-23T17:38:12Z</time>
      </trkpt>
      <trkpt lat="60.010964738792" lon="23.353107051975">
        <ele>51.2</ele>
        <time>2014-06-23T17:38:13Z</time>
      </trkpt>
      <trkpt lat="60.010948813182" lon="23.352935055387">
        <ele>50.8</ele>
        <time>2014-06-23T17:38:17Z</time>
      </trkpt>
      <trkpt lat="60.010936240332" lon="23.352825587773">
        <ele>50.4</ele>
        <time>2014-06-23T17:38:20Z</time>
      </trkpt>
      <trkpt lat="60.010901371628" lon="23.352610759676">
        <ele>50.2</ele>
        <time>2014-06-23T17:38:24Z</time>
      </trkpt>
      <trkpt lat="60.010868095485" lon="23.352382520539">
        <ele>50.2</ele>
        <time>2014-06-23T17:38:28Z</time>
      </trkpt>
      <trkpt lat="60.010843871794" lon="23.352291157829">
        <ele>50</ele>
        <time>2014-06-23T17:38:30Z</time>
      </trkpt>
      <trkpt lat="60.01081822318" lon="23.352136763231">
        <ele>50</ele>
        <time>2014-06-23T17:38:34Z</time>
      </trkpt>
      <trkpt lat="60.010797519887" lon="23.351894191045">
        <ele>49</ele>
        <time>2014-06-23T17:38:39Z</time>
      </trkpt>
      <trkpt lat="60.010797519887" lon="23.35176804345">
        <ele>48.8</ele>
        <time>2014-06-23T17:38:41Z</time>
      </trkpt>
      <trkpt lat="60.010781426639" lon="23.351523543427">
        <ele>48.4</ele>
        <time>2014-06-23T17:38:46Z</time>
      </trkpt>
      <trkpt lat="60.010794250946" lon="23.351333609573">
        <ele>48.2</ele>
        <time>2014-06-23T17:38:51Z</time>
      </trkpt>
      <trkpt lat="60.010801878475" lon="23.351287341485">
        <ele>48.2</ele>
        <time>2014-06-23T17:38:52Z</time>
      </trkpt>
      <trkpt lat="60.010813026402" lon="23.351240067569">
        <ele>48.2</ele>
        <time>2014-06-23T17:38:53Z</time>
      </trkpt>
      <trkpt lat="60.010914698849" lon="23.35109497688">
        <ele>48</ele>
        <time>2014-06-23T17:38:59Z</time>
      </trkpt>
      <trkpt lat="60.010939006359" lon="23.350918789342">
        <ele>48</ele>
        <time>2014-06-23T17:39:03Z</time>
      </trkpt>
      <trkpt lat="60.010946717707" lon="23.350870258141">
        <ele>48</ele>
        <time>2014-06-23T17:39:04Z</time>
      </trkpt>
      <trkpt lat="60.01097328833" lon="23.350619387874">
        <ele>47.8</ele>
        <time>2014-06-23T17:39:10Z</time>
      </trkpt>
      <trkpt lat="60.011006145378" lon="23.35042107212">
        <ele>47.8</ele>
        <time>2014-06-23T17:39:15Z</time>
      </trkpt>
      <trkpt lat="60.011013689088" lon="23.350391567832">
        <ele>47.8</ele>
        <time>2014-06-23T17:39:16Z</time>
      </trkpt>
      <trkpt lat="60.011021316617" lon="23.350246644781">
        <ele>47.8</ele>
        <time>2014-06-23T17:39:20Z</time>
      </trkpt>
      <trkpt lat="60.011010839242" lon="23.35021906833">
        <ele>47.8</ele>
        <time>2014-06-23T17:39:21Z</time>
      </trkpt>
      <trkpt lat="60.010968678285" lon="23.350094010382">
        <ele>47.8</ele>
        <time>2014-06-23T17:39:24Z</time>
      </trkpt>
      <trkpt lat="60.010929618631" lon="23.350003150586">
        <ele>47.8</ele>
        <time>2014-06-23T17:39:27Z</time>
      </trkpt>
      <trkpt lat="60.010839261749" lon="23.34987289586">
        <ele>47.8</ele>
        <time>2014-06-23T17:39:32Z</time>
      </trkpt>
      <trkpt lat="60.010805482692" lon="23.349806008298">
        <ele>47.8</ele>
        <time>2014-06-23T17:39:34Z</time>
      </trkpt>
      <trkpt lat="60.010768937608" lon="23.349659911781">
        <ele>47.2</ele>
        <time>2014-06-23T17:39:38Z</time>
      </trkpt>
      <trkpt lat="60.010763154097" lon="23.349436617965">
        <ele>46.6</ele>
        <time>2014-06-23T17:39:42Z</time>
      </trkpt>
      <trkpt lat="60.010691153576" lon="23.349147190958">
        <ele>46.4</ele>
        <time>2014-06-23T17:39:47Z</time>
      </trkpt>
      <trkpt lat="60.010676820527" lon="23.349108215123">
        <ele>46</ele>
        <time>2014-06-23T17:39:48Z</time>
      </trkpt>
      <trkpt lat="60.010563329601" lon="23.349038393896">
        <ele>45</ele>
        <time>2014-06-23T17:39:53Z</time>
      </trkpt>
      <trkpt lat="60.010494514202" lon="23.348945187168">
        <ele>44.6</ele>
        <time>2014-06-23T17:39:57Z</time>
      </trkpt>
      <trkpt lat="60.010423519509" lon="23.348743937749">
        <ele>44.2</ele>
        <time>2014-06-23T17:40:02Z</time>
      </trkpt>
      <trkpt lat="60.010392674117" lon="23.348576635025">
        <ele>44</ele>
        <time>2014-06-23T17:40:06Z</time>
      </trkpt>
      <trkpt lat="60.010349004418" lon="23.348393741967">
        <ele>44</ele>
        <time>2014-06-23T17:40:10Z</time>
      </trkpt>
      <trkpt lat="60.010341460708" lon="23.348331715907">
        <ele>44</ele>
        <time>2014-06-23T17:40:11Z</time>
      </trkpt>
      <trkpt lat="60.010319667768" lon="23.348013455164">
        <ele>43.8</ele>
        <time>2014-06-23T17:40:16Z</time>
      </trkpt>
      <trkpt lat="60.010320170682" lon="23.347745988735">
        <ele>43.8</ele>
        <time>2014-06-23T17:40:21Z</time>
      </trkpt>
      <trkpt lat="60.010320003044" lon="23.347618583855">
        <ele>43.8</ele>
        <time>2014-06-23T17:40:24Z</time>
      </trkpt>
      <trkpt lat="60.010365516761" lon="23.347486149835">
        <ele>43.8</ele>
        <time>2014-06-23T17:40:28Z</time>
      </trkpt>
      <trkpt lat="60.01040331913" lon="23.347383890655">
        <ele>43.8</ele>
        <time>2014-06-23T17:40:30Z</time>
      </trkpt>
      <trkpt lat="60.010493508374" lon="23.347024223326">
        <ele>43.8</ele>
        <time>2014-06-23T17:40:37Z</time>
      </trkpt>
      <trkpt lat="60.010553019864" lon="23.346793218162">
        <ele>43.8</ele>
        <time>2014-06-23T17:40:42Z</time>
      </trkpt>
      <trkpt lat="60.010618901598" lon="23.346547125578">
        <ele>43.8</ele>
        <time>2014-06-23T17:40:47Z</time>
      </trkpt>
      <trkpt lat="60.010632145" lon="23.346416535576">
        <ele>43.8</ele>
        <time>2014-06-23T17:40:49Z</time>
      </trkpt>
      <trkpt lat="60.010568023465" lon="23.346206736619">
        <ele>43.8</ele>
        <time>2014-06-23T17:40:54Z</time>
      </trkpt>
      <trkpt lat="60.010562659049" lon="23.346166587318">
        <ele>43.8</ele>
        <time>2014-06-23T17:40:55Z</time>
      </trkpt>
      <trkpt lat="60.010554360968" lon="23.346007917951">
        <ele>43.8</ele>
        <time>2014-06-23T17:40:59Z</time>
      </trkpt>
      <trkpt lat="60.010552768407" lon="23.345784372678">
        <ele>43.8</ele>
        <time>2014-06-23T17:41:04Z</time>
      </trkpt>
      <trkpt lat="60.010554109511" lon="23.345532328945">
        <ele>43.8</ele>
        <time>2014-06-23T17:41:10Z</time>
      </trkpt>
      <trkpt lat="60.010533741494" lon="23.345424034797">
        <ele>43.8</ele>
        <time>2014-06-23T17:41:13Z</time>
      </trkpt>
      <trkpt lat="60.010433577789" lon="23.345291768415">
        <ele>43.8</ele>
        <time>2014-06-23T17:41:19Z</time>
      </trkpt>
      <trkpt lat="60.010401810388" lon="23.345277267728">
        <ele>43.8</ele>
        <time>2014-06-23T17:41:21Z</time>
      </trkpt>
      <trkpt lat="60.010268035264" lon="23.345311046785">
        <ele>43.8</ele>
        <time>2014-06-23T17:41:27Z</time>
      </trkpt>
      <trkpt lat="60.010249343627" lon="23.34530727493">
        <ele>43.8</ele>
        <time>2014-06-23T17:41:28Z</time>
      </trkpt>
      <trkpt lat="60.010230316714" lon="23.34530559855">
        <ele>43.8</ele>
        <time>2014-06-23T17:41:29Z</time>
      </trkpt>
      <trkpt lat="60.010190167413" lon="23.345327726766">
        <ele>43.8</ele>
        <time>2014-06-23T17:41:31Z</time>
      </trkpt>
      <trkpt lat="60.010056895203" lon="23.345359494167">
        <ele>43.8</ele>
        <time>2014-06-23T17:41:38Z</time>
      </trkpt>
      <trkpt lat="60.009978524438" lon="23.345414647069">
        <ele>43.8</ele>
        <time>2014-06-23T17:41:42Z</time>
      </trkpt>
      <trkpt lat="60.009862183666" lon="23.345566191821">
        <ele>43.8</ele>
        <time>2014-06-23T17:41:47Z</time>
      </trkpt>
      <trkpt lat="60.00982329165" lon="23.345607011674">
        <ele>43.8</ele>
        <time>2014-06-23T17:41:49Z</time>
      </trkpt>
      <trkpt lat="60.009724888144" lon="23.345664511508">
        <ele>43.8</ele>
        <time>2014-06-23T17:41:54Z</time>
      </trkpt>
      <trkpt lat="60.009698317521" lon="23.345673061046">
        <ele>43.8</ele>
        <time>2014-06-23T17:41:55Z</time>
      </trkpt>
      <trkpt lat="60.009626233181" lon="23.345673480141">
        <ele>43.8</ele>
        <time>2014-06-23T17:41:59Z</time>
      </trkpt>
      <trkpt lat="60.00952992515" lon="23.345701056592">
        <ele>43.8</ele>
        <time>2014-06-23T17:42:03Z</time>
      </trkpt>
      <trkpt lat="60.009402604089" lon="23.345719496772">
        <ele>43.8</ele>
        <time>2014-06-23T17:42:08Z</time>
      </trkpt>
      <trkpt lat="60.009270672983" lon="23.345678425462">
        <ele>43.8</ele>
        <time>2014-06-23T17:42:13Z</time>
      </trkpt>
      <trkpt lat="60.009246365473" lon="23.345688735199">
        <ele>43.6</ele>
        <time>2014-06-23T17:42:14Z</time>
      </trkpt>
      <trkpt lat="60.009109321408" lon="23.345736092934">
        <ele>42.8</ele>
        <time>2014-06-23T17:42:19Z</time>
      </trkpt>
      <trkpt lat="60.008999183242" lon="23.345770207267">
        <ele>42.4</ele>
        <time>2014-06-23T17:42:24Z</time>
      </trkpt>
      <trkpt lat="60.008888123067" lon="23.345742211721">
        <ele>42</ele>
        <time>2014-06-23T17:42:29Z</time>
      </trkpt>
      <trkpt lat="60.008768932449" lon="23.345629475166">
        <ele>42</ele>
        <time>2014-06-23T17:42:34Z</time>
      </trkpt>
      <trkpt lat="60.008753342115" lon="23.345590834607">
        <ele>41.8</ele>
        <time>2014-06-23T17:42:35Z</time>
      </trkpt>
      <trkpt lat="60.008607329417" lon="23.345498968983">
        <ele>41.8</ele>
        <time>2014-06-23T17:42:41Z</time>
      </trkpt>
      <trkpt lat="60.008572209256" lon="23.345460747519">
        <ele>41.8</ele>
        <time>2014-06-23T17:42:43Z</time>
      </trkpt>
      <trkpt lat="60.008549661945" lon="23.345436440009">
        <ele>41.8</ele>
        <time>2014-06-23T17:42:44Z</time>
      </trkpt>
      <trkpt lat="60.008415467726" lon="23.345330828069">
        <ele>41.8</ele>
        <time>2014-06-23T17:42:50Z</time>
      </trkpt>
      <trkpt lat="60.008329050337" lon="23.34520417756">
        <ele>41.8</ele>
        <time>2014-06-23T17:42:54Z</time>
      </trkpt>
      <trkpt lat="60.008249925201" lon="23.345107450434">
        <ele>41.6</ele>
        <time>2014-06-23T17:42:58Z</time>
      </trkpt>
      <trkpt lat="60.008158059577" lon="23.345071827359">
        <ele>41.6</ele>
        <time>2014-06-23T17:43:02Z</time>
      </trkpt>
      <trkpt lat="60.008114054602" lon="23.345041317243">
        <ele>41.6</ele>
        <time>2014-06-23T17:43:04Z</time>
      </trkpt>
      <trkpt lat="60.007976256166" lon="23.344985745246">
        <ele>41.6</ele>
        <time>2014-06-23T17:43:10Z</time>
      </trkpt>
      <trkpt lat="60.007949937" lon="23.344974345862">
        <ele>41.6</ele>
        <time>2014-06-23T17:43:11Z</time>
      </trkpt>
      <trkpt lat="60.007813982582" lon="23.345017428828">
        <ele>41.6</ele>
        <time>2014-06-23T17:43:16Z</time>
      </trkpt>
      <trkpt lat="60.007750028685" lon="23.345073587558">
        <ele>41.6</ele>
        <time>2014-06-23T17:43:18Z</time>
      </trkpt>
      <trkpt lat="60.007670484454" lon="23.345154389074">
        <ele>41.6</ele>
        <time>2014-06-23T17:43:21Z</time>
      </trkpt>
      <trkpt lat="60.007560933021" lon="23.345346250765">
        <ele>41.6</ele>
        <time>2014-06-23T17:43:27Z</time>
      </trkpt>
      <trkpt lat="60.007479963867" lon="23.345448509945">
        <ele>41.2</ele>
        <time>2014-06-23T17:43:31Z</time>
      </trkpt>
      <trkpt lat="60.007460182583" lon="23.345470973437">
        <ele>41.2</ele>
        <time>2014-06-23T17:43:32Z</time>
      </trkpt>
      <trkpt lat="60.007355995566" lon="23.34557046659">
        <ele>40.4</ele>
        <time>2014-06-23T17:43:38Z</time>
      </trkpt>
      <trkpt lat="60.007227836315" lon="23.345733410726">
        <ele>40</ele>
        <time>2014-06-23T17:43:45Z</time>
      </trkpt>
      <trkpt lat="60.007158266545" lon="23.345803651048">
        <ele>39.8</ele>
        <time>2014-06-23T17:43:49Z</time>
      </trkpt>
      <trkpt lat="60.007075201916" lon="23.345917561069">
        <ele>40.4</ele>
        <time>2014-06-23T17:43:54Z</time>
      </trkpt>
      <trkpt lat="60.00701367877" lon="23.346046055596">
        <ele>40.8</ele>
        <time>2014-06-23T17:43:58Z</time>
      </trkpt>
      <trkpt lat="60.00694075624" lon="23.346178741073">
        <ele>41.6</ele>
        <time>2014-06-23T17:44:02Z</time>
      </trkpt>
      <trkpt lat="60.006831875359" lon="23.346371105678">
        <ele>42.6</ele>
        <time>2014-06-23T17:44:08Z</time>
      </trkpt>
      <trkpt lat="60.006811507342" lon="23.346407986038">
        <ele>42.8</ele>
        <time>2014-06-23T17:44:09Z</time>
      </trkpt>
      <trkpt lat="60.006759623381" lon="23.346552238537">
        <ele>43.2</ele>
        <time>2014-06-23T17:44:14Z</time>
      </trkpt>
      <trkpt lat="60.006718552071" lon="23.346663969264">
        <ele>43.4</ele>
        <time>2014-06-23T17:44:18Z</time>
      </trkpt>
      <trkpt lat="60.00664906612" lon="23.346635135528">
        <ele>43.6</ele>
        <time>2014-06-23T17:44:21Z</time>
      </trkpt>
      <trkpt lat="60.006515877729" lon="23.346393652989">
        <ele>43.6</ele>
        <time>2014-06-23T17:44:27Z</time>
      </trkpt>
      <trkpt lat="60.006390149229" lon="23.346244036074">
        <ele>43.8</ele>
        <time>2014-06-23T17:44:32Z</time>
      </trkpt>
      <trkpt lat="60.006330218644" lon="23.346192235932">
        <ele>43.8</ele>
        <time>2014-06-23T17:44:34Z</time>
      </trkpt>
      <trkpt lat="60.006186720516" lon="23.345778756805">
        <ele>43.8</ele>
        <time>2014-06-23T17:44:40Z</time>
      </trkpt>
      <trkpt lat="60.006123940085" lon="23.345467620677">
        <ele>43.8</ele>
        <time>2014-06-23T17:44:45Z</time>
      </trkpt>
      <trkpt lat="60.006102482421" lon="23.34533996434">
        <ele>43.8</ele>
        <time>2014-06-23T17:44:47Z</time>
      </trkpt>
      <trkpt lat="60.006072139943" lon="23.345253546951">
        <ele>43.8</ele>
        <time>2014-06-23T17:44:49Z</time>
      </trkpt>
      <trkpt lat="60.005949261289" lon="23.345192610538">
        <ele>43.8</ele>
        <time>2014-06-23T17:44:55Z</time>
      </trkpt>
      <trkpt lat="60.005827556101" lon="23.345257318806">
        <ele>43.8</ele>
        <time>2014-06-23T17:45:00Z</time>
      </trkpt>
      <trkpt lat="60.005742228359" lon="23.345258995186">
        <ele>43.8</ele>
        <time>2014-06-23T17:45:04Z</time>
      </trkpt>
      <trkpt lat="60.005657571169" lon="23.345263353774">
        <ele>43.8</ele>
        <time>2014-06-23T17:45:09Z</time>
      </trkpt>
      <trkpt lat="60.005570734685" lon="23.345280536669">
        <ele>43.8</ele>
        <time>2014-06-23T17:45:14Z</time>
      </trkpt>
      <trkpt lat="60.005542068587" lon="23.345262347946">
        <ele>43.8</ele>
        <time>2014-06-23T17:45:15Z</time>
      </trkpt>
      <trkpt lat="60.005401085029" lon="23.345195292746">
        <ele>43.4</ele>
        <time>2014-06-23T17:45:21Z</time>
      </trkpt>
      <trkpt lat="60.005255323788" lon="23.34516981177">
        <ele>42.6</ele>
        <time>2014-06-23T17:45:27Z</time>
      </trkpt>
      <trkpt lat="60.005205032388" lon="23.3451672972">
        <ele>42.4</ele>
        <time>2014-06-23T17:45:30Z</time>
      </trkpt>
      <trkpt lat="60.005013505973" lon="23.34526201267">
        <ele>42</ele>
        <time>2014-06-23T17:45:38Z</time>
      </trkpt>
      <trkpt lat="60.004906552929" lon="23.345273831149">
        <ele>41.6</ele>
        <time>2014-06-23T17:45:42Z</time>
      </trkpt>
      <trkpt lat="60.004833378942" lon="23.345284895257">
        <ele>41</ele>
        <time>2014-06-23T17:45:44Z</time>
      </trkpt>
      <trkpt lat="60.004674458118" lon="23.345378437261">
        <ele>40.4</ele>
        <time>2014-06-23T17:45:50Z</time>
      </trkpt>
      <trkpt lat="60.004560045183" lon="23.345462004804">
        <ele>40.2</ele>
        <time>2014-06-23T17:45:55Z</time>
      </trkpt>
      <trkpt lat="60.004535486216" lon="23.345480025889">
        <ele>40</ele>
        <time>2014-06-23T17:45:56Z</time>
      </trkpt>
      <trkpt lat="60.004469939758" lon="23.345538699189">
        <ele>40</ele>
        <time>2014-06-23T17:45:59Z</time>
      </trkpt>
      <trkpt lat="60.004357538479" lon="23.345620338895">
        <ele>39.8</ele>
        <time>2014-06-23T17:46:03Z</time>
      </trkpt>
      <trkpt lat="60.004298362265" lon="23.345650849011">
        <ele>39.8</ele>
        <time>2014-06-23T17:46:05Z</time>
      </trkpt>
      <trkpt lat="60.004232480531" lon="23.34564758007">
        <ele>39.8</ele>
        <time>2014-06-23T17:46:08Z</time>
      </trkpt>
      <trkpt lat="60.004149751178" lon="23.34568613681">
        <ele>39.8</ele>
        <time>2014-06-23T17:46:12Z</time>
      </trkpt>
      <trkpt lat="60.004050090387" lon="23.345795855881">
        <ele>39.6</ele>
        <time>2014-06-23T17:46:17Z</time>
      </trkpt>
      <trkpt lat="60.00392578681" lon="23.345897276871">
        <ele>39.6</ele>
        <time>2014-06-23T17:46:23Z</time>
      </trkpt>
      <trkpt lat="60.003905921707" lon="23.345910352635">
        <ele>39.6</ele>
        <time>2014-06-23T17:46:24Z</time>
      </trkpt>
      <trkpt lat="60.003842638362" lon="23.345949915203">
        <ele>39.6</ele>
        <time>2014-06-23T17:46:27Z</time>
      </trkpt>
      <trkpt lat="60.003801902328" lon="23.345992746712">
        <ele>39.6</ele>
        <time>2014-06-23T17:46:29Z</time>
      </trkpt>
      <trkpt lat="60.003671228507" lon="23.346039769171">
        <ele>39.6</ele>
        <time>2014-06-23T17:46:35Z</time>
      </trkpt>
      <trkpt lat="60.003560419789" lon="23.346136412478">
        <ele>39.6</ele>
        <time>2014-06-23T17:46:40Z</time>
      </trkpt>
      <trkpt lat="60.003430500339" lon="23.346299272795">
        <ele>39.6</ele>
        <time>2014-06-23T17:46:46Z</time>
      </trkpt>
      <trkpt lat="60.003381382405" lon="23.346352330222">
        <ele>39.6</ele>
        <time>2014-06-23T17:46:48Z</time>
      </trkpt>
      <trkpt lat="60.003249451299" lon="23.346462971302">
        <ele>39.6</ele>
        <time>2014-06-23T17:46:53Z</time>
      </trkpt>
      <trkpt lat="60.003230340567" lon="23.346486692079">
        <ele>39.6</ele>
        <time>2014-06-23T17:46:54Z</time>
      </trkpt>
      <trkpt lat="60.003211313654" lon="23.346506389544">
        <ele>39.6</ele>
        <time>2014-06-23T17:46:55Z</time>
      </trkpt>
      <trkpt lat="60.003116765822" lon="23.346736807975">
        <ele>39.6</ele>
        <time>2014-06-23T17:47:00Z</time>
      </trkpt>
      <trkpt lat="60.003004029267" lon="23.346901093215">
        <ele>39.6</ele>
        <time>2014-06-23T17:47:05Z</time>
      </trkpt>
      <trkpt lat="60.002941248836" lon="23.346996311599">
        <ele>39.6</ele>
        <time>2014-06-23T17:47:09Z</time>
      </trkpt>
      <trkpt lat="60.002837564733" lon="23.347124554669">
        <ele>39.6</ele>
        <time>2014-06-23T17:47:14Z</time>
      </trkpt>
      <trkpt lat="60.002788446799" lon="23.347168392006">
        <ele>39.6</ele>
        <time>2014-06-23T17:47:16Z</time>
      </trkpt>
      <trkpt lat="60.002672441303" lon="23.347315913446">
        <ele>39.6</ele>
        <time>2014-06-23T17:47:21Z</time>
      </trkpt>
      <trkpt lat="60.002560040024" lon="23.347447174">
        <ele>39.6</ele>
        <time>2014-06-23T17:47:26Z</time>
      </trkpt>
      <trkpt lat="60.002532631211" lon="23.347510373526">
        <ele>39.6</ele>
        <time>2014-06-23T17:47:28Z</time>
      </trkpt>
      <trkpt lat="60.002448812211" lon="23.347692679851">
        <ele>39.6</ele>
        <time>2014-06-23T17:47:33Z</time>
      </trkpt>
      <trkpt lat="60.002412350946" lon="23.347711874402">
        <ele>39.6</ele>
        <time>2014-06-23T17:47:34Z</time>
      </trkpt>
      <trkpt lat="60.002275474519" lon="23.347722351777">
        <ele>39.6</ele>
        <time>2014-06-23T17:47:39Z</time>
      </trkpt>
      <trkpt lat="60.00209853261" lon="23.347639370967">
        <ele>39.6</ele>
        <time>2014-06-23T17:47:44Z</time>
      </trkpt>
      <trkpt lat="60.001988226806" lon="23.347583044599">
        <ele>39.6</ele>
        <time>2014-06-23T17:47:47Z</time>
      </trkpt>
      <trkpt lat="60.001870880206" lon="23.347490592242">
        <ele>39.2</ele>
        <time>2014-06-23T17:47:51Z</time>
      </trkpt>
      <trkpt lat="60.001707349337" lon="23.347551361017">
        <ele>38.6</ele>
        <time>2014-06-23T17:47:56Z</time>
      </trkpt>
      <trkpt lat="60.001605593071" lon="23.347584553341">
        <ele>38.2</ele>
        <time>2014-06-23T17:48:00Z</time>
      </trkpt>
      <trkpt lat="60.001489755213" lon="23.34760140096">
        <ele>38</ele>
        <time>2014-06-23T17:48:05Z</time>
      </trkpt>
      <trkpt lat="60.001465196246" lon="23.347616153104">
        <ele>38</ele>
        <time>2014-06-23T17:48:06Z</time>
      </trkpt>
      <trkpt lat="60.00135505808" lon="23.34764247227">
        <ele>37.8</ele>
        <time>2014-06-23T17:48:11Z</time>
      </trkpt>
      <trkpt lat="60.00131817772" lon="23.347658984613">
        <ele>37.8</ele>
        <time>2014-06-23T17:48:13Z</time>
      </trkpt>
      <trkpt lat="60.001202088405" lon="23.347733080609">
        <ele>37.8</ele>
        <time>2014-06-23T17:48:18Z</time>
      </trkpt>
      <trkpt lat="60.001092034058" lon="23.347755208825">
        <ele>37.6</ele>
        <time>2014-06-23T17:48:22Z</time>
      </trkpt>
      <trkpt lat="60.001074348249" lon="23.347726123632">
        <ele>37.6</ele>
        <time>2014-06-23T17:48:23Z</time>
      </trkpt>
      <trkpt lat="60.00099882733" lon="23.347537027968">
        <ele>37.6</ele>
        <time>2014-06-23T17:48:28Z</time>
      </trkpt>
      <trkpt lat="60.000950547586" lon="23.347452622235">
        <ele>37.6</ele>
        <time>2014-06-23T17:48:31Z</time>
      </trkpt>
      <trkpt lat="60.000856502668" lon="23.34734910577">
        <ele>37.6</ele>
        <time>2014-06-23T17:48:36Z</time>
      </trkpt>
      <trkpt lat="60.000814090254" lon="23.347270483548">
        <ele>37.6</ele>
        <time>2014-06-23T17:48:38Z</time>
      </trkpt>
      <trkpt lat="60.000718955689" lon="23.347042076773">
        <ele>37.6</ele>
        <time>2014-06-23T17:48:44Z</time>
      </trkpt>
      <trkpt lat="60.000680818044" lon="23.346797492931">
        <ele>37.6</ele>
        <time>2014-06-23T17:48:48Z</time>
      </trkpt>
      <trkpt lat="60.000657264905" lon="23.346703950927">
        <ele>37.6</ele>
        <time>2014-06-23T17:48:50Z</time>
      </trkpt>
      <trkpt lat="60.00060152527" lon="23.34647068265">
        <ele>37.6</ele>
        <time>2014-06-23T17:48:55Z</time>
      </trkpt>
      <trkpt lat="60.000569171136" lon="23.346422989639">
        <ele>37.6</ele>
        <time>2014-06-23T17:48:57Z</time>
      </trkpt>
      <trkpt lat="60.000480658272" lon="23.346342188123">
        <ele>37.6</ele>
        <time>2014-06-23T17:49:03Z</time>
      </trkpt>
      <trkpt lat="60.000467666327" lon="23.346311510369">
        <ele>37.6</ele>
        <time>2014-06-23T17:49:04Z</time>
      </trkpt>
      <trkpt lat="60.000453081821" lon="23.346289465972">
        <ele>37.6</ele>
        <time>2014-06-23T17:49:05Z</time>
      </trkpt>
      <trkpt lat="60.000336741049" lon="23.346225009161">
        <ele>37.6</ele>
        <time>2014-06-23T17:49:11Z</time>
      </trkpt>
      <trkpt lat="60.000293741902" lon="23.346192822665">
        <ele>37.6</ele>
        <time>2014-06-23T17:49:13Z</time>
      </trkpt>
      <trkpt lat="60.000187962324" lon="23.346236743821">
        <ele>37.6</ele>
        <time>2014-06-23T17:49:18Z</time>
      </trkpt>
      <trkpt lat="60.000046894947" lon="23.346317712975">
        <ele>37.6</ele>
        <time>2014-06-23T17:49:24Z</time>
      </trkpt>
      <trkpt lat="59.999948407622" lon="23.346354593335">
        <ele>37.6</ele>
        <time>2014-06-23T17:49:28Z</time>
      </trkpt>
      <trkpt lat="59.99991756223" lon="23.346356018258">
        <ele>37.6</ele>
        <time>2014-06-23T17:49:29Z</time>
      </trkpt>
      <trkpt lat="59.999565354792" lon="23.346556764763">
        <ele>37.6</ele>
        <time>2014-06-23T17:49:43Z</time>
      </trkpt>
      <trkpt lat="59.999450187486" lon="23.34664418798">
        <ele>37.6</ele>
        <time>2014-06-23T17:49:48Z</time>
      </trkpt>
      <trkpt lat="59.999433423686" lon="23.34666178997">
        <ele>37.6</ele>
        <time>2014-06-23T17:49:49Z</time>
      </trkpt>
      <trkpt lat="59.999352873627" lon="23.346644858532">
        <ele>37.4</ele>
        <time>2014-06-23T17:49:54Z</time>
      </trkpt>
      <trkpt lat="59.999312808145" lon="23.346700849624">
        <ele>37</ele>
        <time>2014-06-23T17:49:56Z</time>
      </trkpt>
      <trkpt lat="59.99928221421" lon="23.346753739413">
        <ele>36.8</ele>
        <time>2014-06-23T17:49:58Z</time>
      </trkpt>
      <trkpt lat="59.999215578105" lon="23.346789530126">
        <ele>36.4</ele>
        <time>2014-06-23T17:50:02Z</time>
      </trkpt>
      <trkpt lat="59.999110469079" lon="23.34681517874">
        <ele>36</ele>
        <time>2014-06-23T17:50:07Z</time>
      </trkpt>
      <trkpt lat="59.999058501299" lon="23.346858094068">
        <ele>36</ele>
        <time>2014-06-23T17:50:09Z</time>
      </trkpt>
      <trkpt lat="59.998981723095" lon="23.346909978029">
        <ele>36</ele>
        <time>2014-06-23T17:50:12Z</time>
      </trkpt>
      <trkpt lat="59.998866304332" lon="23.346953228633">
        <ele>35.8</ele>
        <time>2014-06-23T17:50:17Z</time>
      </trkpt>
      <trkpt lat="59.998801428426" lon="23.347036879995">
        <ele>35.8</ele>
        <time>2014-06-23T17:50:20Z</time>
      </trkpt>
      <trkpt lat="59.998698498694" lon="23.3472460084">
        <ele>35.8</ele>
        <time>2014-06-23T17:50:24Z</time>
      </trkpt>
      <trkpt lat="59.998597496799" lon="23.347322116052">
        <ele>35.6</ele>
        <time>2014-06-23T17:50:28Z</time>
      </trkpt>
      <trkpt lat="59.998485514615" lon="23.347348519037">
        <ele>35.2</ele>
        <time>2014-06-23T17:50:32Z</time>
      </trkpt>
      <trkpt lat="59.998398175217" lon="23.347382968646">
        <ele>34.6</ele>
        <time>2014-06-23T17:50:36Z</time>
      </trkpt>
      <trkpt lat="59.998291138354" lon="23.347424123775">
        <ele>34.2</ele>
        <time>2014-06-23T17:50:41Z</time>
      </trkpt>
      <trkpt lat="59.998239086755" lon="23.347449353294">
        <ele>34</ele>
        <time>2014-06-23T17:50:44Z</time>
      </trkpt>
      <trkpt lat="59.998229950484" lon="23.347464943628">
        <ele>34</ele>
        <time>2014-06-23T17:50:45Z</time>
      </trkpt>
      <trkpt lat="59.998216623263" lon="23.347479360496">
        <ele>33.8</ele>
        <time>2014-06-23T17:50:47Z</time>
      </trkpt>
      <trkpt lat="59.998141772896" lon="23.347475840098">
        <ele>33.8</ele>
        <time>2014-06-23T17:50:51Z</time>
      </trkpt>
      <trkpt lat="59.998117046291" lon="23.347459579212">
        <ele>33.8</ele>
        <time>2014-06-23T17:50:52Z</time>
      </trkpt>
      <trkpt lat="59.998034736033" lon="23.34734910577">
        <ele>33.6</ele>
        <time>2014-06-23T17:50:56Z</time>
      </trkpt>
      <trkpt lat="59.997958628381" lon="23.347258665069">
        <ele>33.6</ele>
        <time>2014-06-23T17:51:00Z</time>
      </trkpt>
      <trkpt lat="59.9979335665" lon="23.347244248201">
        <ele>33.6</ele>
        <time>2014-06-23T17:51:01Z</time>
      </trkpt>
      <trkpt lat="59.99780616162" lon="23.347131511646">
        <ele>33.6</ele>
        <time>2014-06-23T17:51:06Z</time>
      </trkpt>
      <trkpt lat="59.997710272684" lon="23.346987929699">
        <ele>33.6</ele>
        <time>2014-06-23T17:51:11Z</time>
      </trkpt>
      <trkpt lat="59.997690910495" lon="23.346965130931">
        <ele>33.6</ele>
        <time>2014-06-23T17:51:12Z</time>
      </trkpt>
      <trkpt lat="59.997652521393" lon="23.346914420436">
        <ele>33.6</ele>
        <time>2014-06-23T17:51:14Z</time>
      </trkpt>
      <trkpt lat="59.997489912533" lon="23.346791206506">
        <ele>33.6</ele>
        <time>2014-06-23T17:51:21Z</time>
      </trkpt>
      <trkpt lat="59.997391928122" lon="23.346725157134">
        <ele>33.4</ele>
        <time>2014-06-23T17:51:25Z</time>
      </trkpt>
      <trkpt lat="59.997273827151" lon="23.346668327852">
        <ele>33.4</ele>
        <time>2014-06-23T17:51:31Z</time>
      </trkpt>
      <trkpt lat="59.997112727033" lon="23.346548550501">
        <ele>33.4</ele>
        <time>2014-06-23T17:51:38Z</time>
      </trkpt>
      <trkpt lat="59.997086659324" lon="23.346542683171">
        <ele>33.4</ele>
        <time>2014-06-23T17:51:39Z</time>
      </trkpt>
      <trkpt lat="59.996995296614" lon="23.346574031477">
        <ele>33.4</ele>
        <time>2014-06-23T17:51:43Z</time>
      </trkpt>
      <trkpt lat="59.99689085814" lon="23.346649971491">
        <ele>33.4</ele>
        <time>2014-06-23T17:51:47Z</time>
      </trkpt>
      <trkpt lat="59.996758843215" lon="23.346737562346">
        <ele>33.4</ele>
        <time>2014-06-23T17:51:52Z</time>
      </trkpt>
      <trkpt lat="59.996625403367" lon="23.346777879285">
        <ele>33.4</ele>
        <time>2014-06-23T17:51:57Z</time>
      </trkpt>
      <trkpt lat="59.99657150775" lon="23.346813669998">
        <ele>33.4</ele>
        <time>2014-06-23T17:51:59Z</time>
      </trkpt>
      <trkpt lat="59.996458771195" lon="23.346803695537">
        <ele>33.4</ele>
        <time>2014-06-23T17:52:04Z</time>
      </trkpt>
      <trkpt lat="59.996403115379" lon="23.346790703592">
        <ele>33.4</ele>
        <time>2014-06-23T17:52:06Z</time>
      </trkpt>
      <trkpt lat="59.996346956649" lon="23.346764132969">
        <ele>33.4</ele>
        <time>2014-06-23T17:52:08Z</time>
      </trkpt>
      <trkpt lat="59.9962739503" lon="23.346605128326">
        <ele>33.4</ele>
        <time>2014-06-23T17:52:12Z</time>
      </trkpt>
      <trkpt lat="59.996138917891" lon="23.346461294922">
        <ele>33.4</ele>
        <time>2014-06-23T17:52:18Z</time>
      </trkpt>
      <trkpt lat="59.995987373139" lon="23.346373871705">
        <ele>33.4</ele>
        <time>2014-06-23T17:52:24Z</time>
      </trkpt>
      <trkpt lat="59.995943619621" lon="23.346346211435">
        <ele>33.4</ele>
        <time>2014-06-23T17:52:26Z</time>
      </trkpt>
      <trkpt lat="59.995793918887" lon="23.346269433231">
        <ele>33.4</ele>
        <time>2014-06-23T17:52:33Z</time>
      </trkpt>
      <trkpt lat="59.995776652173" lon="23.346234899803">
        <ele>33.4</ele>
        <time>2014-06-23T17:52:34Z</time>
      </trkpt>
      <trkpt lat="59.995735999958" lon="23.34588394965">
        <ele>33.4</ele>
        <time>2014-06-23T17:52:42Z</time>
      </trkpt>
      <trkpt lat="59.995797187828" lon="23.345659901463">
        <ele>34</ele>
        <time>2014-06-23T17:52:47Z</time>
      </trkpt>
      <trkpt lat="59.995784950254" lon="23.345518331172">
        <ele>34.4</ele>
        <time>2014-06-23T17:52:50Z</time>
      </trkpt>
      <trkpt lat="59.995775981621" lon="23.345466028116">
        <ele>34.6</ele>
        <time>2014-06-23T17:52:51Z</time>
      </trkpt>
      <trkpt lat="59.995732395741" lon="23.345254720417">
        <ele>35</ele>
        <time>2014-06-23T17:52:56Z</time>
      </trkpt>
      <trkpt lat="59.99567715902" lon="23.345173751263">
        <ele>35.2</ele>
        <time>2014-06-23T17:52:59Z</time>
      </trkpt>
      <trkpt lat="59.995598788255" lon="23.345028492936">
        <ele>35.2</ele>
        <time>2014-06-23T17:53:03Z</time>
      </trkpt>
      <trkpt lat="59.995556208203" lon="23.344957162967">
        <ele>35.4</ele>
        <time>2014-06-23T17:53:05Z</time>
      </trkpt>
      <trkpt lat="59.995532319788" lon="23.344778628497">
        <ele>35.4</ele>
        <time>2014-06-23T17:53:09Z</time>
      </trkpt>
      <trkpt lat="59.995478088895" lon="23.344720709568">
        <ele>35.4</ele>
        <time>2014-06-23T17:53:13Z</time>
      </trkpt>
      <trkpt lat="59.99541312917" lon="23.344549215894">
        <ele>35.4</ele>
        <time>2014-06-23T17:53:18Z</time>
      </trkpt>
      <trkpt lat="59.995333249663" lon="23.344478640296">
        <ele>35.4</ele>
        <time>2014-06-23T17:53:22Z</time>
      </trkpt>
      <trkpt lat="59.995312127275" lon="23.344444358325">
        <ele>35.4</ele>
        <time>2014-06-23T17:53:23Z</time>
      </trkpt>
      <trkpt lat="59.995278767313" lon="23.344364814094">
        <ele>35.4</ele>
        <time>2014-06-23T17:53:25Z</time>
      </trkpt>
      <trkpt lat="59.995200480367" lon="23.344148393436">
        <ele>35.6</ele>
        <time>2014-06-23T17:53:30Z</time>
      </trkpt>
      <trkpt lat="59.995175502305" lon="23.344155434232">
        <ele>35.6</ele>
        <time>2014-06-23T17:53:31Z</time>
      </trkpt>
      <trkpt lat="59.995123031611" lon="23.344176724258">
        <ele>35.6</ele>
        <time>2014-06-23T17:53:33Z</time>
      </trkpt>
      <trkpt lat="59.99505606023" lon="23.344057198364">
        <ele>35.6</ele>
        <time>2014-06-23T17:53:37Z</time>
      </trkpt>
      <trkpt lat="59.99500073969" lon="23.344002799833">
        <ele>35.6</ele>
        <time>2014-06-23T17:53:40Z</time>
      </trkpt>
      <trkpt lat="59.994977689465" lon="23.343881178464">
        <ele>35.6</ele>
        <time>2014-06-23T17:53:44Z</time>
      </trkpt>
      <trkpt lat="59.994966290081" lon="23.343690238782">
        <ele>35.6</ele>
        <time>2014-06-23T17:53:49Z</time>
      </trkpt>
      <trkpt lat="59.994953465774" lon="23.343643551599">
        <ele>35.6</ele>
        <time>2014-06-23T17:53:50Z</time>
      </trkpt>
      <trkpt lat="59.994916836871" lon="23.343590997086">
        <ele>35.6</ele>
        <time>2014-06-23T17:53:52Z</time>
      </trkpt>
      <trkpt lat="59.994834442794" lon="23.343584962118">
        <ele>35.6</ele>
        <time>2014-06-23T17:53:55Z</time>
      </trkpt>
      <trkpt lat="59.994812398397" lon="23.34359569095">
        <ele>35.4</ele>
        <time>2014-06-23T17:53:56Z</time>
      </trkpt>
      <trkpt lat="59.994738805315" lon="23.343581106444">
        <ele>34.8</ele>
        <time>2014-06-23T17:53:59Z</time>
      </trkpt>
      <trkpt lat="59.994647777881" lon="23.343457221962">
        <ele>34.4</ele>
        <time>2014-06-23T17:54:03Z</time>
      </trkpt>
      <trkpt lat="59.994620452887" lon="23.343368122365">
        <ele>34.2</ele>
        <time>2014-06-23T17:54:05Z</time>
      </trkpt>
      <trkpt lat="59.994552224221" lon="23.343226552074">
        <ele>34</ele>
        <time>2014-06-23T17:54:09Z</time>
      </trkpt>
      <trkpt lat="59.994447366652" lon="23.34309110057">
        <ele>33.8</ele>
        <time>2014-06-23T17:54:16Z</time>
      </trkpt>
      <trkpt lat="59.994425573712" lon="23.343074923503">
        <ele>33.6</ele>
        <time>2014-06-23T17:54:17Z</time>
      </trkpt>
      <trkpt lat="59.99437712633" lon="23.343025386474">
        <ele>33.6</ele>
        <time>2014-06-23T17:54:20Z</time>
      </trkpt>
      <trkpt lat="59.994327505482" lon="23.342734618363">
        <ele>33.6</ele>
        <time>2014-06-23T17:54:26Z</time>
      </trkpt>
      <trkpt lat="59.994311076958" lon="23.342705952265">
        <ele>33.6</ele>
        <time>2014-06-23T17:54:27Z</time>
      </trkpt>
      <trkpt lat="59.994222731732" lon="23.342755237837">
        <ele>33.6</ele>
        <time>2014-06-23T17:54:30Z</time>
      </trkpt>
      <trkpt lat="59.994144863881" lon="23.342844169796">
        <ele>33.6</ele>
        <time>2014-06-23T17:54:34Z</time>
      </trkpt>
      <trkpt lat="59.994081915812" lon="23.342920445086">
        <ele>33.6</ele>
        <time>2014-06-23T17:54:37Z</time>
      </trkpt>
      <trkpt lat="59.993987535618" lon="23.343018848592">
        <ele>33.4</ele>
        <time>2014-06-23T17:54:42Z</time>
      </trkpt>
      <trkpt lat="59.993980494822" lon="23.343052879106">
        <ele>33.2</ele>
        <time>2014-06-23T17:54:43Z</time>
      </trkpt>
      <trkpt lat="59.993929365232" lon="23.343295116016">
        <ele>32.4</ele>
        <time>2014-06-23T17:54:48Z</time>
      </trkpt>
      <trkpt lat="59.993816796315" lon="23.343448840062">
        <ele>32</ele>
        <time>2014-06-23T17:54:53Z</time>
      </trkpt>
      <trkpt lat="59.9936755613" lon="23.343529641578">
        <ele>31.8</ele>
        <time>2014-06-23T17:54:58Z</time>
      </trkpt>
      <trkpt lat="59.993594005413" lon="23.343612119474">
        <ele>31.4</ele>
        <time>2014-06-23T17:55:02Z</time>
      </trkpt>
      <trkpt lat="59.993579420907" lon="23.343640198839">
        <ele>31.2</ele>
        <time>2014-06-23T17:55:03Z</time>
      </trkpt>
      <trkpt lat="59.993521501978" lon="23.343806998649">
        <ele>30.6</ele>
        <time>2014-06-23T17:55:07Z</time>
      </trkpt>
      <trkpt lat="59.993506833653" lon="23.343846561217">
        <ele>30.4</ele>
        <time>2014-06-23T17:55:08Z</time>
      </trkpt>
      <trkpt lat="59.993433659666" lon="23.344020569461">
        <ele>30.2</ele>
        <time>2014-06-23T17:55:12Z</time>
      </trkpt>
      <trkpt lat="59.993407172862" lon="23.344122493365">
        <ele>30</ele>
        <time>2014-06-23T17:55:14Z</time>
      </trkpt>
      <trkpt lat="59.993384960827" lon="23.344226345106">
        <ele>29.8</ele>
        <time>2014-06-23T17:55:16Z</time>
      </trkpt>
      <trkpt lat="59.993352271417" lon="23.344492805707">
        <ele>29.8</ele>
        <time>2014-06-23T17:55:21Z</time>
      </trkpt>
      <trkpt lat="59.993343973336" lon="23.344548796799">
        <ele>29.6</ele>
        <time>2014-06-23T17:55:22Z</time>
      </trkpt>
      <trkpt lat="59.993345565897" lon="23.344853730321">
        <ele>30.2</ele>
        <time>2014-06-23T17:55:28Z</time>
      </trkpt>
      <trkpt lat="59.993342296956" lon="23.344908212671">
        <ele>30.4</ele>
        <time>2014-06-23T17:55:29Z</time>
      </trkpt>
      <trkpt lat="59.993308769356" lon="23.345264694878">
        <ele>30.8</ele>
        <time>2014-06-23T17:55:35Z</time>
      </trkpt>
      <trkpt lat="59.993247665305" lon="23.345552613143">
        <ele>31.6</ele>
        <time>2014-06-23T17:55:40Z</time>
      </trkpt>
      <trkpt lat="59.993160493545" lon="23.345699966945">
        <ele>32.4</ele>
        <time>2014-06-23T17:55:44Z</time>
      </trkpt>
      <trkpt lat="59.993057228537" lon="23.345863665452">
        <ele>32.8</ele>
        <time>2014-06-23T17:55:49Z</time>
      </trkpt>
      <trkpt lat="59.99299830378" lon="23.346117134108">
        <ele>33</ele>
        <time>2014-06-23T17:55:54Z</time>
      </trkpt>
      <trkpt lat="59.993009786983" lon="23.346332968033">
        <ele>33.4</ele>
        <time>2014-06-23T17:55:58Z</time>
      </trkpt>
      <trkpt lat="59.993060916573" lon="23.346639075021">
        <ele>34.2</ele>
        <time>2014-06-23T17:56:03Z</time>
      </trkpt>
      <trkpt lat="59.993044488049" lon="23.346933782625">
        <ele>34.8</ele>
        <time>2014-06-23T17:56:08Z</time>
      </trkpt>
      <trkpt lat="59.993024371489" lon="23.347038472556">
        <ele>35</ele>
        <time>2014-06-23T17:56:10Z</time>
      </trkpt>
      <trkpt lat="59.993058318184" lon="23.347249612617">
        <ele>35.2</ele>
        <time>2014-06-23T17:56:14Z</time>
      </trkpt>
      <trkpt lat="59.993097126381" lon="23.347566616075">
        <ele>35.4</ele>
        <time>2014-06-23T17:56:19Z</time>
      </trkpt>
      <trkpt lat="59.993108525765" lon="23.347892085252">
        <ele>35.4</ele>
        <time>2014-06-23T17:56:25Z</time>
      </trkpt>
      <trkpt lat="59.993097461657" lon="23.347941287005">
        <ele>35.4</ele>
        <time>2014-06-23T17:56:26Z</time>
      </trkpt>
      <trkpt lat="59.993007691508" lon="23.347938688616">
        <ele>35.4</ele>
        <time>2014-06-23T17:56:30Z</time>
      </trkpt>
      <trkpt lat="59.992906186699" lon="23.347782114724">
        <ele>34.8</ele>
        <time>2014-06-23T17:56:35Z</time>
      </trkpt>
      <trkpt lat="59.99280803465" lon="23.347585391531">
        <ele>34.2</ele>
        <time>2014-06-23T17:56:40Z</time>
      </trkpt>
      <trkpt lat="59.992732513731" lon="23.347336952015">
        <ele>33.4</ele>
        <time>2014-06-23T17:56:45Z</time>
      </trkpt>
      <trkpt lat="59.992656573717" lon="23.347042914963">
        <ele>32.4</ele>
        <time>2014-06-23T17:56:51Z</time>
      </trkpt>
      <trkpt lat="59.992572754717" lon="23.346809898143">
        <ele>31.6</ele>
        <time>2014-06-23T17:56:56Z</time>
      </trkpt>
      <trkpt lat="59.992476027591" lon="23.346610744199">
        <ele>30.6</ele>
        <time>2014-06-23T17:57:01Z</time>
      </trkpt>
      <trkpt lat="59.992346359598" lon="23.346497253273">
        <ele>30.2</ele>
        <time>2014-06-23T17:57:06Z</time>
      </trkpt>
      <trkpt lat="59.992162041617" lon="23.346433886109">
        <ele>29.8</ele>
        <time>2014-06-23T17:57:13Z</time>
      </trkpt>
      <trkpt lat="59.991982585138" lon="23.346363059054">
        <ele>29.6</ele>
        <time>2014-06-23T17:57:19Z</time>
      </trkpt>
      <trkpt lat="59.991869429488" lon="23.346309833989">
        <ele>29.4</ele>
        <time>2014-06-23T17:57:23Z</time>
      </trkpt>
      <trkpt lat="59.991710089569" lon="23.346194750502">
        <ele>29.4</ele>
        <time>2014-06-23T17:57:29Z</time>
      </trkpt>
      <trkpt lat="59.991552258392" lon="23.346036667868">
        <ele>29.4</ele>
        <time>2014-06-23T17:57:35Z</time>
      </trkpt>
      <trkpt lat="59.991498530413" lon="23.345809015464">
        <ele>29.4</ele>
        <time>2014-06-23T17:57:40Z</time>
      </trkpt>
      <trkpt lat="59.991485287011" lon="23.345768949982">
        <ele>29.4</ele>
        <time>2014-06-23T17:57:41Z</time>
      </trkpt>
      <trkpt lat="59.99138394984" lon="23.345595528471">
        <ele>29.4</ele>
        <time>2014-06-23T17:57:46Z</time>
      </trkpt>
      <trkpt lat="59.991319744486" lon="23.345400230201">
        <ele>29.4</ele>
        <time>2014-06-23T17:57:51Z</time>
      </trkpt>
      <trkpt lat="59.991252856924" lon="23.34514047512">
        <ele>29.4</ele>
        <time>2014-06-23T17:57:56Z</time>
      </trkpt>
      <trkpt lat="59.991169540838" lon="23.344847024801">
        <ele>30</ele>
        <time>2014-06-23T17:58:02Z</time>
      </trkpt>
      <trkpt lat="59.99110650895" lon="23.344623479528">
        <ele>30.6</ele>
        <time>2014-06-23T17:58:07Z</time>
      </trkpt>
      <trkpt lat="59.991064096536" lon="23.344364814094">
        <ele>31</ele>
        <time>2014-06-23T17:58:12Z</time>
      </trkpt>
      <trkpt lat="59.991017744629" lon="23.344094916914">
        <ele>31.6</ele>
        <time>2014-06-23T17:58:17Z</time>
      </trkpt>
      <trkpt lat="59.990966112125" lon="23.343850081615">
        <ele>32.4</ele>
        <time>2014-06-23T17:58:22Z</time>
      </trkpt>
      <trkpt lat="59.990907606463" lon="23.34353701765">
        <ele>32.8</ele>
        <time>2014-06-23T17:58:28Z</time>
      </trkpt>
      <trkpt lat="59.990788751121" lon="23.343171985905">
        <ele>33.6</ele>
        <time>2014-06-23T17:58:36Z</time>
      </trkpt>
      <trkpt lat="59.990709039252" lon="23.342841822864">
        <ele>34.6</ele>
        <time>2014-06-23T17:58:43Z</time>
      </trkpt>
      <trkpt lat="59.990634440342" lon="23.342565387802">
        <ele>35</ele>
        <time>2014-06-23T17:58:49Z</time>
      </trkpt>
      <trkpt lat="59.990559422337" lon="23.34220345736">
        <ele>35.4</ele>
        <time>2014-06-23T17:58:56Z</time>
      </trkpt>
      <trkpt lat="59.990557326862" lon="23.341887543549">
        <ele>35.4</ele>
        <time>2014-06-23T17:59:02Z</time>
      </trkpt>
      <trkpt lat="59.990559925251" lon="23.341623597518">
        <ele>36.4</ele>
        <time>2014-06-23T17:59:08Z</time>
      </trkpt>
      <trkpt lat="59.990561936907" lon="23.341577161792">
        <ele>36.4</ele>
        <time>2014-06-23T17:59:09Z</time>
      </trkpt>
      <trkpt lat="59.990548442048" lon="23.341182458121">
        <ele>37</ele>
        <time>2014-06-23T17:59:16Z</time>
      </trkpt>
      <trkpt lat="59.990548861143" lon="23.341125712658">
        <ele>37.2</ele>
        <time>2014-06-23T17:59:17Z</time>
      </trkpt>
      <trkpt lat="59.990526984384" lon="23.340738636516">
        <ele>37.4</ele>
        <time>2014-06-23T17:59:24Z</time>
      </trkpt>
      <trkpt lat="59.990488427644" lon="23.340399337204">
        <ele>38.2</ele>
        <time>2014-06-23T17:59:30Z</time>
      </trkpt>
      <trkpt lat="59.990444255031" lon="23.340017374021">
        <ele>38.8</ele>
        <time>2014-06-23T17:59:36Z</time>
      </trkpt>
      <trkpt lat="59.990417600589" lon="23.339673716121">
        <ele>39.2</ele>
        <time>2014-06-23T17:59:42Z</time>
      </trkpt>
      <trkpt lat="59.990387509568" lon="23.339371632445">
        <ele>39.4</ele>
        <time>2014-06-23T17:59:47Z</time>
      </trkpt>
      <trkpt lat="59.990336631435" lon="23.339045744173">
        <ele>39.6</ele>
        <time>2014-06-23T17:59:53Z</time>
      </trkpt>
      <trkpt lat="59.990280640343" lon="23.338690016337">
        <ele>39.6</ele>
        <time>2014-06-23T18:00:00Z</time>
      </trkpt>
      <trkpt lat="59.990241161594" lon="23.338369073386">
        <ele>39.6</ele>
        <time>2014-06-23T18:00:06Z</time>
      </trkpt>
      <trkpt lat="59.990217105541" lon="23.338156927497">
        <ele>39.4</ele>
        <time>2014-06-23T18:00:10Z</time>
      </trkpt>
      <trkpt lat="59.990191540746" lon="23.33779625434">
        <ele>38.4</ele>
        <time>2014-06-23T18:00:18Z</time>
      </trkpt>
      <trkpt lat="59.990161952639" lon="23.337507414066">
        <ele>38</ele>
        <time>2014-06-23T18:00:23Z</time>
      </trkpt>
      <trkpt lat="59.990106296823" lon="23.337284706983">
        <ele>38</ele>
        <time>2014-06-23T18:00:27Z</time>
      </trkpt>
      <trkpt lat="59.990000265788" lon="23.337138442828">
        <ele>37.8</ele>
        <time>2014-06-23T18:00:32Z</time>
      </trkpt>
      <trkpt lat="59.989898844798" lon="23.336986395162">
        <ele>37.8</ele>
        <time>2014-06-23T18:00:36Z</time>
      </trkpt>
      <trkpt lat="59.989851319425" lon="23.336905006913">
        <ele>37.8</ele>
        <time>2014-06-23T18:00:38Z</time>
      </trkpt>
      <trkpt lat="59.989744617838" lon="23.336724460787">
        <ele>37.6</ele>
        <time>2014-06-23T18:00:43Z</time>
      </trkpt>
      <trkpt lat="59.9896354855" lon="23.336596888269">
        <ele>37.6</ele>
        <time>2014-06-23T18:00:48Z</time>
      </trkpt>
      <trkpt lat="59.989571363965" lon="23.336503849179">
        <ele>37.6</ele>
        <time>2014-06-23T18:00:51Z</time>
      </trkpt>
      <trkpt lat="59.989436666832" lon="23.33627158673">
        <ele>37.6</ele>
        <time>2014-06-23T18:00:57Z</time>
      </trkpt>
      <trkpt lat="59.98927338742" lon="23.336060446669">
        <ele>38.2</ele>
        <time>2014-06-23T18:01:04Z</time>
      </trkpt>
      <trkpt lat="59.989156459915" lon="23.335880738733">
        <ele>38.8</ele>
        <time>2014-06-23T18:01:09Z</time>
      </trkpt>
      <trkpt lat="59.989060822436" lon="23.335734642216">
        <ele>39.2</ele>
        <time>2014-06-23T18:01:13Z</time>
      </trkpt>
      <trkpt lat="59.988943475836" lon="23.335579577066">
        <ele>39.4</ele>
        <time>2014-06-23T18:01:18Z</time>
      </trkpt>
      <trkpt lat="59.988859070103" lon="23.335462062828">
        <ele>39.4</ele>
        <time>2014-06-23T18:01:22Z</time>
      </trkpt>
      <trkpt lat="59.988842306303" lon="23.335436917128">
        <ele>39.6</ele>
        <time>2014-06-23T18:01:23Z</time>
      </trkpt>
      <trkpt lat="59.988761504787" lon="23.33535628325">
        <ele>39.6</ele>
        <time>2014-06-23T18:01:27Z</time>
      </trkpt>
      <trkpt lat="59.988690761551" lon="23.335303225823">
        <ele>39.6</ele>
        <time>2014-06-23T18:01:31Z</time>
      </trkpt>
      <trkpt lat="59.988669974439" lon="23.33530683004">
        <ele>39.6</ele>
        <time>2014-06-23T18:01:32Z</time>
      </trkpt>
      <trkpt lat="59.988512813814" lon="23.335354187775">
        <ele>39.6</ele>
        <time>2014-06-23T18:01:38Z</time>
      </trkpt>
      <trkpt lat="59.988391779178" lon="23.335365335702">
        <ele>39.6</ele>
        <time>2014-06-23T18:01:43Z</time>
      </trkpt>
      <trkpt lat="59.988233109811" lon="23.335349745368">
        <ele>39.8</ele>
        <time>2014-06-23T18:01:48Z</time>
      </trkpt>
      <trkpt lat="59.988107716587" lon="23.335279085951">
        <ele>39.8</ele>
        <time>2014-06-23T18:01:53Z</time>
      </trkpt>
      <trkpt lat="59.987985424666" lon="23.335134581995">
        <ele>39.8</ele>
        <time>2014-06-23T18:01:58Z</time>
      </trkpt>
      <trkpt lat="59.987864725306" lon="23.334991167686">
        <ele>40.2</ele>
        <time>2014-06-23T18:02:03Z</time>
      </trkpt>
      <trkpt lat="59.987768333456" lon="23.334895697845">
        <ele>40.6</ele>
        <time>2014-06-23T18:02:07Z</time>
      </trkpt>
      <trkpt lat="59.987654507254" lon="23.334778937978">
        <ele>41.8</ele>
        <time>2014-06-23T18:02:12Z</time>
      </trkpt>
      <trkpt lat="59.987549733504" lon="23.33472009704">
        <ele>42.6</ele>
        <time>2014-06-23T18:02:17Z</time>
      </trkpt>
      <trkpt lat="59.987353764682" lon="23.334688497277">
        <ele>44.2</ele>
        <time>2014-06-23T18:02:24Z</time>
      </trkpt>
      <trkpt lat="59.987244045611" lon="23.334648515614">
        <ele>44.8</ele>
        <time>2014-06-23T18:02:28Z</time>
      </trkpt>
      <trkpt lat="59.9871125336" lon="23.334616077661">
        <ele>45.8</ele>
        <time>2014-06-23T18:02:33Z</time>
      </trkpt>
      <trkpt lat="59.986925030497" lon="23.33465388003">
        <ele>47</ele>
        <time>2014-06-23T18:02:39Z</time>
      </trkpt>
      <trkpt lat="59.98671439335" lon="23.334750607156">
        <ele>47.6</ele>
        <time>2014-06-23T18:02:47Z</time>
      </trkpt>
      <trkpt lat="59.986685140519" lon="23.334767119499">
        <ele>47.8</ele>
        <time>2014-06-23T18:02:48Z</time>
      </trkpt>
      <trkpt lat="59.986503253289" lon="23.334821937125">
        <ele>48</ele>
        <time>2014-06-23T18:02:55Z</time>
      </trkpt>
      <trkpt lat="59.986331843434" lon="23.334798970719">
        <ele>48.2</ele>
        <time>2014-06-23T18:03:01Z</time>
      </trkpt>
      <trkpt lat="59.986192536256" lon="23.334741973799">
        <ele>49</ele>
        <time>2014-06-23T18:03:06Z</time>
      </trkpt>
      <trkpt lat="59.986073094181" lon="23.334699226109">
        <ele>49.6</ele>
        <time>2014-06-23T18:03:11Z</time>
      </trkpt>
      <trkpt lat="59.985948706785" lon="23.334690508933">
        <ele>49.8</ele>
        <time>2014-06-23T18:03:16Z</time>
      </trkpt>
      <trkpt lat="59.985875616617" lon="23.334685395974">
        <ele>50</ele>
        <time>2014-06-23T18:03:19Z</time>
      </trkpt>
      <trkpt lat="59.985699177622" lon="23.334707188914">
        <ele>50.2</ele>
        <time>2014-06-23T18:03:25Z</time>
      </trkpt>
      <trkpt lat="59.985647628937" lon="23.334706015448">
        <ele>50.2</ele>
        <time>2014-06-23T18:03:27Z</time>
      </trkpt>
      <trkpt lat="59.985408744787" lon="23.33469411315">
        <ele>50.2</ele>
        <time>2014-06-23T18:03:35Z</time>
      </trkpt>
      <trkpt lat="59.985327775633" lon="23.334677014074">
        <ele>50.4</ele>
        <time>2014-06-23T18:03:38Z</time>
      </trkpt>
      <trkpt lat="59.98507321733" lon="23.334619262783">
        <ele>51.6</ele>
        <time>2014-06-23T18:03:47Z</time>
      </trkpt>
      <trkpt lat="59.984944638984" lon="23.334568133193">
        <ele>51.8</ele>
        <time>2014-06-23T18:03:52Z</time>
      </trkpt>
      <trkpt lat="59.984807008186" lon="23.334518177069">
        <ele>52</ele>
        <time>2014-06-23T18:03:57Z</time>
      </trkpt>
      <trkpt lat="59.984776246613" lon="23.334513147929">
        <ele>52</ele>
        <time>2014-06-23T18:03:58Z</time>
      </trkpt>
      <trkpt lat="59.984669125931" lon="23.334462605072">
        <ele>52.2</ele>
        <time>2014-06-23T18:04:02Z</time>
      </trkpt>
      <trkpt lat="59.984511043297" lon="23.334328494672">
        <ele>52.2</ele>
        <time>2014-06-23T18:04:08Z</time>
      </trkpt>
      <trkpt lat="59.984408113565" lon="23.334233779202">
        <ele>52.2</ele>
        <time>2014-06-23T18:04:12Z</time>
      </trkpt>
      <trkpt lat="59.984317002312" lon="23.334095477852">
        <ele>52.2</ele>
        <time>2014-06-23T18:04:16Z</time>
      </trkpt>
      <trkpt lat="59.984218347349" lon="23.333997241984">
        <ele>52.2</ele>
        <time>2014-06-23T18:04:20Z</time>
      </trkpt>
      <trkpt lat="59.984072753746" lon="23.334201508887">
        <ele>52.4</ele>
        <time>2014-06-23T18:04:26Z</time>
      </trkpt>
      <trkpt lat="59.983966471254" lon="23.334399321727">
        <ele>52.4</ele>
        <time>2014-06-23T18:04:31Z</time>
      </trkpt>
      <trkpt lat="59.983812244294" lon="23.334616748213">
        <ele>52.4</ele>
        <time>2014-06-23T18:04:37Z</time>
      </trkpt>
      <trkpt lat="59.983663968483" lon="23.334844819712">
        <ele>52.2</ele>
        <time>2014-06-23T18:04:43Z</time>
      </trkpt>
      <trkpt lat="59.983533797576" lon="23.335071801564">
        <ele>51.2</ele>
        <time>2014-06-23T18:04:49Z</time>
      </trkpt>
      <trkpt lat="59.983395244769" lon="23.335309176972">
        <ele>50.8</ele>
        <time>2014-06-23T18:04:55Z</time>
      </trkpt>
      <trkpt lat="59.983258787437" lon="23.335548480217">
        <ele>50.6</ele>
        <time>2014-06-23T18:05:01Z</time>
      </trkpt>
      <trkpt lat="59.98314370395" lon="23.335757692441">
        <ele>49.8</ele>
        <time>2014-06-23T18:05:06Z</time>
      </trkpt>
      <trkpt lat="59.983026441169" lon="23.335964054819">
        <ele>49.2</ele>
        <time>2014-06-23T18:05:11Z</time>
      </trkpt>
      <trkpt lat="59.982939856142" lon="23.336152312293">
        <ele>48.8</ele>
        <time>2014-06-23T18:05:15Z</time>
      </trkpt>
      <trkpt lat="59.982839273342" lon="23.336377533946">
        <ele>48.6</ele>
        <time>2014-06-23T18:05:20Z</time>
      </trkpt>
      <trkpt lat="59.982730224823" lon="23.336638881588">
        <ele>48.4</ele>
        <time>2014-06-23T18:05:26Z</time>
      </trkpt>
      <trkpt lat="59.982661409424" lon="23.33683485041">
        <ele>48.4</ele>
        <time>2014-06-23T18:05:30Z</time>
      </trkpt>
      <trkpt lat="59.982584295944" lon="23.337083457564">
        <ele>48.2</ele>
        <time>2014-06-23T18:05:35Z</time>
      </trkpt>
      <trkpt lat="59.98251003231" lon="23.33733608803">
        <ele>48.2</ele>
        <time>2014-06-23T18:05:40Z</time>
      </trkpt>
      <trkpt lat="59.982433924658" lon="23.33767304041">
        <ele>48.2</ele>
        <time>2014-06-23T18:05:46Z</time>
      </trkpt>
      <trkpt lat="59.982389249131" lon="23.337886275946">
        <ele>48.2</ele>
        <time>2014-06-23T18:05:51Z</time>
      </trkpt>
      <trkpt lat="59.982315991325" lon="23.338194226952">
        <ele>48.2</ele>
        <time>2014-06-23T18:05:57Z</time>
      </trkpt>
      <trkpt lat="59.982255809283" lon="23.338480887932">
        <ele>48.2</ele>
        <time>2014-06-23T18:06:02Z</time>
      </trkpt>
      <trkpt lat="59.982199734372" lon="23.338754389329">
        <ele>47.8</ele>
        <time>2014-06-23T18:06:07Z</time>
      </trkpt>
      <trkpt lat="59.982125386919" lon="23.339083797999">
        <ele>47</ele>
        <time>2014-06-23T18:06:14Z</time>
      </trkpt>
      <trkpt lat="59.982127230937" lon="23.339106764405">
        <ele>46.8</ele>
        <time>2014-06-23T18:06:15Z</time>
      </trkpt>
      <trkpt lat="59.982112478793" lon="23.339207682481">
        <ele>46.6</ele>
        <time>2014-06-23T18:06:19Z</time>
      </trkpt>
      <trkpt lat="59.982122704711" lon="23.339270462912">
        <ele>46.4</ele>
        <time>2014-06-23T18:06:24Z</time>
      </trkpt>
      <trkpt lat="59.982106108549" lon="23.339346402926">
        <ele>44.8</ele>
        <time>2014-06-23T18:06:52Z</time>
      </trkpt>
      <trkpt lat="59.98206830618" lon="23.339368112047">
        <ele>44.6</ele>
        <time>2014-06-23T18:06:55Z</time>
      </trkpt>
      <trkpt lat="59.981973925986" lon="23.339757032207">
        <ele>44.4</ele>
        <time>2014-06-23T18:07:01Z</time>
      </trkpt>
      <trkpt lat="59.981894968488" lon="23.340101444478">
        <ele>43.8</ele>
        <time>2014-06-23T18:07:06Z</time>
      </trkpt>
      <trkpt lat="59.981842497794" lon="23.340353907306">
        <ele>43.2</ele>
        <time>2014-06-23T18:07:10Z</time>
      </trkpt>
      <trkpt lat="59.981763288839" lon="23.340676442818">
        <ele>42.6</ele>
        <time>2014-06-23T18:07:16Z</time>
      </trkpt>
      <trkpt lat="59.981686594454" lon="23.340987914222">
        <ele>42.4</ele>
        <time>2014-06-23T18:07:22Z</time>
      </trkpt>
      <trkpt lat="59.981619287797" lon="23.341253285176">
        <ele>42.2</ele>
        <time>2014-06-23T18:07:27Z</time>
      </trkpt>
      <trkpt lat="59.981535301159" lon="23.341546148762">
        <ele>42.2</ele>
        <time>2014-06-23T18:07:33Z</time>
      </trkpt>
      <trkpt lat="59.981491799098" lon="23.341762485601">
        <ele>42.2</ele>
        <time>2014-06-23T18:07:37Z</time>
      </trkpt>
      <trkpt lat="59.98139272504" lon="23.341933811637">
        <ele>42.2</ele>
        <time>2014-06-23T18:07:42Z</time>
      </trkpt>
      <trkpt lat="59.98137596124" lon="23.342230027983">
        <ele>42.2</ele>
        <time>2014-06-23T18:07:47Z</time>
      </trkpt>
      <trkpt lat="59.981295411181" lon="23.342514928764">
        <ele>41.8</ele>
        <time>2014-06-23T18:07:52Z</time>
      </trkpt>
      <trkpt lat="59.981279401752" lon="23.342572344779">
        <ele>41.6</ele>
        <time>2014-06-23T18:07:53Z</time>
      </trkpt>
      <trkpt lat="59.981216788959" lon="23.342851881144">
        <ele>41</ele>
        <time>2014-06-23T18:07:58Z</time>
      </trkpt>
      <trkpt lat="59.981159624401" lon="23.343051789459">
        <ele>40.6</ele>
        <time>2014-06-23T18:08:02Z</time>
      </trkpt>
      <trkpt lat="59.981082259464" lon="23.343369631107">
        <ele>40.4</ele>
        <time>2014-06-23T18:08:08Z</time>
      </trkpt>
      <trkpt lat="59.981021490689" lon="23.343614801682">
        <ele>40.2</ele>
        <time>2014-06-23T18:08:13Z</time>
      </trkpt>
      <trkpt lat="59.980973043307" lon="23.343833653091">
        <ele>40.2</ele>
        <time>2014-06-23T18:08:17Z</time>
      </trkpt>
      <trkpt lat="59.980910598152" lon="23.344094497819">
        <ele>40</ele>
        <time>2014-06-23T18:08:22Z</time>
      </trkpt>
      <trkpt lat="59.980850499929" lon="23.344365233189">
        <ele>40</ele>
        <time>2014-06-23T18:08:27Z</time>
      </trkpt>
      <trkpt lat="59.980796269036" lon="23.344643847545">
        <ele>39.6</ele>
        <time>2014-06-23T18:08:32Z</time>
      </trkpt>
      <trkpt lat="59.98073306951" lon="23.344984739418">
        <ele>38.8</ele>
        <time>2014-06-23T18:08:38Z</time>
      </trkpt>
      <trkpt lat="59.98066517612" lon="23.345294282985">
        <ele>38</ele>
        <time>2014-06-23T18:08:44Z</time>
      </trkpt>
      <trkpt lat="59.980610861408" lon="23.345660488196">
        <ele>37</ele>
        <time>2014-06-23T18:08:51Z</time>
      </trkpt>
      <trkpt lat="59.980563084578" lon="23.345899539984">
        <ele>36.6</ele>
        <time>2014-06-23T18:08:55Z</time>
      </trkpt>
      <trkpt lat="59.980510446246" lon="23.346177483788">
        <ele>36.4</ele>
        <time>2014-06-23T18:09:00Z</time>
      </trkpt>
      <trkpt lat="59.980451605308" lon="23.346491134486">
        <ele>35.2</ele>
        <time>2014-06-23T18:09:06Z</time>
      </trkpt>
      <trkpt lat="59.980384131013" lon="23.346866895063">
        <ele>34.6</ele>
        <time>2014-06-23T18:09:13Z</time>
      </trkpt>
      <trkpt lat="59.980338617296" lon="23.347143497763">
        <ele>34.4</ele>
        <time>2014-06-23T18:09:18Z</time>
      </trkpt>
      <trkpt lat="59.980271478277" lon="23.347459663031">
        <ele>34.2</ele>
        <time>2014-06-23T18:09:24Z</time>
      </trkpt>
      <trkpt lat="59.980205680362" lon="23.347810445546">
        <ele>34</ele>
        <time>2014-06-23T18:09:30Z</time>
      </trkpt>
      <trkpt lat="59.980140804456" lon="23.348135160352">
        <ele>34</ele>
        <time>2014-06-23T18:09:36Z</time>
      </trkpt>
      <trkpt lat="59.980088752857" lon="23.348430957603">
        <ele>34</ele>
        <time>2014-06-23T18:09:42Z</time>
      </trkpt>
      <trkpt lat="59.980030582471" lon="23.348730861985">
        <ele>34</ele>
        <time>2014-06-23T18:09:48Z</time>
      </trkpt>
      <trkpt lat="59.979984817297" lon="23.348985336469">
        <ele>34</ele>
        <time>2014-06-23T18:09:53Z</time>
      </trkpt>
      <trkpt lat="59.979945757643" lon="23.349200248385">
        <ele>34</ele>
        <time>2014-06-23T18:09:57Z</time>
      </trkpt>
      <trkpt lat="59.979873505665" lon="23.349508115572">
        <ele>34</ele>
        <time>2014-06-23T18:10:03Z</time>
      </trkpt>
      <trkpt lat="59.979814916184" lon="23.349834087663">
        <ele>34</ele>
        <time>2014-06-23T18:10:09Z</time>
      </trkpt>
      <trkpt lat="59.979761691119" lon="23.350122341204">
        <ele>34</ele>
        <time>2014-06-23T18:10:14Z</time>
      </trkpt>
      <trkpt lat="59.979700000335" lon="23.350469519502">
        <ele>34</ele>
        <time>2014-06-23T18:10:20Z</time>
      </trkpt>
      <trkpt lat="59.979647278184" lon="23.350745535469">
        <ele>34</ele>
        <time>2014-06-23T18:10:25Z</time>
      </trkpt>
      <trkpt lat="59.97959899844" lon="23.351021719074">
        <ele>34.2</ele>
        <time>2014-06-23T18:10:30Z</time>
      </trkpt>
      <trkpt lat="59.979551389248" lon="23.351297232127">
        <ele>35</ele>
        <time>2014-06-23T18:10:35Z</time>
      </trkpt>
      <trkpt lat="59.979480143098" lon="23.35163560943">
        <ele>35.4</ele>
        <time>2014-06-23T18:10:41Z</time>
      </trkpt>
      <trkpt lat="59.979409483681" lon="23.352016482966">
        <ele>35.8</ele>
        <time>2014-06-23T18:10:48Z</time>
      </trkpt>
      <trkpt lat="59.979347038526" lon="23.352340024306">
        <ele>35.8</ele>
        <time>2014-06-23T18:10:54Z</time>
      </trkpt>
      <trkpt lat="59.979272774892" lon="23.352687118785">
        <ele>35.8</ele>
        <time>2014-06-23T18:11:00Z</time>
      </trkpt>
      <trkpt lat="59.979220723293" lon="23.352952322101">
        <ele>36</ele>
        <time>2014-06-23T18:11:05Z</time>
      </trkpt>
      <trkpt lat="59.979156015025" lon="23.353284077703">
        <ele>36</ele>
        <time>2014-06-23T18:11:11Z</time>
      </trkpt>
      <trkpt lat="59.979093402232" lon="23.353616671495">
        <ele>36</ele>
        <time>2014-06-23T18:11:17Z</time>
      </trkpt>
      <trkpt lat="59.979017462218" lon="23.353968040743">
        <ele>36</ele>
        <time>2014-06-23T18:11:23Z</time>
      </trkpt>
      <trkpt lat="59.97895191576" lon="23.354297952327">
        <ele>36</ele>
        <time>2014-06-23T18:11:29Z</time>
      </trkpt>
      <trkpt lat="59.978891314623" lon="23.35462040402">
        <ele>36</ele>
        <time>2014-06-23T18:11:35Z</time>
      </trkpt>
      <trkpt lat="59.978816380437" lon="23.355033966966">
        <ele>36</ele>
        <time>2014-06-23T18:11:43Z</time>
      </trkpt>
      <trkpt lat="59.978743877002" lon="23.355418444719">
        <ele>36</ele>
        <time>2014-06-23T18:11:50Z</time>
      </trkpt>
      <trkpt lat="59.978667098798" lon="23.355797558056">
        <ele>35.2</ele>
        <time>2014-06-23T18:11:57Z</time>
      </trkpt>
      <trkpt lat="59.978612700267" lon="23.356117076084">
        <ele>34.6</ele>
        <time>2014-06-23T18:12:03Z</time>
      </trkpt>
      <trkpt lat="59.978546567076" lon="23.356439695415">
        <ele>34.2</ele>
        <time>2014-06-23T18:12:09Z</time>
      </trkpt>
      <trkpt lat="59.978491581812" lon="23.356730798802">
        <ele>34.2</ele>
        <time>2014-06-23T18:12:14Z</time>
      </trkpt>
      <trkpt lat="59.978415809436" lon="23.35711569565">
        <ele>34</ele>
        <time>2014-06-23T18:12:21Z</time>
      </trkpt>
      <trkpt lat="59.978345485295" lon="23.3574383988">
        <ele>34</ele>
        <time>2014-06-23T18:12:27Z</time>
      </trkpt>
      <trkpt lat="59.978304330166" lon="23.357645347911">
        <ele>34</ele>
        <time>2014-06-23T18:12:31Z</time>
      </trkpt>
      <trkpt lat="59.978259235544" lon="23.35796562031">
        <ele>34.4</ele>
        <time>2014-06-23T18:12:37Z</time>
      </trkpt>
      <trkpt lat="59.978191928887" lon="23.358362838551">
        <ele>35.2</ele>
        <time>2014-06-23T18:12:44Z</time>
      </trkpt>
      <trkpt lat="59.97814976793" lon="23.358576409363">
        <ele>35.4</ele>
        <time>2014-06-23T18:12:48Z</time>
      </trkpt>
      <trkpt lat="59.978099644168" lon="23.358848988751">
        <ele>35.6</ele>
        <time>2014-06-23T18:12:53Z</time>
      </trkpt>
      <trkpt lat="59.978034600624" lon="23.359191137909">
        <ele>35.8</ele>
        <time>2014-06-23T18:12:59Z</time>
      </trkpt>
      <trkpt lat="59.977973580392" lon="23.359505123883">
        <ele>36.6</ele>
        <time>2014-06-23T18:13:05Z</time>
      </trkpt>
      <trkpt lat="59.977935526566" lon="23.359728250061">
        <ele>37</ele>
        <time>2014-06-23T18:13:09Z</time>
      </trkpt>
      <trkpt lat="59.977876266533" lon="23.360046678442">
        <ele>37.4</ele>
        <time>2014-06-23T18:13:15Z</time>
      </trkpt>
      <trkpt lat="59.97781952107" lon="23.360317916726">
        <ele>37.6</ele>
        <time>2014-06-23T18:13:20Z</time>
      </trkpt>
      <trkpt lat="59.977770989869" lon="23.360582281852">
        <ele>38</ele>
        <time>2014-06-23T18:13:25Z</time>
      </trkpt>
      <trkpt lat="59.977723632134" lon="23.360901380785">
        <ele>38.8</ele>
        <time>2014-06-23T18:13:31Z</time>
      </trkpt>
      <trkpt lat="59.977673173096" lon="23.361211762542">
        <ele>39.4</ele>
        <time>2014-06-23T18:13:37Z</time>
      </trkpt>
      <trkpt lat="59.977629671035" lon="23.361461291705">
        <ele>39.6</ele>
        <time>2014-06-23T18:13:42Z</time>
      </trkpt>
      <trkpt lat="59.97758650425" lon="23.361732529989">
        <ele>40.6</ele>
        <time>2014-06-23T18:13:47Z</time>
      </trkpt>
      <trkpt lat="59.97753034552" lon="23.362066381066">
        <ele>41.2</ele>
        <time>2014-06-23T18:13:53Z</time>
      </trkpt>
      <trkpt lat="59.977483239242" lon="23.362335775332">
        <ele>42.2</ele>
        <time>2014-06-23T18:13:58Z</time>
      </trkpt>
      <trkpt lat="59.977454321687" lon="23.362603828494">
        <ele>43</ele>
        <time>2014-06-23T18:14:03Z</time>
      </trkpt>
      <trkpt lat="59.977434708041" lon="23.36275755254">
        <ele>43.8</ele>
        <time>2014-06-23T18:14:07Z</time>
      </trkpt>
      <trkpt lat="59.977452310031" lon="23.362754702694">
        <ele>44.6</ele>
        <time>2014-06-23T18:14:11Z</time>
      </trkpt>
      <trkpt lat="59.977482401052" lon="23.362769957752">
        <ele>48.4</ele>
        <time>2014-06-23T18:14:28Z</time>
      </trkpt>
      <trkpt lat="59.977460943388" lon="23.362795438728">
        <ele>49.4</ele>
        <time>2014-06-23T18:14:34Z</time>
      </trkpt>
      <trkpt lat="59.977456417162" lon="23.362894512786">
        <ele>49.6</ele>
        <time>2014-06-23T18:14:38Z</time>
      </trkpt>
      <trkpt lat="59.97741299892" lon="23.363257029961">
        <ele>51</ele>
        <time>2014-06-23T18:14:44Z</time>
      </trkpt>
      <trkpt lat="59.977364551538" lon="23.363616362014">
        <ele>51.6</ele>
        <time>2014-06-23T18:14:50Z</time>
      </trkpt>
      <trkpt lat="59.977334963431" lon="23.36386983067">
        <ele>52</ele>
        <time>2014-06-23T18:14:55Z</time>
      </trkpt>
      <trkpt lat="59.977321300934" lon="23.363949207263">
        <ele>52</ele>
        <time>2014-06-23T18:14:57Z</time>
      </trkpt>
      <trkpt lat="59.977299927089" lon="23.364030930788">
        <ele>52.2</ele>
        <time>2014-06-23T18:15:03Z</time>
      </trkpt>
      <trkpt lat="59.977301938745" lon="23.364141320411">
        <ele>52.4</ele>
        <time>2014-06-23T18:15:08Z</time>
      </trkpt>
      <trkpt lat="59.977280900176" lon="23.364295798828">
        <ele>52.4</ele>
        <time>2014-06-23T18:15:13Z</time>
      </trkpt>
      <trkpt lat="59.977261370349" lon="23.364452624177">
        <ele>52.4</ele>
        <time>2014-06-23T18:15:19Z</time>
      </trkpt>
      <trkpt lat="59.977253407544" lon="23.364635852511">
        <ele>52.4</ele>
        <time>2014-06-23T18:15:25Z</time>
      </trkpt>
      <trkpt lat="59.97722943531" lon="23.364921926758">
        <ele>52.4</ele>
        <time>2014-06-23T18:15:30Z</time>
      </trkpt>
      <trkpt lat="59.977199344289" lon="23.365234236352">
        <ele>52.4</ele>
        <time>2014-06-23T18:15:36Z</time>
      </trkpt>
      <trkpt lat="59.977161793377" lon="23.365560292262">
        <ele>52.4</ele>
        <time>2014-06-23T18:15:42Z</time>
      </trkpt>
      <trkpt lat="59.977140000437" lon="23.365821639904">
        <ele>52.4</ele>
        <time>2014-06-23T18:15:47Z</time>
      </trkpt>
      <trkpt lat="59.977110747606" lon="23.366080472976">
        <ele>52.4</ele>
        <time>2014-06-23T18:15:52Z</time>
      </trkpt>
      <trkpt lat="59.977088116476" lon="23.366320949687">
        <ele>52.4</ele>
        <time>2014-06-23T18:15:57Z</time>
      </trkpt>
      <trkpt lat="59.977052325763" lon="23.366622195173">
        <ele>52.4</ele>
        <time>2014-06-23T18:16:03Z</time>
      </trkpt>
      <trkpt lat="59.977016367412" lon="23.366930984369">
        <ele>52.8</ele>
        <time>2014-06-23T18:16:08Z</time>
      </trkpt>
      <trkpt lat="59.976998430146" lon="23.367138939308">
        <ele>53.4</ele>
        <time>2014-06-23T18:16:12Z</time>
      </trkpt>
      <trkpt lat="59.976949647488" lon="23.367509419288">
        <ele>54</ele>
        <time>2014-06-23T18:16:19Z</time>
      </trkpt>
      <trkpt lat="59.976935817353" lon="23.36776154684">
        <ele>55</ele>
        <time>2014-06-23T18:16:24Z</time>
      </trkpt>
      <trkpt lat="59.976923160684" lon="23.367968998865">
        <ele>55.6</ele>
        <time>2014-06-23T18:16:28Z</time>
      </trkpt>
      <trkpt lat="59.9769033794" lon="23.368221294055">
        <ele>56</ele>
        <time>2014-06-23T18:16:33Z</time>
      </trkpt>
      <trkpt lat="59.976895751871" lon="23.368415418859">
        <ele>57</ele>
        <time>2014-06-23T18:16:37Z</time>
      </trkpt>
      <trkpt lat="59.976873958931" lon="23.368670563895">
        <ele>57.6</ele>
        <time>2014-06-23T18:16:42Z</time>
      </trkpt>
      <trkpt lat="59.976843784091" lon="23.368944400568">
        <ele>58</ele>
        <time>2014-06-23T18:16:47Z</time>
      </trkpt>
      <trkpt lat="59.976821991151" lon="23.369201305803">
        <ele>58.4</ele>
        <time>2014-06-23T18:16:52Z</time>
      </trkpt>
      <trkpt lat="59.97679273832" lon="23.36950917299">
        <ele>58.6</ele>
        <time>2014-06-23T18:16:58Z</time>
      </trkpt>
      <trkpt lat="59.976753511028" lon="23.36987210926">
        <ele>58.6</ele>
        <time>2014-06-23T18:17:05Z</time>
      </trkpt>
      <trkpt lat="59.976725264025" lon="23.370137899309">
        <ele>58.6</ele>
        <time>2014-06-23T18:17:10Z</time>
      </trkpt>
      <trkpt lat="59.97668964095" lon="23.370415843113">
        <ele>58.2</ele>
        <time>2014-06-23T18:17:15Z</time>
      </trkpt>
      <trkpt lat="59.976665920173" lon="23.370670652873">
        <ele>57.6</ele>
        <time>2014-06-23T18:17:20Z</time>
      </trkpt>
      <trkpt lat="59.976638259903" lon="23.370938622216">
        <ele>57.2</ele>
        <time>2014-06-23T18:17:25Z</time>
      </trkpt>
      <trkpt lat="59.976620154999" lon="23.371194521623">
        <ele>57</ele>
        <time>2014-06-23T18:17:30Z</time>
      </trkpt>
      <trkpt lat="59.976590902168" lon="23.371479170947">
        <ele>56.8</ele>
        <time>2014-06-23T18:17:35Z</time>
      </trkpt>
      <trkpt lat="59.976581933535" lon="23.371587800371">
        <ele>56.8</ele>
        <time>2014-06-23T18:17:37Z</time>
      </trkpt>
      <trkpt lat="59.976564415364" lon="23.371801455002">
        <ele>56.8</ele>
        <time>2014-06-23T18:17:41Z</time>
      </trkpt>
      <trkpt lat="59.976530468669" lon="23.372131366586">
        <ele>56.8</ele>
        <time>2014-06-23T18:17:47Z</time>
      </trkpt>
      <trkpt lat="59.97650272458" lon="23.372367484709">
        <ele>56.8</ele>
        <time>2014-06-23T18:17:52Z</time>
      </trkpt>
      <trkpt lat="59.976476992147" lon="23.37257946296">
        <ele>56.8</ele>
        <time>2014-06-23T18:17:56Z</time>
      </trkpt>
      <trkpt lat="59.976426700747" lon="23.37288456412">
        <ele>56.8</ele>
        <time>2014-06-23T18:18:01Z</time>
      </trkpt>
      <trkpt lat="59.9763920835" lon="23.373147001409">
        <ele>56.8</ele>
        <time>2014-06-23T18:18:06Z</time>
      </trkpt>
      <trkpt lat="59.976350844552" lon="23.37346878255">
        <ele>56.8</ele>
        <time>2014-06-23T18:18:12Z</time>
      </trkpt>
      <trkpt lat="59.976308096862" lon="23.373731555115">
        <ele>56.8</ele>
        <time>2014-06-23T18:18:17Z</time>
      </trkpt>
      <trkpt lat="59.976252608684" lon="23.374075464472">
        <ele>56.8</ele>
        <time>2014-06-23T18:18:24Z</time>
      </trkpt>
      <trkpt lat="59.976220506007" lon="23.374332285888">
        <ele>56.8</ele>
        <time>2014-06-23T18:18:29Z</time>
      </trkpt>
      <trkpt lat="59.97618924152" lon="23.374542001026">
        <ele>56.8</ele>
        <time>2014-06-23T18:18:34Z</time>
      </trkpt>
      <trkpt lat="59.97615990487" lon="23.374755739476">
        <ele>56.8</ele>
        <time>2014-06-23T18:18:38Z</time>
      </trkpt>
      <trkpt lat="59.976117240999" lon="23.375029576149">
        <ele>56.8</ele>
        <time>2014-06-23T18:18:43Z</time>
      </trkpt>
      <trkpt lat="59.976059238251" lon="23.375361834665">
        <ele>56.8</ele>
        <time>2014-06-23T18:18:49Z</time>
      </trkpt>
      <trkpt lat="59.976013389258" lon="23.375713036275">
        <ele>56.8</ele>
        <time>2014-06-23T18:18:56Z</time>
      </trkpt>
      <trkpt lat="59.975979526382" lon="23.375948400027">
        <ele>56.8</ele>
        <time>2014-06-23T18:19:01Z</time>
      </trkpt>
      <trkpt lat="59.975928480611" lon="23.376324076785">
        <ele>56.8</ele>
        <time>2014-06-23T18:19:08Z</time>
      </trkpt>
      <trkpt lat="59.97589671321" lon="23.3765491308">
        <ele>56.8</ele>
        <time>2014-06-23T18:19:13Z</time>
      </trkpt>
      <trkpt lat="59.975852540597" lon="23.376810897537">
        <ele>56.8</ele>
        <time>2014-06-23T18:19:18Z</time>
      </trkpt>
      <trkpt lat="59.975822198119" lon="23.376964789221">
        <ele>56.8</ele>
        <time>2014-06-23T18:19:22Z</time>
      </trkpt>
      <trkpt lat="59.975787999967" lon="23.377211552357">
        <ele>56.8</ele>
        <time>2014-06-23T18:19:26Z</time>
      </trkpt>
      <trkpt lat="59.975742653888" lon="23.377542218312">
        <ele>56.8</ele>
        <time>2014-06-23T18:19:32Z</time>
      </trkpt>
      <trkpt lat="59.975703761872" lon="23.377831142405">
        <ele>56.8</ele>
        <time>2014-06-23T18:19:37Z</time>
      </trkpt>
      <trkpt lat="59.975659086345" lon="23.378174465029">
        <ele>56.4</ele>
        <time>2014-06-23T18:19:43Z</time>
      </trkpt>
      <trkpt lat="59.975625307288" lon="23.37841997088">
        <ele>55.8</ele>
        <time>2014-06-23T18:19:47Z</time>
      </trkpt>
      <trkpt lat="59.975572836594" lon="23.378750385378">
        <ele>55.2</ele>
        <time>2014-06-23T18:19:53Z</time>
      </trkpt>
      <trkpt lat="59.975543332306" lon="23.379046350267">
        <ele>54</ele>
        <time>2014-06-23T18:19:58Z</time>
      </trkpt>
      <trkpt lat="59.975522293737" lon="23.379273164481">
        <ele>53.2</ele>
        <time>2014-06-23T18:20:02Z</time>
      </trkpt>
      <trkpt lat="59.975509720887" lon="23.379569716103">
        <ele>52</ele>
        <time>2014-06-23T18:20:07Z</time>
      </trkpt>
      <trkpt lat="59.97549773477" lon="23.379900382058">
        <ele>50.2</ele>
        <time>2014-06-23T18:20:13Z</time>
      </trkpt>
      <trkpt lat="59.975503015367" lon="23.38013071667">
        <ele>48.8</ele>
        <time>2014-06-23T18:20:17Z</time>
      </trkpt>
      <trkpt lat="59.975508966516" lon="23.380409498664">
        <ele>47</ele>
        <time>2014-06-23T18:20:22Z</time>
      </trkpt>
      <trkpt lat="59.975518270425" lon="23.380597504681">
        <ele>45.6</ele>
        <time>2014-06-23T18:20:26Z</time>
      </trkpt>
      <trkpt lat="59.975511648724" lon="23.380879555616">
        <ele>44</ele>
        <time>2014-06-23T18:20:31Z</time>
      </trkpt>
      <trkpt lat="59.975503853557" lon="23.381247437207">
        <ele>41.8</ele>
        <time>2014-06-23T18:20:37Z</time>
      </trkpt>
      <trkpt lat="59.97550108753" lon="23.381518004939">
        <ele>39.8</ele>
        <time>2014-06-23T18:20:42Z</time>
      </trkpt>
      <trkpt lat="59.975496309847" lon="23.381809275964">
        <ele>38.2</ele>
        <time>2014-06-23T18:20:47Z</time>
      </trkpt>
      <trkpt lat="59.97548097097" lon="23.382172798967">
        <ele>36.4</ele>
        <time>2014-06-23T18:20:53Z</time>
      </trkpt>
      <trkpt lat="59.975471667061" lon="23.382518803799">
        <ele>34.8</ele>
        <time>2014-06-23T18:20:59Z</time>
      </trkpt>
      <trkpt lat="59.975477785848" lon="23.38257739328">
        <ele>34.6</ele>
        <time>2014-06-23T18:21:00Z</time>
      </trkpt>
      <trkpt lat="59.975475187459" lon="23.382749892782">
        <ele>34</ele>
        <time>2014-06-23T18:21:03Z</time>
      </trkpt>
      <trkpt lat="59.975473930174" lon="23.382802950209">
        <ele>34</ele>
        <time>2014-06-23T18:21:04Z</time>
      </trkpt>
      <trkpt lat="59.975467057016" lon="23.383153900362">
        <ele>32.4</ele>
        <time>2014-06-23T18:21:10Z</time>
      </trkpt>
      <trkpt lat="59.975464542446" lon="23.383452379821">
        <ele>31.6</ele>
        <time>2014-06-23T18:21:16Z</time>
      </trkpt>
      <trkpt lat="59.975460602953" lon="23.383652371955">
        <ele>31.2</ele>
        <time>2014-06-23T18:21:20Z</time>
      </trkpt>
      <trkpt lat="59.975472086156" lon="23.383900476195">
        <ele>31</ele>
        <time>2014-06-23T18:21:25Z</time>
      </trkpt>
      <trkpt lat="59.975442498049" lon="23.384265005026">
        <ele>30.8</ele>
        <time>2014-06-23T18:21:31Z</time>
      </trkpt>
      <trkpt lat="59.975428500276" lon="23.384536578586">
        <ele>30.8</ele>
        <time>2014-06-23T18:21:36Z</time>
      </trkpt>
      <trkpt lat="59.975405198594" lon="23.384860203745">
        <ele>30.8</ele>
        <time>2014-06-23T18:21:42Z</time>
      </trkpt>
      <trkpt lat="59.975391703735" lon="23.385218613789">
        <ele>30.8</ele>
        <time>2014-06-23T18:21:49Z</time>
      </trkpt>
      <trkpt lat="59.975395643228" lon="23.385447858754">
        <ele>30.8</ele>
        <time>2014-06-23T18:21:53Z</time>
      </trkpt>
      <trkpt lat="59.97537954998" lon="23.385591943615">
        <ele>31.2</ele>
        <time>2014-06-23T18:21:56Z</time>
      </trkpt>
      <trkpt lat="59.975383154197" lon="23.385798222174">
        <ele>31.8</ele>
        <time>2014-06-23T18:22:01Z</time>
      </trkpt>
      <trkpt lat="59.975384662939" lon="23.385883801373">
        <ele>32</ele>
        <time>2014-06-23T18:22:03Z</time>
      </trkpt>
      <trkpt lat="59.975403354576" lon="23.386123188437">
        <ele>32.2</ele>
        <time>2014-06-23T18:22:08Z</time>
      </trkpt>
      <trkpt lat="59.975423219679" lon="23.386388475572">
        <ele>32.8</ele>
        <time>2014-06-23T18:22:13Z</time>
      </trkpt>
      <trkpt lat="59.975415759788" lon="23.386685781565">
        <ele>33.6</ele>
        <time>2014-06-23T18:22:18Z</time>
      </trkpt>
      <trkpt lat="59.975431685398" lon="23.386957690401">
        <ele>34.4</ele>
        <time>2014-06-23T18:22:23Z</time>
      </trkpt>
      <trkpt lat="59.975436127805" lon="23.387185594262">
        <ele>35.2</ele>
        <time>2014-06-23T18:22:27Z</time>
      </trkpt>
      <trkpt lat="59.975452221053" lon="23.387453898881">
        <ele>35.8</ele>
        <time>2014-06-23T18:22:32Z</time>
      </trkpt>
      <trkpt lat="59.97547091269" lon="23.387674678127">
        <ele>36.2</ele>
        <time>2014-06-23T18:22:36Z</time>
      </trkpt>
      <trkpt lat="59.975516426407" lon="23.387935606674">
        <ele>36.8</ele>
        <time>2014-06-23T18:22:41Z</time>
      </trkpt>
      <trkpt lat="59.975561604848" lon="23.388182118353">
        <ele>37.6</ele>
        <time>2014-06-23T18:22:46Z</time>
      </trkpt>
      <trkpt lat="59.975621703071" lon="23.388474981939">
        <ele>38.2</ele>
        <time>2014-06-23T18:22:52Z</time>
      </trkpt>
      <trkpt lat="59.975706024985" lon="23.388746304042">
        <ele>38.6</ele>
        <time>2014-06-23T18:22:58Z</time>
      </trkpt>
      <trkpt lat="59.975781797361" lon="23.388981081061">
        <ele>38.6</ele>
        <time>2014-06-23T18:23:03Z</time>
      </trkpt>
      <trkpt lat="59.975861928325" lon="23.389207643818">
        <ele>38.8</ele>
        <time>2014-06-23T18:23:08Z</time>
      </trkpt>
      <trkpt lat="59.975936527235" lon="23.389448707262">
        <ele>38.8</ele>
        <time>2014-06-23T18:23:13Z</time>
      </trkpt>
      <trkpt lat="59.976027303212" lon="23.389719358813">
        <ele>38.8</ele>
        <time>2014-06-23T18:23:19Z</time>
      </trkpt>
      <trkpt lat="59.976112798592" lon="23.39000794763">
        <ele>38.4</ele>
        <time>2014-06-23T18:23:25Z</time>
      </trkpt>
      <trkpt lat="59.976210950641" lon="23.39027281567">
        <ele>37.6</ele>
        <time>2014-06-23T18:23:31Z</time>
      </trkpt>
      <trkpt lat="59.9763166464" lon="23.390585125264">
        <ele>37.2</ele>
        <time>2014-06-23T18:23:38Z</time>
      </trkpt>
      <trkpt lat="59.9763753197" lon="23.390766006666">
        <ele>36.6</ele>
        <time>2014-06-23T18:23:42Z</time>
      </trkpt>
      <trkpt lat="59.976473890844" lon="23.391044872479">
        <ele>35.8</ele>
        <time>2014-06-23T18:23:48Z</time>
      </trkpt>
      <trkpt lat="59.976594506385" lon="23.39135240439">
        <ele>34.4</ele>
        <time>2014-06-23T18:23:55Z</time>
      </trkpt>
      <trkpt lat="59.976661310128" lon="23.391537057647">
        <ele>33.8</ele>
        <time>2014-06-23T18:23:59Z</time>
      </trkpt>
      <trkpt lat="59.976736914866" lon="23.391755909056">
        <ele>33.2</ele>
        <time>2014-06-23T18:24:04Z</time>
      </trkpt>
      <trkpt lat="59.976841018064" lon="23.392014406852">
        <ele>32</ele>
        <time>2014-06-23T18:24:10Z</time>
      </trkpt>
      <trkpt lat="59.976873120741" lon="23.392098812585">
        <ele>31.6</ele>
        <time>2014-06-23T18:24:12Z</time>
      </trkpt>
      <trkpt lat="59.976986024934" lon="23.392339708391">
        <ele>30.4</ele>
        <time>2014-06-23T18:24:18Z</time>
      </trkpt>
      <trkpt lat="59.977025587502" lon="23.392423359753">
        <ele>30</ele>
        <time>2014-06-23T18:24:20Z</time>
      </trkpt>
      <trkpt lat="59.977137150591" lon="23.392603570603">
        <ele>29.2</ele>
        <time>2014-06-23T18:24:25Z</time>
      </trkpt>
      <trkpt lat="59.977272099181" lon="23.392859134734">
        <ele>28</ele>
        <time>2014-06-23T18:24:31Z</time>
      </trkpt>
      <trkpt lat="59.977388356134" lon="23.393088714975">
        <ele>27.2</ele>
        <time>2014-06-23T18:24:37Z</time>
      </trkpt>
      <trkpt lat="59.977539900886" lon="23.393298011018">
        <ele>26</ele>
        <time>2014-06-23T18:24:43Z</time>
      </trkpt>
      <trkpt lat="59.977647273025" lon="23.393503954301">
        <ele>25.4</ele>
        <time>2014-06-23T18:24:48Z</time>
      </trkpt>
      <trkpt lat="59.977753387879" lon="23.393713250344">
        <ele>25</ele>
        <time>2014-06-23T18:24:53Z</time>
      </trkpt>
      <trkpt lat="59.977938460231" lon="23.393661785478">
        <ele>24.6</ele>
        <time>2014-06-23T18:24:59Z</time>
      </trkpt>
      <trkpt lat="59.978052454071" lon="23.39362138472">
        <ele>24</ele>
        <time>2014-06-23T18:25:03Z</time>
      </trkpt>
      <trkpt lat="59.978241885011" lon="23.393612583725">
        <ele>23.2</ele>
        <time>2014-06-23T18:25:09Z</time>
      </trkpt>
      <trkpt lat="59.978386724243" lon="23.393670670292">
        <ele>22.8</ele>
        <time>2014-06-23T18:25:14Z</time>
      </trkpt>
      <trkpt lat="59.978523768308" lon="23.393697492372">
        <ele>22.6</ele>
        <time>2014-06-23T18:25:19Z</time>
      </trkpt>
      <trkpt lat="59.978646646962" lon="23.393714339991">
        <ele>21.8</ele>
        <time>2014-06-23T18:25:23Z</time>
      </trkpt>
      <trkpt lat="59.97876751396" lon="23.393753399645">
        <ele>21.2</ele>
        <time>2014-06-23T18:25:28Z</time>
      </trkpt>
      <trkpt lat="59.978881675438" lon="23.393785250865">
        <ele>20.8</ele>
        <time>2014-06-23T18:25:32Z</time>
      </trkpt>
      <trkpt lat="59.97907932064" lon="23.393851132599">
        <ele>20.6</ele>
        <time>2014-06-23T18:25:39Z</time>
      </trkpt>
      <trkpt lat="59.979318288609" lon="23.393996223288">
        <ele>20.4</ele>
        <time>2014-06-23T18:25:49Z</time>
      </trkpt>
      <trkpt lat="59.979511491404" lon="23.394111390594">
        <ele>20.2</ele>
        <time>2014-06-23T18:25:55Z</time>
      </trkpt>
      <trkpt lat="59.979648032555" lon="23.394181547097">
        <ele>20.2</ele>
        <time>2014-06-23T18:26:00Z</time>
      </trkpt>
      <trkpt lat="59.979814748546" lon="23.394264108812">
        <ele>20.2</ele>
        <time>2014-06-23T18:26:06Z</time>
      </trkpt>
      <trkpt lat="59.979975932483" lon="23.394356728807">
        <ele>20.2</ele>
        <time>2014-06-23T18:26:12Z</time>
      </trkpt>
      <trkpt lat="59.980160250464" lon="23.394450438449">
        <ele>20.2</ele>
        <time>2014-06-23T18:26:18Z</time>
      </trkpt>
      <trkpt lat="59.980309532103" lon="23.394498047641">
        <ele>20.2</ele>
        <time>2014-06-23T18:26:23Z</time>
      </trkpt>
      <trkpt lat="59.9804740688" lon="23.394566443945">
        <ele>20.2</ele>
        <time>2014-06-23T18:26:29Z</time>
      </trkpt>
      <trkpt lat="59.980628882493" lon="23.394604162495">
        <ele>20.2</ele>
        <time>2014-06-23T18:26:34Z</time>
      </trkpt>
      <trkpt lat="59.980817559062" lon="23.394652442239">
        <ele>20.2</ele>
        <time>2014-06-23T18:26:40Z</time>
      </trkpt>
      <trkpt lat="59.980989052736" lon="23.394705667304">
        <ele>20.2</ele>
        <time>2014-06-23T18:26:46Z</time>
      </trkpt>
      <trkpt lat="59.981114194503" lon="23.394761071663">
        <ele>20.2</ele>
        <time>2014-06-23T18:26:50Z</time>
      </trkpt>
      <trkpt lat="59.981255010423" lon="23.394809351407">
        <ele>20.2</ele>
        <time>2014-06-23T18:26:55Z</time>
      </trkpt>
      <trkpt lat="59.981365651503" lon="23.394853440201">
        <ele>20.2</ele>
        <time>2014-06-23T18:26:59Z</time>
      </trkpt>
      <trkpt lat="59.981477298411" lon="23.394889482371">
        <ele>20.2</ele>
        <time>2014-06-23T18:27:03Z</time>
      </trkpt>
      <trkpt lat="59.981644684954" lon="23.394952598078">
        <ele>20.2</ele>
        <time>2014-06-23T18:27:09Z</time>
      </trkpt>
      <trkpt lat="59.981788769815" lon="23.395022922219">
        <ele>20.2</ele>
        <time>2014-06-23T18:27:14Z</time>
      </trkpt>
      <trkpt lat="59.981958084195" lon="23.395118308241">
        <ele>20.2</ele>
        <time>2014-06-23T18:27:20Z</time>
      </trkpt>
      <trkpt lat="59.982104935083" lon="23.395214867729">
        <ele>21</ele>
        <time>2014-06-23T18:27:25Z</time>
      </trkpt>
      <trkpt lat="59.982250612505" lon="23.395315534348">
        <ele>21.6</ele>
        <time>2014-06-23T18:27:30Z</time>
      </trkpt>
      <trkpt lat="59.982377179195" lon="23.395399018072">
        <ele>21.8</ele>
        <time>2014-06-23T18:27:36Z</time>
      </trkpt>
      <trkpt lat="59.982523108074" lon="23.395505887297">
        <ele>22</ele>
        <time>2014-06-23T18:27:42Z</time>
      </trkpt>
      <trkpt lat="59.982633162421" lon="23.395554921412">
        <ele>22.2</ele>
        <time>2014-06-23T18:27:47Z</time>
      </trkpt>
      <trkpt lat="59.982711700824" lon="23.395672519469">
        <ele>22.2</ele>
        <time>2014-06-23T18:27:51Z</time>
      </trkpt>
      <trkpt lat="59.982792669978" lon="23.395802858014">
        <ele>22.2</ele>
        <time>2014-06-23T18:27:56Z</time>
      </trkpt>
      <trkpt lat="59.982927702387" lon="23.395919534062">
        <ele>22.2</ele>
        <time>2014-06-23T18:28:01Z</time>
      </trkpt>
      <trkpt lat="59.983077654578" lon="23.396077029963">
        <ele>22.2</ele>
        <time>2014-06-23T18:28:07Z</time>
      </trkpt>
      <trkpt lat="59.983207238752" lon="23.396217426788">
        <ele>22.2</ele>
        <time>2014-06-23T18:28:12Z</time>
      </trkpt>
      <trkpt lat="59.983336822926" lon="23.396375174146">
        <ele>22.2</ele>
        <time>2014-06-23T18:28:18Z</time>
      </trkpt>
      <trkpt lat="59.9833742062" lon="23.396434434179">
        <ele>22.2</ele>
        <time>2014-06-23T18:28:20Z</time>
      </trkpt>
      <trkpt lat="59.983434974975" lon="23.396526215984">
        <ele>22.2</ele>
        <time>2014-06-23T18:28:23Z</time>
      </trkpt>
      <trkpt lat="59.98354352058" lon="23.396697206744">
        <ele>22.2</ele>
        <time>2014-06-23T18:28:28Z</time>
      </trkpt>
      <trkpt lat="59.983563888597" lon="23.396726124299">
        <ele>22.2</ele>
        <time>2014-06-23T18:28:29Z</time>
      </trkpt>
      <trkpt lat="59.983649300158" lon="23.396892588833">
        <ele>22.2</ele>
        <time>2014-06-23T18:28:34Z</time>
      </trkpt>
      <trkpt lat="59.983736220461" lon="23.397051844933">
        <ele>22.2</ele>
        <time>2014-06-23T18:28:38Z</time>
      </trkpt>
      <trkpt lat="59.983829678646" lon="23.397250076868">
        <ele>22.2</ele>
        <time>2014-06-23T18:28:43Z</time>
      </trkpt>
      <trkpt lat="59.983910228705" lon="23.397478232186">
        <ele>23</ele>
        <time>2014-06-23T18:28:48Z</time>
      </trkpt>
      <trkpt lat="59.984002597243" lon="23.397776124912">
        <ele>23.6</ele>
        <time>2014-06-23T18:28:54Z</time>
      </trkpt>
      <trkpt lat="59.984054062109" lon="23.398013416501">
        <ele>23.8</ele>
        <time>2014-06-23T18:28:59Z</time>
      </trkpt>
      <trkpt lat="59.984088595537" lon="23.398210139694">
        <ele>24</ele>
        <time>2014-06-23T18:29:03Z</time>
      </trkpt>
      <trkpt lat="59.98417970679" lon="23.39856502934">
        <ele>24.2</ele>
        <time>2014-06-23T18:29:10Z</time>
      </trkpt>
      <trkpt lat="59.984245337067" lon="23.398816151064">
        <ele>24.2</ele>
        <time>2014-06-23T18:29:15Z</time>
      </trkpt>
      <trkpt lat="59.984293616811" lon="23.399006839289">
        <ele>24.2</ele>
        <time>2014-06-23T18:29:19Z</time>
      </trkpt>
      <trkpt lat="59.984363940952" lon="23.399236000435">
        <ele>24.8</ele>
        <time>2014-06-23T18:29:23Z</time>
      </trkpt>
      <trkpt lat="59.984427727211" lon="23.399489972005">
        <ele>25.4</ele>
        <time>2014-06-23T18:29:28Z</time>
      </trkpt>
      <trkpt lat="59.984482461018" lon="23.399756181149">
        <ele>25.8</ele>
        <time>2014-06-23T18:29:33Z</time>
      </trkpt>
      <trkpt lat="59.984548007476" lon="23.400018953714">
        <ele>26.4</ele>
        <time>2014-06-23T18:29:38Z</time>
      </trkpt>
      <trkpt lat="59.984631826476" lon="23.400255071837">
        <ele>27.2</ele>
        <time>2014-06-23T18:29:43Z</time>
      </trkpt>
      <trkpt lat="59.984676250546" lon="23.400489681218">
        <ele>27.6</ele>
        <time>2014-06-23T18:29:47Z</time>
      </trkpt>
      <trkpt lat="59.984707012119" lon="23.400684308936">
        <ele>27.8</ele>
        <time>2014-06-23T18:29:51Z</time>
      </trkpt>
      <trkpt lat="59.984736516407" lon="23.400901986879">
        <ele>28.2</ele>
        <time>2014-06-23T18:29:55Z</time>
      </trkpt>
      <trkpt lat="59.984780940477" lon="23.401233323386">
        <ele>29.4</ele>
        <time>2014-06-23T18:30:01Z</time>
      </trkpt>
      <trkpt lat="59.98480248196" lon="23.401502214738">
        <ele>29.8</ele>
        <time>2014-06-23T18:30:06Z</time>
      </trkpt>
      <trkpt lat="59.984831148058" lon="23.401799520731">
        <ele>30.8</ele>
        <time>2014-06-23T18:30:11Z</time>
      </trkpt>
      <trkpt lat="59.984869369522" lon="23.402079224734">
        <ele>31.6</ele>
        <time>2014-06-23T18:30:16Z</time>
      </trkpt>
      <trkpt lat="59.984912536307" lon="23.402372591234">
        <ele>32.2</ele>
        <time>2014-06-23T18:30:21Z</time>
      </trkpt>
      <trkpt lat="59.984951428323" lon="23.40267048396">
        <ele>33.2</ele>
        <time>2014-06-23T18:30:26Z</time>
      </trkpt>
      <trkpt lat="59.985012532374" lon="23.403030738022">
        <ele>33.8</ele>
        <time>2014-06-23T18:30:32Z</time>
      </trkpt>
      <trkpt lat="59.985071876226" lon="23.403398284337">
        <ele>34.2</ele>
        <time>2014-06-23T18:30:38Z</time>
      </trkpt>
      <trkpt lat="59.985117557581" lon="23.40361931504">
        <ele>34.4</ele>
        <time>2014-06-23T18:30:42Z</time>
      </trkpt>
      <trkpt lat="59.985173883949" lon="23.404010330675">
        <ele>34.6</ele>
        <time>2014-06-23T18:30:48Z</time>
      </trkpt>
      <trkpt lat="59.985230042679" lon="23.404373015488">
        <ele>34.6</ele>
        <time>2014-06-23T18:30:54Z</time>
      </trkpt>
      <trkpt lat="59.985258373501" lon="23.404730084428">
        <ele>35.6</ele>
        <time>2014-06-23T18:31:00Z</time>
      </trkpt>
      <trkpt lat="59.985271700722" lon="23.405107856661">
        <ele>36</ele>
        <time>2014-06-23T18:31:06Z</time>
      </trkpt>
      <trkpt lat="59.985282513373" lon="23.405452352751">
        <ele>36.4</ele>
        <time>2014-06-23T18:31:11Z</time>
      </trkpt>
      <trkpt lat="59.985323417045" lon="23.405757370092">
        <ele>36.4</ele>
        <time>2014-06-23T18:31:16Z</time>
      </trkpt>
      <trkpt lat="59.98541268428" lon="23.40608610821">
        <ele>36.6</ele>
        <time>2014-06-23T18:31:22Z</time>
      </trkpt>
      <trkpt lat="59.985499269307" lon="23.406424401694">
        <ele>36.6</ele>
        <time>2014-06-23T18:31:28Z</time>
      </trkpt>
      <trkpt lat="59.985562468833" lon="23.406713744882">
        <ele>36.6</ele>
        <time>2014-06-23T18:31:34Z</time>
      </trkpt>
      <trkpt lat="59.98563815739" lon="23.406949527729">
        <ele>36.6</ele>
        <time>2014-06-23T18:31:39Z</time>
      </trkpt>
      <trkpt lat="59.98572532915" lon="23.407084476319">
        <ele>36.6</ele>
        <time>2014-06-23T18:31:43Z</time>
      </trkpt>
      <trkpt lat="59.98583513204" lon="23.40719084263">
        <ele>36.6</ele>
        <time>2014-06-23T18:31:47Z</time>
      </trkpt>
      <trkpt lat="59.986017773641" lon="23.407315649121">
        <ele>36.6</ele>
        <time>2014-06-23T18:31:53Z</time>
      </trkpt>
      <trkpt lat="59.986185244003" lon="23.407393181696">
        <ele>36.6</ele>
        <time>2014-06-23T18:31:59Z</time>
      </trkpt>
      <trkpt lat="59.986330921425" lon="23.407368874186">
        <ele>36.6</ele>
        <time>2014-06-23T18:32:04Z</time>
      </trkpt>
      <trkpt lat="59.986479951607" lon="23.407330568903">
        <ele>35.8</ele>
        <time>2014-06-23T18:32:09Z</time>
      </trkpt>
      <trkpt lat="59.986630406712" lon="23.407331155636">
        <ele>35.4</ele>
        <time>2014-06-23T18:32:14Z</time>
      </trkpt>
      <trkpt lat="59.986803492947" lon="23.407318834243">
        <ele>34.6</ele>
        <time>2014-06-23T18:32:20Z</time>
      </trkpt>
      <trkpt lat="59.986950511473" lon="23.407317912234">
        <ele>33.8</ele>
        <time>2014-06-23T18:32:25Z</time>
      </trkpt>
      <trkpt lat="59.98714354663" lon="23.407273236707">
        <ele>33</ele>
        <time>2014-06-23T18:32:31Z</time>
      </trkpt>
      <trkpt lat="59.98729190626" lon="23.407192016096">
        <ele>32</ele>
        <time>2014-06-23T18:32:36Z</time>
      </trkpt>
      <trkpt lat="59.987450240351" lon="23.407039214059">
        <ele>31.2</ele>
        <time>2014-06-23T18:32:42Z</time>
      </trkpt>
      <trkpt lat="59.98758946371" lon="23.406863445616">
        <ele>30.2</ele>
        <time>2014-06-23T18:32:48Z</time>
      </trkpt>
      <trkpt lat="59.987697422582" lon="23.406759426237">
        <ele>29.6</ele>
        <time>2014-06-23T18:32:52Z</time>
      </trkpt>
      <trkpt lat="59.987796077545" lon="23.406622633629">
        <ele>29.2</ele>
        <time>2014-06-23T18:32:56Z</time>
      </trkpt>
      <trkpt lat="59.98790797591" lon="23.40645910276">
        <ele>29</ele>
        <time>2014-06-23T18:33:01Z</time>
      </trkpt>
      <trkpt lat="59.987986095218" lon="23.406393891578">
        <ele>28.4</ele>
        <time>2014-06-23T18:33:04Z</time>
      </trkpt>
      <trkpt lat="59.988099502325" lon="23.406312838605">
        <ele>27.8</ele>
        <time>2014-06-23T18:33:08Z</time>
      </trkpt>
      <trkpt lat="59.988223219169" lon="23.406324824722">
        <ele>27.2</ele>
        <time>2014-06-23T18:33:12Z</time>
      </trkpt>
      <trkpt lat="59.988372416989" lon="23.406450385584">
        <ele>27</ele>
        <time>2014-06-23T18:33:17Z</time>
      </trkpt>
      <trkpt lat="59.988523123551" lon="23.406565636709">
        <ele>26.8</ele>
        <time>2014-06-23T18:33:22Z</time>
      </trkpt>
      <trkpt lat="59.988548185432" lon="23.406595643911">
        <ele>26.8</ele>
        <time>2014-06-23T18:33:23Z</time>
      </trkpt>
      <trkpt lat="59.98863217207" lon="23.406696729625">
        <ele>26.6</ele>
        <time>2014-06-23T18:33:27Z</time>
      </trkpt>
      <trkpt lat="59.988748009928" lon="23.406863361797">
        <ele>26.6</ele>
        <time>2014-06-23T18:33:32Z</time>
      </trkpt>
      <trkpt lat="59.988896453377" lon="23.407090008373">
        <ele>27.2</ele>
        <time>2014-06-23T18:33:38Z</time>
      </trkpt>
      <trkpt lat="59.988964179129" lon="23.407280109865">
        <ele>27.6</ele>
        <time>2014-06-23T18:33:42Z</time>
      </trkpt>
      <trkpt lat="59.989085046127" lon="23.40750516388">
        <ele>29</ele>
        <time>2014-06-23T18:33:47Z</time>
      </trkpt>
      <trkpt lat="59.989172469344" lon="23.407622007566">
        <ele>29.4</ele>
        <time>2014-06-23T18:33:50Z</time>
      </trkpt>
      <trkpt lat="59.98929266579" lon="23.407783694417">
        <ele>30.4</ele>
        <time>2014-06-23T18:33:55Z</time>
      </trkpt>
      <trkpt lat="59.989381178654" lon="23.407891988565">
        <ele>31.2</ele>
        <time>2014-06-23T18:33:59Z</time>
      </trkpt>
      <trkpt lat="59.989499279625" lon="23.407990392071">
        <ele>31.8</ele>
        <time>2014-06-23T18:34:04Z</time>
      </trkpt>
      <trkpt lat="59.989638586803" lon="23.408111845802">
        <ele>32.2</ele>
        <time>2014-06-23T18:34:09Z</time>
      </trkpt>
      <trkpt lat="59.989805889527" lon="23.408288117159">
        <ele>32.4</ele>
        <time>2014-06-23T18:34:15Z</time>
      </trkpt>
      <trkpt lat="59.989949136198" lon="23.408505208369">
        <ele>32.6</ele>
        <time>2014-06-23T18:34:21Z</time>
      </trkpt>
      <trkpt lat="59.990046952971" lon="23.408727161081">
        <ele>32.6</ele>
        <time>2014-06-23T18:34:26Z</time>
      </trkpt>
      <trkpt lat="59.99014175226" lon="23.408957830969">
        <ele>32.8</ele>
        <time>2014-06-23T18:34:31Z</time>
      </trkpt>
      <trkpt lat="59.990204365053" lon="23.409214400928">
        <ele>32.8</ele>
        <time>2014-06-23T18:34:36Z</time>
      </trkpt>
      <trkpt lat="59.99027921542" lon="23.409516400785">
        <ele>32.8</ele>
        <time>2014-06-23T18:34:42Z</time>
      </trkpt>
      <trkpt lat="59.990380384953" lon="23.409853688441">
        <ele>32.2</ele>
        <time>2014-06-23T18:34:48Z</time>
      </trkpt>
      <trkpt lat="59.990496055173" lon="23.410062565389">
        <ele>31.6</ele>
        <time>2014-06-23T18:34:53Z</time>
      </trkpt>
      <trkpt lat="59.990658328757" lon="23.410116796282">
        <ele>30.4</ele>
        <time>2014-06-23T18:34:58Z</time>
      </trkpt>
      <trkpt lat="59.99078548218" lon="23.410010932885">
        <ele>29</ele>
        <time>2014-06-23T18:35:03Z</time>
      </trkpt>
      <trkpt lat="59.990946163203" lon="23.409856957382">
        <ele>26.6</ele>
        <time>2014-06-23T18:35:09Z</time>
      </trkpt>
      <trkpt lat="59.991106006036" lon="23.409691582495">
        <ele>24</ele>
        <time>2014-06-23T18:35:15Z</time>
      </trkpt>
      <trkpt lat="59.991278589357" lon="23.409581276691">
        <ele>21.2</ele>
        <time>2014-06-23T18:35:21Z</time>
      </trkpt>
      <trkpt lat="59.991422171304" lon="23.409487064135">
        <ele>19.2</ele>
        <time>2014-06-23T18:35:26Z</time>
      </trkpt>
      <trkpt lat="59.991595592815" lon="23.409455799648">
        <ele>17.2</ele>
        <time>2014-06-23T18:35:32Z</time>
      </trkpt>
      <trkpt lat="59.991794327664" lon="23.409493602017">
        <ele>15.4</ele>
        <time>2014-06-23T18:35:38Z</time>
      </trkpt>
      <trkpt lat="59.991956852705" lon="23.409554370792">
        <ele>14.4</ele>
        <time>2014-06-23T18:35:44Z</time>
      </trkpt>
      <trkpt lat="59.99210730781" lon="23.409601309432">
        <ele>13.4</ele>
        <time>2014-06-23T18:35:49Z</time>
      </trkpt>
      <trkpt lat="59.992294391818" lon="23.409701389318">
        <ele>12.4</ele>
        <time>2014-06-23T18:35:55Z</time>
      </trkpt>
      <trkpt lat="59.992455408117" lon="23.409840445039">
        <ele>12</ele>
        <time>2014-06-23T18:36:00Z</time>
      </trkpt>
      <trkpt lat="59.992621705013" lon="23.410078993913">
        <ele>11.8</ele>
        <time>2014-06-23T18:36:06Z</time>
      </trkpt>
      <trkpt lat="59.99271583375" lon="23.410285607748">
        <ele>11.6</ele>
        <time>2014-06-23T18:36:10Z</time>
      </trkpt>
      <trkpt lat="59.992779452371" lon="23.410521558233">
        <ele>11.4</ele>
        <time>2014-06-23T18:36:15Z</time>
      </trkpt>
      <trkpt lat="59.992865702122" lon="23.410751306112">
        <ele>11.4</ele>
        <time>2014-06-23T18:36:20Z</time>
      </trkpt>
      <trkpt lat="59.992952538606" lon="23.411068728665">
        <ele>11.4</ele>
        <time>2014-06-23T18:36:26Z</time>
      </trkpt>
      <trkpt lat="59.992995873029" lon="23.411342565338">
        <ele>11.4</ele>
        <time>2014-06-23T18:36:31Z</time>
      </trkpt>
      <trkpt lat="59.993030322638" lon="23.411694521319">
        <ele>11.4</ele>
        <time>2014-06-23T18:36:37Z</time>
      </trkpt>
      <trkpt lat="59.993042644031" lon="23.411983193955">
        <ele>11.4</ele>
        <time>2014-06-23T18:36:42Z</time>
      </trkpt>
      <trkpt lat="59.993028730077" lon="23.412313189358">
        <ele>12.2</ele>
        <time>2014-06-23T18:36:47Z</time>
      </trkpt>
      <trkpt lat="59.993003752015" lon="23.412573279715">
        <ele>12.6</ele>
        <time>2014-06-23T18:36:51Z</time>
      </trkpt>
      <trkpt lat="59.992984389826" lon="23.412808643467">
        <ele>13</ele>
        <time>2014-06-23T18:36:55Z</time>
      </trkpt>
      <trkpt lat="59.992965446732" lon="23.413166047683">
        <ele>13.2</ele>
        <time>2014-06-23T18:37:01Z</time>
      </trkpt>
      <trkpt lat="59.992936780634" lon="23.41352252989">
        <ele>13.2</ele>
        <time>2014-06-23T18:37:07Z</time>
      </trkpt>
      <trkpt lat="59.992918088997" lon="23.413816818399">
        <ele>13.8</ele>
        <time>2014-06-23T18:37:12Z</time>
      </trkpt>
      <trkpt lat="59.992908701269" lon="23.414103311741">
        <ele>14.4</ele>
        <time>2014-06-23T18:37:17Z</time>
      </trkpt>
      <trkpt lat="59.992889590537" lon="23.41442442233">
        <ele>14.8</ele>
        <time>2014-06-23T18:37:22Z</time>
      </trkpt>
      <trkpt lat="59.992909623278" lon="23.41466665924">
        <ele>15</ele>
        <time>2014-06-23T18:37:26Z</time>
      </trkpt>
      <trkpt lat="59.992964943818" lon="23.414951476202">
        <ele>15.2</ele>
        <time>2014-06-23T18:37:31Z</time>
      </trkpt>
      <trkpt lat="59.993025880231" lon="23.415265881271">
        <ele>15.4</ele>
        <time>2014-06-23T18:37:37Z</time>
      </trkpt>
      <trkpt lat="59.993078350925" lon="23.415526977456">
        <ele>15.4</ele>
        <time>2014-06-23T18:37:42Z</time>
      </trkpt>
      <trkpt lat="59.99316929454" lon="23.41582000868">
        <ele>15.4</ele>
        <time>2014-06-23T18:37:48Z</time>
      </trkpt>
      <trkpt lat="59.993247749124" lon="23.416062832323">
        <ele>15.4</ele>
        <time>2014-06-23T18:37:53Z</time>
      </trkpt>
      <trkpt lat="59.993346068811" lon="23.416366005646">
        <ele>15.4</ele>
        <time>2014-06-23T18:37:59Z</time>
      </trkpt>
      <trkpt lat="59.993436425693" lon="23.416582593942">
        <ele>15.4</ele>
        <time>2014-06-23T18:38:04Z</time>
      </trkpt>
      <trkpt lat="59.993506917472" lon="23.416776132013">
        <ele>15.4</ele>
        <time>2014-06-23T18:38:08Z</time>
      </trkpt>
      <trkpt lat="59.993591658481" lon="23.416963635116">
        <ele>15.4</ele>
        <time>2014-06-23T18:38:12Z</time>
      </trkpt>
      <trkpt lat="59.993725098329" lon="23.417227413509">
        <ele>15.4</ele>
        <time>2014-06-23T18:38:18Z</time>
      </trkpt>
      <trkpt lat="59.993748148554" lon="23.417267730448">
        <ele>15.4</ele>
        <time>2014-06-23T18:38:19Z</time>
      </trkpt>
      <trkpt lat="59.993865327516" lon="23.417408546368">
        <ele>15.4</ele>
        <time>2014-06-23T18:38:23Z</time>
      </trkpt>
      <trkpt lat="59.993996671889" lon="23.41750141782">
        <ele>15.4</ele>
        <time>2014-06-23T18:38:27Z</time>
      </trkpt>
      <trkpt lat="59.994124579683" lon="23.417637288419">
        <ele>15.4</ele>
        <time>2014-06-23T18:38:31Z</time>
      </trkpt>
      <trkpt lat="59.994268245449" lon="23.417900899174">
        <ele>15.4</ele>
        <time>2014-06-23T18:38:37Z</time>
      </trkpt>
      <trkpt lat="59.994370085534" lon="23.418174232933">
        <ele>15.4</ele>
        <time>2014-06-23T18:38:42Z</time>
      </trkpt>
      <trkpt lat="59.99445256343" lon="23.418432227815">
        <ele>15.4</ele>
        <time>2014-06-23T18:38:47Z</time>
      </trkpt>
      <trkpt lat="59.994543255588" lon="23.418788961479">
        <ele>15.4</ele>
        <time>2014-06-23T18:38:53Z</time>
      </trkpt>
      <trkpt lat="59.994622296905" lon="23.419140246908">
        <ele>15.4</ele>
        <time>2014-06-23T18:38:59Z</time>
      </trkpt>
      <trkpt lat="59.994689687381" lon="23.41949295726">
        <ele>15.4</ele>
        <time>2014-06-23T18:39:05Z</time>
      </trkpt>
      <trkpt lat="59.994756910219" lon="23.419829490545">
        <ele>15.4</ele>
        <time>2014-06-23T18:39:11Z</time>
      </trkpt>
      <trkpt lat="59.994796891882" lon="23.420035014733">
        <ele>15.4</ele>
        <time>2014-06-23T18:39:15Z</time>
      </trkpt>
      <trkpt lat="59.99486998205" lon="23.420373140579">
        <ele>15.4</ele>
        <time>2014-06-23T18:39:21Z</time>
      </trkpt>
      <trkpt lat="59.994926308418" lon="23.420738172324">
        <ele>15.4</ele>
        <time>2014-06-23T18:39:27Z</time>
      </trkpt>
      <trkpt lat="59.994991435781" lon="23.421073280686">
        <ele>15.4</ele>
        <time>2014-06-23T18:39:33Z</time>
      </trkpt>
      <trkpt lat="59.995021778259" lon="23.421443509209">
        <ele>15.4</ele>
        <time>2014-06-23T18:39:39Z</time>
      </trkpt>
      <trkpt lat="59.995015156558" lon="23.421810971705">
        <ele>15.4</ele>
        <time>2014-06-23T18:39:45Z</time>
      </trkpt>
      <trkpt lat="59.99499571055" lon="23.42219025268">
        <ele>14.8</ele>
        <time>2014-06-23T18:39:51Z</time>
      </trkpt>
      <trkpt lat="59.994978024741" lon="23.422463083525">
        <ele>14.4</ele>
        <time>2014-06-23T18:39:55Z</time>
      </trkpt>
      <trkpt lat="59.99496385933" lon="23.422773465282">
        <ele>14</ele>
        <time>2014-06-23T18:40:00Z</time>
      </trkpt>
      <trkpt lat="59.994984059709" lon="23.42306699942">
        <ele>13.8</ele>
        <time>2014-06-23T18:40:05Z</time>
      </trkpt>
      <trkpt lat="59.995063939216" lon="23.423333627659">
        <ele>14</ele>
        <time>2014-06-23T18:40:10Z</time>
      </trkpt>
      <trkpt lat="59.9951507757" lon="23.42366965803">
        <ele>15</ele>
        <time>2014-06-23T18:40:16Z</time>
      </trkpt>
      <trkpt lat="59.995214729597" lon="23.424021027278">
        <ele>16.6</ele>
        <time>2014-06-23T18:40:22Z</time>
      </trkpt>
      <trkpt lat="59.995218333814" lon="23.424082801881">
        <ele>17</ele>
        <time>2014-06-23T18:40:23Z</time>
      </trkpt>
      <trkpt lat="59.99517508321" lon="23.424298216711">
        <ele>18</ele>
        <time>2014-06-23T18:40:27Z</time>
      </trkpt>
      <trkpt lat="59.995141304153" lon="23.424358482572">
        <ele>18.8</ele>
        <time>2014-06-23T18:40:29Z</time>
      </trkpt>
      <trkpt lat="59.995024125191" lon="23.42453718468">
        <ele>20</ele>
        <time>2014-06-23T18:40:34Z</time>
      </trkpt>
      <trkpt lat="59.994910298989" lon="23.424646819932">
        <ele>20.6</ele>
        <time>2014-06-23T18:40:38Z</time>
      </trkpt>
      <trkpt lat="59.99476604649" lon="23.424798532322">
        <ele>21.2</ele>
        <time>2014-06-23T18:40:43Z</time>
      </trkpt>
      <trkpt lat="59.994708546656" lon="23.424940689346">
        <ele>21.4</ele>
        <time>2014-06-23T18:40:46Z</time>
      </trkpt>
      <trkpt lat="59.994723717895" lon="23.425248891809">
        <ele>21.6</ele>
        <time>2014-06-23T18:40:52Z</time>
      </trkpt>
      <trkpt lat="59.994760346798" lon="23.425377805431">
        <ele>21.6</ele>
        <time>2014-06-23T18:40:55Z</time>
      </trkpt>
      <trkpt lat="59.994769902164" lon="23.425543599413">
        <ele>21.8</ele>
        <time>2014-06-23T18:40:59Z</time>
      </trkpt>
      <trkpt lat="59.994847183282" lon="23.425876109386">
        <ele>21.8</ele>
        <time>2014-06-23T18:41:06Z</time>
      </trkpt>
      <trkpt lat="59.994909125523" lon="23.426048608888">
        <ele>21.8</ele>
        <time>2014-06-23T18:41:10Z</time>
      </trkpt>
      <trkpt lat="59.995014486006" lon="23.426168721515">
        <ele>21.4</ele>
        <time>2014-06-23T18:41:14Z</time>
      </trkpt>
      <trkpt lat="59.995093192047" lon="23.426279027319">
        <ele>21</ele>
        <time>2014-06-23T18:41:18Z</time>
      </trkpt>
      <trkpt lat="59.99509545516" lon="23.426294701472">
        <ele>20.8</ele>
        <time>2014-06-23T18:41:19Z</time>
      </trkpt>
      <trkpt lat="59.995089168735" lon="23.426363349233">
        <ele>20.4</ele>
        <time>2014-06-23T18:41:23Z</time>
      </trkpt>
    </trkseg>
  </trk>
</gpx>